Provisional Data: Little Muncy Creek near Moreland, PA


Please select a monitoring station.
Please select start date.
Please select start date.

Toggle Unit: C/F Toggle Unit: C/F
Sample Time Temperature (C) Temperature (F) Specific Conductivity (mS/cm) pH   Turbidity (NTU+) DO (mg/L)
1/12/2021 12:00:00 AM 0.54 32.972 0.105 7.02 8.8 13.87
1/12/2021 12:15:00 AM 0.51 32.918 0.105 7.03 8.76 13.88
1/12/2021 12:30:00 AM 0.5 32.9 0.105 7.03 8.77 13.89
1/12/2021 12:45:00 AM 0.48 32.864 0.105 7.03 8.93 13.9
1/12/2021 1:00:00 AM 0.46 32.828 0.105 7.03 8.91 13.91
1/12/2021 1:15:00 AM 0.43 32.774 0.105 7.02 8.82 13.93
1/12/2021 1:30:00 AM 0.4 32.72 0.105 7.02 8.93 13.94
1/12/2021 1:45:00 AM 0.36 32.648 0.105 7.03 8.87 13.95
1/12/2021 2:00:00 AM 0.33 32.594 0.105 7.02 8.88 13.97
1/12/2021 2:15:00 AM 0.3 32.54 0.105 7.02 8.81 13.98
1/12/2021 2:30:00 AM 0.27 32.486 0.105 7.03 8.87 13.99
1/12/2021 2:45:00 AM 0.24 32.432 0.105 7.03 8.89 14
1/12/2021 3:00:00 AM 0.21 32.378 0.105 7.02 8.91 14.02
1/12/2021 3:15:00 AM 0.18 32.324 0.105 7.03 8.78 14.03
1/12/2021 3:30:00 AM 0.15 32.27 0.105 7.02 8.86 14.05
1/12/2021 3:45:00 AM 0.12 32.216 0.105 7.03 8.86 14.06
1/12/2021 4:00:00 AM 0.09 32.162 0.105 7.03 8.82 14.08
1/12/2021 4:15:00 AM 0.05 32.09 0.105 7.02 8.87 14.09
1/12/2021 4:30:00 AM 0.02 32.036 0.105 7.02 9.03 14.1
1/12/2021 4:45:00 AM -0.01 31.982 0.105 7.03 9.15 14.12
1/12/2021 5:00:00 AM -0.03 31.946 0.105 7.01 9.24 14.13
1/12/2021 5:15:00 AM -0.05 31.91 0.105 7.02 9.37 14.14
1/12/2021 5:30:00 AM -0.07 31.874 0.105 7.02 9.32 14.15
1/12/2021 5:45:00 AM -0.06 31.892 0.105 7.03 9.17 14.16
1/12/2021 6:00:00 AM -0.06 31.892 0.105 7.03 9.17 14.17
1/12/2021 6:15:00 AM -0.05 31.91 0.105 7.03 8.99 14.17
1/12/2021 6:30:00 AM -0.05 31.91 0.105 7.04 9.23 14.19
1/12/2021 6:45:00 AM -0.05 31.91 0.105 7.04 9.08 14.19
1/12/2021 7:00:00 AM -0.05 31.91 0.105 7.03 9.07 14.19
1/12/2021 7:15:00 AM -0.05 31.91 0.106 7.04 8.88 14.21
1/12/2021 7:30:00 AM -0.05 31.91 0.106 7.04 9.03 14.21
1/12/2021 7:45:00 AM -0.05 31.91 0.106 7.03 9.28 14.22
1/12/2021 8:00:00 AM -0.04 31.928 0.106 7.04 8.98 14.22
1/12/2021 8:15:00 AM -0.04 31.928 0.106 7.05 9.08 14.23
1/12/2021 8:30:00 AM -0.04 31.928 0.106 7.05 9.13 14.24
1/12/2021 8:45:00 AM -0.03 31.946 0.106 7.05 9.28 14.25
1/12/2021 9:00:00 AM -0.03 31.946 0.106 7.05 9.35 14.25
1/12/2021 9:15:00 AM -0.02 31.964 0.106 7.05 9.24 14.25
1/12/2021 9:30:00 AM -0.02 31.964 0.106 7.05 9.26 14.25
1/12/2021 9:45:00 AM 0 32 0.106 7.05 9.48 14.25
1/12/2021 10:00:00 AM 0.02 32.036 0.107 7.05 9.2 14.25
1/12/2021 10:15:00 AM 0.03 32.054 0.107 7.06 9.2 14.25
1/12/2021 10:30:00 AM 0.07 32.126 0.107 7.07 9.15 14.25
1/12/2021 10:45:00 AM 0.13 32.234 0.107 7.07 8.85 14.24
1/12/2021 11:00:00 AM 0.16 32.288 0.107 7.07 8.9 14.23
1/12/2021 11:15:00 AM 0.23 32.414 0.107 7.09 9.07 14.22
1/12/2021 11:30:00 AM 0.28 32.504 0.107 7.09 9 14.21
1/12/2021 11:45:00 AM 0.34 32.612 0.107 7.1 8.94 14.19
1/12/2021 12:00:00 PM 0.41 32.738 0.107 7.1 8.78 14.18
1/12/2021 12:15:00 PM 0.46 32.828 0.107 7.11 8.68 14.16
1/12/2021 12:30:00 PM 0.51 32.918 0.107 7.11 8.68 14.15
1/12/2021 12:45:00 PM 0.56 33.008 0.107 7.11 8.72 14.14
1/12/2021 1:00:00 PM 0.61 33.098 0.107 7.11 8.72 14.13
1/12/2021 1:15:00 PM 0.7 33.26 0.107 7.12 8.72 14.12
1/12/2021 1:30:00 PM 0.74 33.332 0.106 7.11 8.68 14.11
1/12/2021 1:45:00 PM 0.77 33.386 0.106 7.11 8.67 14.1
1/12/2021 2:00:00 PM 0.8 33.44 0.106 7.11 8.69 14.09
1/12/2021 2:15:00 PM 0.82 33.476 0.106 7.1 8.61 14.08
1/12/2021 2:30:00 PM 0.85 33.53 0.106 7.11 8.63 14.06
1/12/2021 2:45:00 PM 0.89 33.602 0.105 7.11 8.68 14.05
1/12/2021 3:00:00 PM 0.91 33.638 0.105 7.11 8.72 14.03
1/12/2021 3:15:00 PM 0.95 33.71 0.105 7.11 8.6 14.01
1/12/2021 3:30:00 PM 0.98 33.764 0.105 7.11 8.67 13.99
1/12/2021 3:45:00 PM 1.01 33.818 0.105 7.11 8.66 13.97
1/12/2021 4:00:00 PM 1.03 33.854 0.105 7.11 8.66 13.94
1/12/2021 4:15:00 PM 1.05 33.89 0.105 7.11 8.76 13.92
1/12/2021 4:30:00 PM 1.07 33.926 0.105 7.11 8.58 13.9
1/12/2021 4:45:00 PM 1.09 33.962 0.105 7.11 8.7 13.87
1/12/2021 5:00:00 PM 1.1 33.98 0.105 7.1 8.71 13.85
1/12/2021 5:15:00 PM 1.11 33.998 0.105 7.1 8.73 13.83
1/12/2021 5:30:00 PM 1.12 34.016 0.105 7.1 8.66 13.81
1/12/2021 5:45:00 PM 1.12 34.016 0.105 7.09 8.71 13.8
1/12/2021 6:00:00 PM 1.12 34.016 0.105 7.1 8.66 13.79
1/12/2021 6:15:00 PM 1.13 34.034 0.105 7.09 8.7 13.78
1/12/2021 6:30:00 PM 1.13 34.034 0.105 7.09 8.62 13.76
1/12/2021 6:45:00 PM 1.13 34.034 0.105 7.08 8.63 13.76
1/12/2021 7:00:00 PM 1.12 34.016 0.105 7.09 8.61 13.75
1/12/2021 7:15:00 PM 1.12 34.016 0.105 7.08 8.63 13.74
1/12/2021 7:30:00 PM 1.12 34.016 0.105 7.08 8.63 13.73
1/12/2021 7:45:00 PM 1.13 34.034 0.105 7.07 8.64 13.73
1/12/2021 8:00:00 PM 1.13 34.034 0.105 7.08 8.54 13.72
1/12/2021 8:15:00 PM 1.13 34.034 0.104 7.07 8.67 13.72
1/12/2021 8:30:00 PM 1.13 34.034 0.105 7.07 8.62 13.72
1/12/2021 8:45:00 PM 1.13 34.034 0.104 7.07 8.63 13.71
1/12/2021 9:00:00 PM 1.13 34.034 0.104 7.07 8.66 13.71
1/12/2021 9:15:00 PM 1.13 34.034 0.104 7.06 8.56 13.71
1/12/2021 9:30:00 PM 1.13 34.034 0.104 7.06 8.62 13.7
1/12/2021 9:45:00 PM 1.14 34.052 0.104 7.07 8.62 13.7
1/12/2021 10:00:00 PM 1.14 34.052 0.104 7.07 8.65 13.7
1/12/2021 10:15:00 PM 1.14 34.052 0.104 7.07 8.69 13.69
1/12/2021 10:30:00 PM 1.15 34.07 0.104 7.06 8.64 13.69
1/12/2021 10:45:00 PM 1.15 34.07 0.104 7.07 8.66 13.69
1/12/2021 11:00:00 PM 1.15 34.07 0.104 7.06 8.73 13.68
1/12/2021 11:15:00 PM 1.16 34.088 0.104 7.06 8.68 13.69
1/12/2021 11:30:00 PM 1.16 34.088 0.104 7.06 8.64 13.68
1/12/2021 11:45:00 PM 1.16 34.088 0.105 7.06 8.82 13.68
1/13/2021 12:00:00 AM 1.16 34.088 0.104 7.06 8.76 13.68
1/13/2021 12:15:00 AM 1.17 34.106 0.105 7.06 8.68 13.68
1/13/2021 12:30:00 AM 1.17 34.106 0.105 7.06 8.62 13.67
1/13/2021 12:45:00 AM 1.17 34.106 0.105 7.06 8.65 13.67
1/13/2021 1:00:00 AM 1.17 34.106 0.104 7.05 8.64 13.67
1/13/2021 1:15:00 AM 1.17 34.106 0.105 7.05 8.71 13.66
1/13/2021 1:30:00 AM 1.17 34.106 0.105 7.06 8.71 13.67
1/13/2021 1:45:00 AM 1.17 34.106 0.105 7.06 8.7 13.66
1/13/2021 2:00:00 AM 1.17 34.106 0.105 7.05 8.75 13.66
1/13/2021 2:15:00 AM 1.17 34.106 0.105 7.05 8.78 13.66
1/13/2021 2:30:00 AM 1.17 34.106 0.105 7.06 8.65 13.66
1/13/2021 2:45:00 AM 1.17 34.106 0.105 7.05 8.72 13.66
1/13/2021 3:00:00 AM 1.17 34.106 0.105 7.06 8.61 13.66
1/13/2021 3:15:00 AM 1.17 34.106 0.105 7.05 8.62 13.66
1/13/2021 3:30:00 AM 1.16 34.088 0.105 7.05 8.63 13.66
1/13/2021 3:45:00 AM 1.16 34.088 0.105 7.06 8.69 13.66
1/13/2021 4:00:00 AM 1.16 34.088 0.105 7.06 8.62 13.66
1/13/2021 4:15:00 AM 1.16 34.088 0.105 7.05 8.59 13.65
1/13/2021 4:30:00 AM 1.16 34.088 0.105 7.05 8.65 13.66
1/13/2021 4:45:00 AM 1.16 34.088 0.105 7.06 8.63 13.66
1/13/2021 5:00:00 AM 1.16 34.088 0.105 7.06 8.63 13.66
1/13/2021 5:15:00 AM 1.16 34.088 0.105 7.06 8.57 13.66
1/13/2021 5:30:00 AM 1.16 34.088 0.105 7.06 8.62 13.66
1/13/2021 5:45:00 AM 1.16 34.088 0.105 7.06 8.62 13.66
1/13/2021 6:00:00 AM 1.16 34.088 0.105 7.06 8.69 13.66
1/13/2021 6:15:00 AM 1.17 34.106 0.105 7.06 8.67 13.65
1/13/2021 6:30:00 AM 1.17 34.106 0.105 7.06 8.66 13.65
1/13/2021 6:45:00 AM 1.17 34.106 0.105 7.05 8.62 13.65
1/13/2021 7:00:00 AM 1.17 34.106 0.105 7.05 8.62 13.65
1/13/2021 7:15:00 AM 1.17 34.106 0.105 7.05 8.64 13.65
1/13/2021 7:30:00 AM 1.17 34.106 0.105 7.05 8.66 13.65
1/13/2021 7:45:00 AM 1.17 34.106 0.105 7.05 8.57 13.65
1/13/2021 8:00:00 AM 1.18 34.124 0.105 7.06 8.66 13.66
1/13/2021 8:15:00 AM 1.19 34.142 0.105 7.07 8.66 13.66
1/13/2021 8:30:00 AM 1.2 34.16 0.105 7.06 8.73 13.66
1/13/2021 8:45:00 AM 1.22 34.196 0.105 7.07 8.6 13.66
1/13/2021 9:00:00 AM 1.23 34.214 0.105 7.07 8.59 13.67
1/13/2021 9:15:00 AM 1.24 34.232 0.105 7.08 8.59 13.67
1/13/2021 9:30:00 AM 1.26 34.268 0.105 7.08 8.48 13.68
1/13/2021 9:45:00 AM 1.26 34.268 0.105 7.08 8.59 13.67
1/13/2021 10:00:00 AM 1.28 34.304 0.105 7.08 8.58 13.67
1/13/2021 10:15:00 AM 1.29 34.322 0.105 7.09 8.49 13.68
1/13/2021 10:30:00 AM 1.31 34.358 0.105 7.09 8.56 13.68
1/13/2021 10:45:00 AM 1.34 34.412 0.105 7.09 8.62 13.68
1/13/2021 11:00:00 AM 1.35 34.43 0.105 7.09 8.56 13.68
1/13/2021 11:15:00 AM 1.36 34.448 0.105 7.09 8.44 13.68
1/13/2021 11:30:00 AM 1.39 34.502 0.105 7.1 8.51 13.68
1/13/2021 11:45:00 AM 1.41 34.538 0.105 7.11 8.46 13.68
1/13/2021 12:00:00 PM 1.44 34.592 0.105 7.1 8.49 13.68
1/13/2021 12:15:00 PM 1.47 34.646 0.105 7.11 8.48 13.68
1/13/2021 12:30:00 PM 1.5 34.7 0.105 7.11 8.45 13.66
1/13/2021 12:45:00 PM 1.52 34.736 0.105 7.11 8.47 13.66
1/13/2021 1:00:00 PM 1.55 34.79 0.105 7.11 8.46 13.65
1/13/2021 1:15:00 PM 1.58 34.844 0.105 7.11 8.5 13.64
1/13/2021 1:30:00 PM 1.62 34.916 0.105 7.12 8.47 13.63
1/13/2021 1:45:00 PM 1.66 34.988 0.105 7.13 8.51 13.62
1/13/2021 2:00:00 PM 1.71 35.078 0.104 7.13 8.47 13.61
1/13/2021 2:15:00 PM 1.77 35.186 0.104 7.13 8.44 13.6
1/13/2021 2:30:00 PM 1.82 35.276 0.105 7.14 8.54 13.58
1/13/2021 2:45:00 PM 1.83 35.294 0.104 7.13 8.5 13.57
1/13/2021 3:00:00 PM 1.84 35.312 0.104 7.13 8.48 13.56
1/13/2021 3:15:00 PM 1.86 35.348 0.104 7.13 8.65 13.54
1/13/2021 3:30:00 PM 1.88 35.384 0.104 7.13 8.51 13.53
1/13/2021 3:45:00 PM 1.89 35.402 0.104 7.12 8.56 13.51
1/13/2021 4:00:00 PM 1.89 35.402 0.104 7.12 8.55 13.5
1/13/2021 4:15:00 PM 1.9 35.42 0.104 7.12 8.45 13.48
1/13/2021 4:30:00 PM 1.9 35.42 0.104 7.11 8.54 13.46
1/13/2021 4:45:00 PM 1.91 35.438 0.104 7.11 8.52 13.45
1/13/2021 5:00:00 PM 1.9 35.42 0.104 7.11 8.5 13.43
1/13/2021 5:15:00 PM 1.89 35.402 0.104 7.11 8.56 13.42
1/13/2021 5:30:00 PM 1.89 35.402 0.104 7.1 8.55 13.41
1/13/2021 5:45:00 PM 1.88 35.384 0.104 7.09 8.55 13.39
1/13/2021 6:00:00 PM 1.87 35.366 0.105 7.1 8.58 13.39
1/13/2021 6:15:00 PM 1.86 35.348 0.104 7.1 8.6 13.37
1/13/2021 6:30:00 PM 1.84 35.312 0.104 7.09 8.69 13.37
1/13/2021 6:45:00 PM 1.81 35.258 0.105 7.08 8.71 13.37
1/13/2021 7:00:00 PM 1.79 35.222 0.105 7.08 8.71 13.36
1/13/2021 7:15:00 PM 1.77 35.186 0.105 7.07 8.69 13.36
1/13/2021 7:30:00 PM 1.75 35.15 0.105 7.08 8.65 13.36
1/13/2021 7:45:00 PM 1.74 35.132 0.105 7.06 8.72 13.37
1/13/2021 8:00:00 PM 1.72 35.096 0.105 7.07 8.66 13.37
1/13/2021 8:15:00 PM 1.7 35.06 0.105 7.06 8.75 13.37
1/13/2021 8:30:00 PM 1.69 35.042 0.105 7.07 8.88 13.37
1/13/2021 8:45:00 PM 1.68 35.024 0.105 7.07 8.95 13.37
1/13/2021 9:00:00 PM 1.67 35.006 0.105 7.06 8.86 13.38
1/13/2021 9:15:00 PM 1.66 34.988 0.105 7.06 8.91 13.38
1/13/2021 9:30:00 PM 1.66 34.988 0.105 7.07 8.9 13.38
1/13/2021 9:45:00 PM 1.65 34.97 0.105 7.07 8.86 13.38
1/13/2021 10:00:00 PM 1.65 34.97 0.105 7.07 8.84 13.38
1/13/2021 10:15:00 PM 1.64 34.952 0.105 7.07 8.84 13.38
1/13/2021 10:30:00 PM 1.64 34.952 0.105 7.06 8.85 13.39
1/13/2021 10:45:00 PM 1.64 34.952 0.105 7.07 8.86 13.38
1/13/2021 11:00:00 PM 1.64 34.952 0.105 7.06 9.11 13.38
1/13/2021 11:15:00 PM 1.63 34.934 0.105 7.06 9.06 13.39
1/13/2021 11:30:00 PM 1.62 34.916 0.105 7.07 9.07 13.38
1/13/2021 11:45:00 PM 1.62 34.916 0.105 7.06 9.2 13.39
1/14/2021 12:00:00 AM 1.61 34.898 0.105 7.06 9.23 13.38
1/14/2021 12:15:00 AM 1.61 34.898 0.105 7.06 9.1 13.38
1/14/2021 12:30:00 AM 1.61 34.898 0.105 7.07 9.04 13.38
1/14/2021 12:45:00 AM 1.61 34.898 0.105 7.06 9.05 13.39
1/14/2021 1:00:00 AM 1.6 34.88 0.105 7.06 9.13 13.38
1/14/2021 1:15:00 AM 1.6 34.88 0.105 7.07 9.13 13.38
1/14/2021 1:30:00 AM 1.6 34.88 0.105 7.07 8.96 13.39
1/14/2021 1:45:00 AM 1.6 34.88 0.105 7.06 8.98 13.38
1/14/2021 2:00:00 AM 1.59 34.862 0.105 7.07 9 13.39
1/14/2021 2:15:00 AM 1.59 34.862 0.105 7.07 9.01 13.39
1/14/2021 2:30:00 AM 1.59 34.862 0.105 7.06 9.06 13.39
1/14/2021 2:45:00 AM 1.58 34.844 0.105 7.07 8.98 13.39
1/14/2021 3:00:00 AM 1.58 34.844 0.105 7.07 9.01 13.39
1/14/2021 3:15:00 AM 1.58 34.844 0.105 7.07 9.03 13.4
1/14/2021 3:30:00 AM 1.58 34.844 0.105 7.06 8.92 13.4
1/14/2021 3:45:00 AM 1.57 34.826 0.105 7.07 9.09 13.4
1/14/2021 4:00:00 AM 1.57 34.826 0.105 7.06 8.98 13.4
1/14/2021 4:15:00 AM 1.56 34.808 0.105 7.06 8.93 13.4
1/14/2021 4:30:00 AM 1.56 34.808 0.105 7.06 8.99 13.4
1/14/2021 4:45:00 AM 1.56 34.808 0.105 7.06 9.02 13.4
1/14/2021 5:00:00 AM 1.56 34.808 0.105 7.06 9.01 13.41
1/14/2021 5:15:00 AM 1.56 34.808 0.105 7.06 9.03 13.4
1/14/2021 5:30:00 AM 1.56 34.808 0.105 7.06 9.05 13.4
1/14/2021 5:45:00 AM 1.56 34.808 0.105 7.06 9.07 13.4
1/14/2021 6:00:00 AM 1.56 34.808 0.105 7.07 9.04 13.4
1/14/2021 6:15:00 AM 1.56 34.808 0.105 7.07 9.07 13.41
1/14/2021 6:30:00 AM 1.56 34.808 0.105 7.07 9.03 13.4
1/14/2021 6:45:00 AM 1.56 34.808 0.105 7.06 9.12 13.41
1/14/2021 7:00:00 AM 1.55 34.79 0.105 7.06 9.04 13.4
1/14/2021 7:15:00 AM 1.54 34.772 0.105 7.06 9.01 13.41
1/14/2021 7:30:00 AM 1.53 34.754 0.105 7.06 9.08 13.41
1/14/2021 7:45:00 AM 1.52 34.736 0.105 7.06 9.01 13.41
1/14/2021 8:00:00 AM 1.52 34.736 0.105 7.06 9.03 13.42
1/14/2021 8:15:00 AM 1.52 34.736 0.105 7.07 9.01 13.43
1/14/2021 8:30:00 AM 1.53 34.754 0.105 7.07 9.06 13.43
1/14/2021 8:45:00 AM 1.54 34.772 0.105 7.07 9.04 13.44
1/14/2021 9:00:00 AM 1.56 34.808 0.105 7.08 9.05 13.45
1/14/2021 9:15:00 AM 1.6 34.88 0.105 7.09 9.19 13.46
1/14/2021 9:30:00 AM 1.65 34.97 0.105 7.09 9.08 13.46
1/14/2021 9:45:00 AM 1.69 35.042 0.104 7.1 9.05 13.46
1/14/2021 10:00:00 AM 1.74 35.132 0.105 7.1 9.08 13.46
1/14/2021 10:15:00 AM 1.79 35.222 0.104 7.11 9.09 13.46
1/14/2021 10:30:00 AM 1.86 35.348 0.104 7.12 9.08 13.45
1/14/2021 10:45:00 AM 1.92 35.456 0.104 7.12 9.08 13.45
1/14/2021 11:00:00 AM 1.97 35.546 0.104 7.12 9.01 13.44
1/14/2021 11:15:00 AM 2.03 35.654 0.104 7.13 9.03 13.44
1/14/2021 11:30:00 AM 2.09 35.762 0.104 7.13 9.05 13.43
1/14/2021 11:45:00 AM 2.15 35.87 0.104 7.14 9.06 13.42
1/14/2021 12:00:00 PM 2.22 35.996 0.104 7.14 9.05 13.41
1/14/2021 12:15:00 PM 2.29 36.122 0.104 7.15 8.98 13.4
1/14/2021 12:30:00 PM 2.39 36.302 0.104 7.16 8.99 13.39
1/14/2021 12:45:00 PM 2.48 36.464 0.104 7.16 9.03 13.36
1/14/2021 1:00:00 PM 2.55 36.59 0.104 7.16 8.98 13.34
1/14/2021 1:15:00 PM 2.59 36.662 0.104 7.15 8.93 13.32
1/14/2021 1:30:00 PM 2.65 36.77 0.104 7.15 9.02 13.29
1/14/2021 1:45:00 PM 2.73 36.914 0.104 7.16 9.02 13.27
1/14/2021 2:00:00 PM 2.78 37.004 0.104 7.16 9.08 13.25
1/14/2021 2:15:00 PM 2.84 37.112 0.104 7.16 8.99 13.22
1/14/2021 2:30:00 PM 2.89 37.202 0.104 7.16 9.08 13.2
1/14/2021 2:45:00 PM 2.93 37.274 0.104 7.16 9.03 13.18
1/14/2021 3:00:00 PM 2.97 37.346 0.104 7.16 8.99 13.16
1/14/2021 3:15:00 PM 3 37.4 0.104 7.15 9.03 13.13
1/14/2021 3:30:00 PM 3.02 37.436 0.104 7.15 8.94 13.11
1/14/2021 3:45:00 PM 3.04 37.472 0.104 7.15 8.97 13.09
1/14/2021 4:00:00 PM 3.05 37.49 0.104 7.15 9.02 13.08
1/14/2021 4:15:00 PM 3.06 37.508 0.104 7.14 9 13.06
1/14/2021 4:30:00 PM 3.06 37.508 0.104 7.13 9.05 13.03
1/14/2021 4:45:00 PM 3.06 37.508 0.104 7.13 8.94 13.01
1/14/2021 5:00:00 PM 3.06 37.508 0.104 7.13 8.97 13
1/14/2021 5:15:00 PM 3.06 37.508 0.104 7.13 9.01 12.98
1/14/2021 5:30:00 PM 3.06 37.508 0.104 7.12 9.02 12.96
1/14/2021 5:45:00 PM 3.05 37.49 0.104 7.12 9.14 12.95
1/14/2021 6:00:00 PM 3.04 37.472 0.104 7.11 9.14 12.94
1/14/2021 6:15:00 PM 3.03 37.454 0.104 7.1 9.12 12.94
1/14/2021 6:30:00 PM 3.02 37.436 0.104 7.11 9.05 12.93
1/14/2021 6:45:00 PM 3.01 37.418 0.104 7.1 9.15 12.92
1/14/2021 7:00:00 PM 3 37.4 0.104 7.1 9.05 12.92
1/14/2021 7:15:00 PM 2.99 37.382 0.104 7.09 9.19 12.91
1/14/2021 7:30:00 PM 2.98 37.364 0.104 7.08 9.09 12.91
1/14/2021 7:45:00 PM 2.98 37.364 0.104 7.09 9.04 12.91
1/14/2021 8:00:00 PM 2.97 37.346 0.104 7.08 9.1 12.9
1/14/2021 8:15:00 PM 2.96 37.328 0.104 7.08 9.08 12.9
1/14/2021 8:30:00 PM 2.95 37.31 0.104 7.08 9.05 12.9
1/14/2021 8:45:00 PM 2.95 37.31 0.104 7.08 9.04 12.9
1/14/2021 9:00:00 PM 2.94 37.292 0.104 7.08 9.08 12.9
1/14/2021 9:15:00 PM 2.93 37.274 0.104 7.08 9.11 12.9
1/14/2021 9:30:00 PM 2.93 37.274 0.104 7.07 9.32 12.9
1/14/2021 9:45:00 PM 2.92 37.256 0.104 7.08 9.23 12.9
1/14/2021 10:00:00 PM 2.91 37.238 0.104 7.08 9.11 12.9
1/14/2021 10:15:00 PM 2.91 37.238 0.104 7.07 9.07 12.9
1/14/2021 10:30:00 PM 2.9 37.22 0.104 7.07 9.13 12.9
1/14/2021 10:45:00 PM 2.89 37.202 0.104 7.07 9.06 12.91
1/14/2021 11:00:00 PM 2.87 37.166 0.104 7.07 9.17 12.91
1/14/2021 11:15:00 PM 2.85 37.13 0.104 7.08 9.13 12.92
1/14/2021 11:30:00 PM 2.84 37.112 0.104 7.07 9.14 12.92
1/14/2021 11:45:00 PM 2.81 37.058 0.104 7.06 9.21 12.93
1/15/2021 12:00:00 AM 2.79 37.022 0.104 7.06 9.17 12.93
1/15/2021 12:15:00 AM 2.77 36.986 0.104 7.06 9.18 12.93
1/15/2021 12:30:00 AM 2.75 36.95 0.104 7.06 9.19 12.94
1/15/2021 12:45:00 AM 2.72 36.896 0.104 7.06 9.16 12.95
1/15/2021 1:00:00 AM 2.68 36.824 0.104 7.05 9.08 12.96
1/15/2021 1:15:00 AM 2.65 36.77 0.104 7.06 9.13 12.97
1/15/2021 1:30:00 AM 2.62 36.716 0.104 7.05 9.12 12.98
1/15/2021 1:45:00 AM 2.58 36.644 0.104 7.05 9.17 12.99
1/15/2021 2:00:00 AM 2.55 36.59 0.104 7.05 9.11 12.99
1/15/2021 2:15:00 AM 2.51 36.518 0.104 7.05 9.12 13.01
1/15/2021 2:30:00 AM 2.47 36.446 0.104 7.05 9.48 13.02
1/15/2021 2:45:00 AM 2.44 36.392 0.104 7.05 9.37 13.03
1/15/2021 3:00:00 AM 2.4 36.32 0.104 7.05 9.45 13.05
1/15/2021 3:15:00 AM 2.37 36.266 0.104 7.05 9.48 13.06
1/15/2021 3:30:00 AM 2.33 36.194 0.104 7.04 9.53 13.07
1/15/2021 3:45:00 AM 2.31 36.158 0.104 7.05 9.45 13.08
1/15/2021 4:00:00 AM 2.29 36.122 0.104 7.06 9.56 13.09
1/15/2021 4:15:00 AM 2.27 36.086 0.104 7.06 9.5 13.09
1/15/2021 4:30:00 AM 2.24 36.032 0.104 7.06 9.52 13.11
1/15/2021 4:45:00 AM 2.21 35.978 0.104 7.05 9.4 13.12
1/15/2021 5:00:00 AM 2.18 35.924 0.104 7.05 9.42 13.14
1/15/2021 5:15:00 AM 2.16 35.888 0.104 7.06 9.53 13.15
1/15/2021 5:30:00 AM 2.14 35.852 0.104 7.06 9.39 13.16
1/15/2021 5:45:00 AM 2.12 35.816 0.104 7.05 9.42 13.16
1/15/2021 6:00:00 AM 2.1 35.78 0.104 7.06 9.51 13.17
1/15/2021 6:15:00 AM 2.09 35.762 0.104 7.07 9.44 13.18
1/15/2021 6:30:00 AM 2.07 35.726 0.104 7.07 9.54 13.19
1/15/2021 6:45:00 AM 2.06 35.708 0.105 7.07 9.53 13.2
1/15/2021 7:00:00 AM 2.04 35.672 0.105 7.07 9.57 13.21
1/15/2021 7:15:00 AM 2.04 35.672 0.105 7.07 9.49 13.21
1/15/2021 7:30:00 AM 2.03 35.654 0.105 7.07 9.52 13.22
1/15/2021 7:45:00 AM 2.02 35.636 0.105 7.07 9.42 13.23
1/15/2021 8:00:00 AM 2.02 35.636 0.105 7.08 9.54 13.23
1/15/2021 8:15:00 AM 2.02 35.636 0.105 7.08 9.49 13.25
1/15/2021 8:30:00 AM 2.03 35.654 0.105 7.09 9.49 13.26
1/15/2021 8:45:00 AM 2.04 35.672 0.105 7.09 9.51 13.27
1/15/2021 9:00:00 AM 2.05 35.69 0.105 7.09 9.42 13.29
1/15/2021 9:15:00 AM 2.08 35.744 0.105 7.1 9.42 13.3
1/15/2021 9:30:00 AM 2.11 35.798 0.105 7.11 9.46 13.31
1/15/2021 9:45:00 AM 2.15 35.87 0.105 7.12 9.49 13.32
1/15/2021 10:00:00 AM 2.17 35.906 0.105 7.12 9.42 13.32
1/15/2021 10:15:00 AM 2.2 35.96 0.105 7.12 9.45 13.32
1/15/2021 10:30:00 AM 2.24 36.032 0.105 7.13 9.43 13.34
1/15/2021 10:45:00 AM 2.3 36.14 0.105 7.14 9.46 13.33
1/15/2021 11:00:00 AM 2.35 36.23 0.105 7.14 9.57 13.33
1/15/2021 11:15:00 AM 2.38 36.284 0.105 7.15 9.42 13.33
1/15/2021 11:30:00 AM 2.42 36.356 0.105 7.15 9.44 13.32
1/15/2021 11:45:00 AM 2.46 36.428 0.105 7.15 9.46 13.32
1/15/2021 12:00:00 PM 2.5 36.5 0.105 7.15 9.49 13.31
1/15/2021 12:15:00 PM 2.54 36.572 0.105 7.16 9.45 13.3
1/15/2021 12:30:00 PM 2.58 36.644 0.105 7.16 9.51 13.29
1/15/2021 12:45:00 PM 2.62 36.716 0.105 7.16 9.41 13.28
1/15/2021 1:00:00 PM 2.66 36.788 0.105 7.16 9.49 13.26
1/15/2021 1:15:00 PM 2.71 36.878 0.105 7.16 9.51 13.25
1/15/2021 1:30:00 PM 2.74 36.932 0.105 7.16 9.4 13.24
1/15/2021 1:45:00 PM 2.77 36.986 0.105 7.16 9.43 13.21
1/15/2021 2:00:00 PM 2.8 37.04 0.105 7.16 9.38 13.2
1/15/2021 2:15:00 PM 2.82 37.076 0.105 7.16 9.4 13.18
1/15/2021 2:30:00 PM 2.84 37.112 0.105 7.16 9.43 13.16
1/15/2021 2:45:00 PM 2.85 37.13 0.105 7.15 9.58 13.14
1/15/2021 3:00:00 PM 2.87 37.166 0.105 7.15 9.43 13.11
1/15/2021 3:15:00 PM 2.9 37.22 0.105 7.16 9.57 13.1
1/15/2021 3:30:00 PM 2.92 37.256 0.105 7.15 9.5 13.08
1/15/2021 3:45:00 PM 2.93 37.274 0.105 7.15 9.42 13.06
1/15/2021 4:00:00 PM 2.95 37.31 0.105 7.15 9.5 13.05
1/15/2021 4:15:00 PM 2.96 37.328 0.105 7.14 9.47 13.02
1/15/2021 4:30:00 PM 2.98 37.364 0.105 7.14 9.49 13.01
1/15/2021 4:45:00 PM 2.99 37.382 0.105 7.14 9.46 12.99
1/15/2021 5:00:00 PM 3 37.4 0.105 7.14 9.53 12.97
1/15/2021 5:15:00 PM 3.01 37.418 0.105 7.13 9.58 12.95
1/15/2021 5:30:00 PM 3.02 37.436 0.105 7.14 9.45 12.93
1/15/2021 5:45:00 PM 3.03 37.454 0.105 7.13 9.58 12.92
1/15/2021 6:00:00 PM 3.05 37.49 0.105 7.13 9.52 12.9
1/15/2021 6:15:00 PM 3.06 37.508 0.105 7.13 9.51 12.89
1/15/2021 6:30:00 PM 3.08 37.544 0.105 7.12 9.64 12.88
1/15/2021 6:45:00 PM 3.1 37.58 0.105 7.13 9.58 12.86
1/15/2021 7:00:00 PM 3.11 37.598 0.105 7.13 9.59 12.85
1/15/2021 7:15:00 PM 3.12 37.616 0.105 7.13 9.55 12.83
1/15/2021 7:30:00 PM 3.14 37.652 0.105 7.12 9.61 12.83
1/15/2021 7:45:00 PM 3.15 37.67 0.105 7.12 9.61 12.82
1/15/2021 8:00:00 PM 3.17 37.706 0.105 7.12 9.61 12.81
1/15/2021 8:15:00 PM 3.19 37.742 0.105 7.13 9.62 12.8
1/15/2021 8:30:00 PM 3.21 37.778 0.105 7.12 9.68 12.79
1/15/2021 8:45:00 PM 3.23 37.814 0.105 7.12 9.75 12.78
1/15/2021 9:00:00 PM 3.26 37.868 0.104 7.12 9.77 12.78
1/15/2021 9:15:00 PM 3.29 37.922 0.104 7.12 9.86 12.77
1/15/2021 9:30:00 PM 3.31 37.958 0.104 7.11 10.26 12.75
1/15/2021 9:45:00 PM 3.33 37.994 0.104 7.11 10.11 12.75
1/15/2021 10:00:00 PM 3.35 38.03 0.104 7.11 10.18 12.74
1/15/2021 10:15:00 PM 3.37 38.066 0.104 7.11 10.47 12.73
1/15/2021 10:30:00 PM 3.39 38.102 0.104 7.12 10.8 12.72
1/15/2021 10:45:00 PM 3.4 38.12 0.104 7.11 11.06 12.71
1/15/2021 11:00:00 PM 3.42 38.156 0.105 7.11 11.2 12.7
1/15/2021 11:15:00 PM 3.42 38.156 0.105 7.11 11.49 12.69
1/15/2021 11:30:00 PM 3.43 38.174 0.106 7.11 13.41 12.69
1/15/2021 11:45:00 PM 3.43 38.174 0.108 7.11 17.01 12.68
1/16/2021 12:00:00 AM 3.42 38.156 0.11 7.11 21.06 12.69
1/16/2021 12:15:00 AM 3.4 38.12 0.112 7.1 23.04 12.69
1/16/2021 12:30:00 AM 3.4 38.12 0.113 7.11 25.95 12.69
1/16/2021 12:45:00 AM 3.41 38.138 0.113 7.13 25.33 12.68
1/16/2021 1:00:00 AM 3.42 38.156 0.114 7.13 29.11 12.68
1/16/2021 1:15:00 AM 3.42 38.156 0.116 7.12 32.38 12.67
1/16/2021 1:30:00 AM 3.43 38.174 0.119 7.11 39.89 12.67
1/16/2021 1:45:00 AM 3.43 38.174 0.12 7.09 28.62 12.68
1/16/2021 2:00:00 AM 3.42 38.156 0.121 7.13 30.36 12.67
1/16/2021 2:15:00 AM 3.41 38.138 0.121 7.11 26.18 12.67
1/16/2021 2:30:00 AM 3.4 38.12 0.122 7.11 24.32 12.67
1/16/2021 2:45:00 AM 3.39 38.102 0.122 7.11 24.63 12.67
1/16/2021 3:00:00 AM 3.38 38.084 0.123 7.11 21.74 12.66
1/16/2021 3:15:00 AM 3.37 38.066 0.124 7.1 27.22 12.66
1/16/2021 3:30:00 AM 3.35 38.03 0.123 7.09 28.79 12.66
1/16/2021 3:45:00 AM 3.34 38.012 0.122 7.07 35.15 12.66
1/16/2021 4:00:00 AM 3.33 37.994 0.12 7.08 196.15 12.67
1/16/2021 4:15:00 AM 3.32 37.976 0.119 7.04 34.13 12.68
1/16/2021 4:30:00 AM 3.31 37.958 0.119 7.03 34.12 12.68
1/16/2021 4:45:00 AM 3.3 37.94 0.118 7.04 32.6 12.68
1/16/2021 5:00:00 AM 3.28 37.904 0.117 7.09 34.07 12.68
1/16/2021 5:15:00 AM 3.26 37.868 0.116 7.07 36.24 12.69
1/16/2021 5:30:00 AM 3.25 37.85 0.115 7.08 40.88 12.7
1/16/2021 5:45:00 AM 3.23 37.814 0.113 7.04 30.25 12.7
1/16/2021 6:00:00 AM 3.21 37.778 0.112 7.01 35.07 12.71
1/16/2021 6:15:00 AM 3.2 37.76 0.111 7.01 30.59 12.72
1/16/2021 6:30:00 AM 3.18 37.724 0.11 7 30.99 12.72
1/16/2021 6:45:00 AM 3.16 37.688 0.111 7 31.31 12.73
1/16/2021 7:00:00 AM 3.15 37.67 0.112 7.02 29.35 12.73
1/16/2021 7:15:00 AM 3.14 37.652 0.113 7.02 32.39 12.74
1/16/2021 7:30:00 AM 3.13 37.634 0.113 7.03 33.89 12.74
1/16/2021 7:45:00 AM 3.12 37.616 0.113 7.03 35.62 12.74
1/16/2021 8:00:00 AM 3.11 37.598 0.113 7.04 37.57 12.74
1/16/2021 8:15:00 AM 3.1 37.58 0.113 7.03 37.38 12.75
1/16/2021 8:30:00 AM 3.1 37.58 0.112 7.04 34.53 12.75
1/16/2021 8:45:00 AM 3.1 37.58 0.112 7.03 32.8 12.76
1/16/2021 9:00:00 AM 3.09 37.562 0.111 7.02 31.06 12.76
1/16/2021 9:15:00 AM 3.11 37.598 0.111 7.03 29.53 12.77
1/16/2021 9:30:00 AM 3.12 37.616 0.11 7.04 28.65 12.78
1/16/2021 9:45:00 AM 3.15 37.67 0.11 7.03 27.34 12.78
1/16/2021 10:00:00 AM 3.17 37.706 0.11 7.03 26.43 12.79
1/16/2021 10:15:00 AM 3.21 37.778 0.109 7.05 25.92 12.79
1/16/2021 10:30:00 AM 3.23 37.814 0.109 7.04 24.97 12.78
1/16/2021 10:45:00 AM 3.27 37.886 0.109 7.04 23.73 12.78
1/16/2021 11:00:00 AM 3.31 37.958 0.109 7.04 22.45 12.78
1/16/2021 11:15:00 AM 3.34 38.012 0.108 7.04 22.86 12.78
1/16/2021 11:30:00 AM 3.41 38.138 0.108 7.04 21.56 12.78
1/16/2021 11:45:00 AM 3.46 38.228 0.108 7.04 21.64 12.77
1/16/2021 12:00:00 PM 3.53 38.354 0.107 7.06 20.49 12.76
1/16/2021 12:15:00 PM 3.57 38.426 0.107 7.05 19.68 12.75
1/16/2021 12:30:00 PM 3.65 38.57 0.106 7.06 18.8 12.73
1/16/2021 12:45:00 PM 3.73 38.714 0.106 7.07 18.23 12.71
1/16/2021 1:00:00 PM 3.78 38.804 0.106 7.06 17.6 12.7
1/16/2021 1:15:00 PM 3.86 38.948 0.105 7.06 16.84 12.69
1/16/2021 1:30:00 PM 3.83 38.894 0.105 7.05 16.55 12.67
1/16/2021 1:45:00 PM 3.85 38.93 0.105 7.04 15.89 12.66
1/16/2021 2:00:00 PM 3.89 39.002 0.105 7.05 15.59 12.65
1/16/2021 2:15:00 PM 3.9 39.02 0.105 7.05 15.39 12.64
1/16/2021 2:30:00 PM 3.9 39.02 0.104 7.04 14.74 12.64
1/16/2021 2:45:00 PM 3.94 39.092 0.104 7.05 14.26 12.63
1/16/2021 3:00:00 PM 3.94 39.092 0.104 7.04 14.12 12.62
1/16/2021 3:15:00 PM 3.94 39.092 0.104 7.03 13.98 12.61
1/16/2021 3:30:00 PM 3.95 39.11 0.104 7.04 13.23 12.6
1/16/2021 3:45:00 PM 3.95 39.11 0.104 7.03 12.98 12.58
1/16/2021 4:00:00 PM 3.95 39.11 0.104 7.03 12.76 12.57
1/16/2021 4:15:00 PM 3.94 39.092 0.104 7.03 12.5 12.56
1/16/2021 4:30:00 PM 3.93 39.074 0.104 7.02 12.2 12.55
1/16/2021 4:45:00 PM 3.91 39.038 0.104 7.01 11.88 12.54
1/16/2021 5:00:00 PM 3.9 39.02 0.104 7.01 11.88 12.53
1/16/2021 5:15:00 PM 3.88 38.984 0.104 7.02 11.52 12.53
1/16/2021 5:30:00 PM 3.87 38.966 0.104 7.01 11.26 12.52
1/16/2021 5:45:00 PM 3.85 38.93 0.104 7 11.19 12.52
1/16/2021 6:00:00 PM 3.82 38.876 0.104 7 11.13 12.51
1/16/2021 6:15:00 PM 3.79 38.822 0.104 6.99 11.19 12.51
1/16/2021 6:30:00 PM 3.76 38.768 0.104 6.99 11.04 12.52
1/16/2021 6:45:00 PM 3.73 38.714 0.104 6.99 10.85 12.52
1/16/2021 7:00:00 PM 3.69 38.642 0.104 6.98 10.9 12.52
1/16/2021 7:15:00 PM 3.66 38.588 0.104 6.98 10.76 12.53
1/16/2021 7:30:00 PM 3.63 38.534 0.104 6.98 10.55 12.53
1/16/2021 7:45:00 PM 3.6 38.48 0.104 6.97 10.56 12.54
1/16/2021 8:00:00 PM 3.57 38.426 0.104 6.97 10.52 12.54
1/16/2021 8:15:00 PM 3.53 38.354 0.104 6.97 10.57 12.55
1/16/2021 8:30:00 PM 3.5 38.3 0.104 6.97 10.42 12.56
1/16/2021 8:45:00 PM 3.47 38.246 0.104 6.97 10.22 12.56
1/16/2021 9:00:00 PM 3.43 38.174 0.104 6.96 10.09 12.57
1/16/2021 9:15:00 PM 3.4 38.12 0.104 6.96 10.27 12.58
1/16/2021 9:30:00 PM 3.37 38.066 0.105 6.97 10.12 12.59
1/16/2021 9:45:00 PM 3.34 38.012 0.105 6.97 9.96 12.59
1/16/2021 10:00:00 PM 3.31 37.958 0.105 6.97 10.05 12.61
1/16/2021 10:15:00 PM 3.28 37.904 0.105 6.96 10.17 12.62
1/16/2021 10:30:00 PM 3.25 37.85 0.105 6.97 9.95 12.63
1/16/2021 10:45:00 PM 3.23 37.814 0.105 6.96 9.86 12.64
1/16/2021 11:00:00 PM 3.2 37.76 0.105 6.96 9.73 12.65
1/16/2021 11:15:00 PM 3.18 37.724 0.105 6.96 9.92 12.66
1/16/2021 11:30:00 PM 3.16 37.688 0.105 6.96 9.46 12.67
1/16/2021 11:45:00 PM 3.14 37.652 0.105 6.97 9.33 12.69
1/17/2021 12:00:00 AM 3.11 37.598 0.105 6.96 9.56 12.7
1/17/2021 12:15:00 AM 3.07 37.526 0.105 6.96 9.13 12.71
1/17/2021 12:30:00 AM 3.04 37.472 0.105 6.96 9.38 12.72
1/17/2021 12:45:00 AM 3.02 37.436 0.105 6.96 9.29 12.73
1/17/2021 1:00:00 AM 3 37.4 0.105 6.96 9.12 12.74
1/17/2021 1:15:00 AM 2.97 37.346 0.105 6.96 9.24 12.75
1/17/2021 1:30:00 AM 2.94 37.292 0.105 6.97 8.91 12.76
1/17/2021 1:45:00 AM 2.93 37.274 0.105 6.96 9.09 12.77
1/17/2021 2:00:00 AM 2.91 37.238 0.105 6.96 9.03 12.78
1/17/2021 2:15:00 AM 2.9 37.22 0.105 6.96 8.98 12.78
1/17/2021 2:30:00 AM 2.89 37.202 0.105 6.96 8.82 12.79
1/17/2021 2:45:00 AM 2.88 37.184 0.105 6.97 8.84 12.79
1/17/2021 3:00:00 AM 2.87 37.166 0.105 6.96 9.04 12.8
1/17/2021 3:15:00 AM 2.86 37.148 0.105 6.97 8.7 12.8
1/17/2021 3:30:00 AM 2.85 37.13 0.105 6.97 8.89 12.81
1/17/2021 3:45:00 AM 2.84 37.112 0.105 6.97 8.72 12.81
1/17/2021 4:00:00 AM 2.82 37.076 0.105 6.98 8.78 12.82
1/17/2021 4:15:00 AM 2.81 37.058 0.105 6.97 8.62 12.83
1/17/2021 4:30:00 AM 2.8 37.04 0.104 6.97 8.31 12.83
1/17/2021 4:45:00 AM 2.78 37.004 0.104 6.97 8.33 12.84
1/17/2021 5:00:00 AM 2.77 36.986 0.104 6.97 8 12.84
1/17/2021 5:15:00 AM 2.75 36.95 0.104 6.97 7.86 12.85
1/17/2021 5:30:00 AM 2.73 36.914 0.104 6.97 7.73 12.86
1/17/2021 5:45:00 AM 2.71 36.878 0.104 6.98 7.76 12.87
1/17/2021 6:00:00 AM 2.69 36.842 0.104 6.97 7.7 12.87
1/17/2021 6:15:00 AM 2.67 36.806 0.104 6.97 7.65 12.88
1/17/2021 6:30:00 AM 2.64 36.752 0.104 6.97 7.77 12.89
1/17/2021 6:45:00 AM 2.62 36.716 0.104 6.97 7.75 12.9
1/17/2021 7:00:00 AM 2.59 36.662 0.104 6.97 7.63 12.91
1/17/2021 7:15:00 AM 2.57 36.626 0.104 6.97 7.61 12.92
1/17/2021 7:30:00 AM 2.56 36.608 0.104 6.97 7.78 12.92
1/17/2021 7:45:00 AM 2.55 36.59 0.104 6.96 7.57 12.93
1/17/2021 8:00:00 AM 2.54 36.572 0.104 6.97 7.68 12.94
1/17/2021 8:15:00 AM 2.54 36.572 0.104 6.97 7.49 12.96
1/17/2021 8:30:00 AM 2.54 36.572 0.104 6.97 7.57 12.96
1/17/2021 8:45:00 AM 2.55 36.59 0.103 6.99 7.3 12.97
1/17/2021 9:00:00 AM 2.56 36.608 0.103 6.98 7.35 12.98
1/17/2021 9:15:00 AM 2.57 36.626 0.103 6.98 7.27 12.99
1/17/2021 9:30:00 AM 2.59 36.662 0.103 6.99 7.39 13
1/17/2021 9:45:00 AM 2.6 36.68 0.103 6.99 7.17 13.01
1/17/2021 10:00:00 AM 2.63 36.734 0.103 7 7.13 13.01
1/17/2021 10:15:00 AM 2.65 36.77 0.103 7.01 7.2 13.02
1/17/2021 10:30:00 AM 2.69 36.842 0.103 7.01 7.26 13.02
1/17/2021 10:45:00 AM 2.73 36.914 0.103 7.01 7.32 13.03
1/17/2021 11:00:00 AM 2.78 37.004 0.103 7.02 7.17 13.02
1/17/2021 11:15:00 AM 2.83 37.094 0.103 7.03 7.23 13.03
1/17/2021 11:30:00 AM 2.87 37.166 0.103 7.03 6.96 13.02
1/17/2021 11:45:00 AM 2.91 37.238 0.103 7.03 7.03 13.01
1/17/2021 12:00:00 PM 2.96 37.328 0.102 7.04 7.04 13
1/17/2021 12:15:00 PM 3 37.4 0.102 7.04 6.9 13
1/17/2021 12:30:00 PM 3.04 37.472 0.102 7.04 7.11 12.99
1/17/2021 12:45:00 PM 3.07 37.526 0.102 7.03 6.92 12.97
1/17/2021 1:00:00 PM 3.11 37.598 0.102 7.04 6.94 12.96
1/17/2021 1:15:00 PM 3.14 37.652 0.102 7.03 6.91 12.95
1/17/2021 1:30:00 PM 3.19 37.742 0.102 7.04 6.91 12.94
1/17/2021 1:45:00 PM 3.23 37.814 0.102 7.04 6.89 12.93
1/17/2021 2:00:00 PM 3.28 37.904 0.102 7.04 6.85 12.92
1/17/2021 2:15:00 PM 3.32 37.976 0.102 7.05 6.86 12.91
1/17/2021 2:30:00 PM 3.35 38.03 0.102 7.05 7 12.89
1/17/2021 2:45:00 PM 3.38 38.084 0.101 7.04 6.94 12.88
1/17/2021 3:00:00 PM 3.41 38.138 0.101 7.04 6.88 12.86
1/17/2021 3:15:00 PM 3.43 38.174 0.101 7.04 6.91 12.85
1/17/2021 3:30:00 PM 3.45 38.21 0.101 7.04 6.78 12.83
1/17/2021 3:45:00 PM 3.47 38.246 0.101 7.04 6.92 12.81
1/17/2021 4:00:00 PM 3.48 38.264 0.101 7.03 6.83 12.8
1/17/2021 4:15:00 PM 3.49 38.282 0.101 7.03 6.9 12.78
1/17/2021 4:30:00 PM 3.5 38.3 0.101 7.02 6.84 12.77
1/17/2021 4:45:00 PM 3.5 38.3 0.101 7.01 6.94 12.75
1/17/2021 5:00:00 PM 3.51 38.318 0.101 7.02 6.91 12.74
1/17/2021 5:15:00 PM 3.51 38.318 0.101 7 6.93 12.73
1/17/2021 5:30:00 PM 3.51 38.318 0.101 7.01 6.9 12.72
1/17/2021 5:45:00 PM 3.51 38.318 0.101 6.99 7 12.71
1/17/2021 6:00:00 PM 3.51 38.318 0.101 6.99 7.06 12.7
1/17/2021 6:15:00 PM 3.5 38.3 0.101 6.99 6.95 12.69
1/17/2021 6:30:00 PM 3.49 38.282 0.101 6.98 6.89 12.69
1/17/2021 6:45:00 PM 3.48 38.264 0.101 6.98 7.17 12.68
1/17/2021 7:00:00 PM 3.48 38.264 0.1 6.98 7.05 12.68
1/17/2021 7:15:00 PM 3.47 38.246 0.1 6.98 7.08 12.67
1/17/2021 7:30:00 PM 3.47 38.246 0.1 6.97 6.78 12.67
1/17/2021 7:45:00 PM 3.46 38.228 0.1 6.98 6.83 12.67
1/17/2021 8:00:00 PM 3.45 38.21 0.1 6.98 6.9 12.67
1/17/2021 8:15:00 PM 3.45 38.21 0.1 6.97 6.97 12.67
1/17/2021 8:30:00 PM 3.45 38.21 0.1 6.97 6.91 12.67
1/17/2021 8:45:00 PM 3.45 38.21 0.1 6.97 7.02 12.67
1/17/2021 9:00:00 PM 3.45 38.21 0.1 6.97 7.02 12.67
1/17/2021 9:15:00 PM 3.45 38.21 0.1 6.97 6.74 12.67
1/17/2021 9:30:00 PM 3.45 38.21 0.1 6.97 6.96 12.67
1/17/2021 9:45:00 PM 3.45 38.21 0.1 6.97 7.19 12.67
1/17/2021 10:00:00 PM 3.46 38.228 0.1 6.96 7.11 12.67
1/17/2021 10:15:00 PM 3.46 38.228 0.1 6.97 7.1 12.67
1/17/2021 10:30:00 PM 3.46 38.228 0.1 6.97 7.22 12.67
1/17/2021 10:45:00 PM 3.45 38.21 0.1 6.97 6.93 12.67
1/17/2021 11:00:00 PM 3.44 38.192 0.1 6.96 6.97 12.67
1/17/2021 11:15:00 PM 3.43 38.174 0.1 6.96 6.97 12.67
1/17/2021 11:30:00 PM 3.42 38.156 0.1 6.96 6.84 12.67
1/17/2021 11:45:00 PM 3.41 38.138 0.1 6.96 6.93 12.67
1/18/2021 12:00:00 AM 3.41 38.138 0.1 6.96 6.81 12.67
1/18/2021 12:15:00 AM 3.4 38.12 0.1 6.96 6.69 12.67
1/18/2021 12:30:00 AM 3.38 38.084 0.1 6.96 6.89 12.68
1/18/2021 12:45:00 AM 3.37 38.066 0.1 6.96 6.73 12.68
1/18/2021 1:00:00 AM 3.36 38.048 0.099 6.97 6.73 12.68
1/18/2021 1:15:00 AM 3.35 38.03 0.099 6.96 6.66 12.69
1/18/2021 1:30:00 AM 3.34 38.012 0.099 6.96 6.63 12.69
1/18/2021 1:45:00 AM 3.33 37.994 0.099 6.95 6.69 12.69
1/18/2021 2:00:00 AM 3.3 37.94 0.099 6.95 6.62 12.7
1/18/2021 2:15:00 AM 3.28 37.904 0.099 6.95 6.77 12.71
1/18/2021 2:30:00 AM 3.25 37.85 0.099 6.95 6.69 12.71
1/18/2021 2:45:00 AM 3.23 37.814 0.099 6.95 6.77 12.72
1/18/2021 3:00:00 AM 3.22 37.796 0.099 6.95 6.71 12.73
1/18/2021 3:15:00 AM 3.2 37.76 0.099 6.95 6.74 12.73
1/18/2021 3:30:00 AM 3.18 37.724 0.099 6.95 6.75 12.74
1/18/2021 3:45:00 AM 3.17 37.706 0.099 6.95 6.64 12.75
1/18/2021 4:00:00 AM 3.14 37.652 0.099 6.94 6.62 12.76
1/18/2021 4:15:00 AM 3.13 37.634 0.099 6.94 6.72 12.77
1/18/2021 4:30:00 AM 3.11 37.598 0.099 6.95 6.66 12.77
1/18/2021 4:45:00 AM 3.1 37.58 0.099 6.95 6.66 12.78
1/18/2021 5:00:00 AM 3.09 37.562 0.099 6.95 6.77 12.78
1/18/2021 5:15:00 AM 3.08 37.544 0.099 6.95 6.6 12.78
1/18/2021 5:30:00 AM 3.06 37.508 0.099 6.94 6.63 12.79
1/18/2021 5:45:00 AM 3.04 37.472 0.099 6.95 6.66 12.79
1/18/2021 6:00:00 AM 3.03 37.454 0.099 6.95 6.69 12.8
1/18/2021 6:15:00 AM 3.02 37.436 0.099 6.95 6.67 12.8
1/18/2021 6:30:00 AM 3.01 37.418 0.099 6.95 6.72 12.81
1/18/2021 6:45:00 AM 2.99 37.382 0.099 6.94 6.69 12.81
1/18/2021 7:00:00 AM 2.98 37.364 0.098 6.95 6.54 12.82
1/18/2021 7:15:00 AM 2.97 37.346 0.098 6.95 6.72 12.82
1/18/2021 7:30:00 AM 2.95 37.31 0.098 6.95 6.74 12.83
1/18/2021 7:45:00 AM 2.94 37.292 0.098 6.94 6.76 12.84
1/18/2021 8:00:00 AM 2.93 37.274 0.098 6.96 6.49 12.85
1/18/2021 8:15:00 AM 2.92 37.256 0.098 6.95 6.7 12.86
1/18/2021 8:30:00 AM 2.91 37.238 0.098 6.95 6.4 12.87
1/18/2021 8:45:00 AM 2.91 37.238 0.098 6.96 6.51 12.89
1/18/2021 9:00:00 AM 2.92 37.256 0.098 6.97 6.65 12.91
1/18/2021 9:15:00 AM 2.95 37.31 0.098 6.97 6.55 12.92
1/18/2021 9:30:00 AM 2.96 37.328 0.098 6.99 6.46 12.94
1/18/2021 9:45:00 AM 2.99 37.382 0.098 6.99 6.41 12.95
1/18/2021 10:00:00 AM 3.04 37.472 0.098 6.99 6.46 12.96
1/18/2021 10:15:00 AM 3.08 37.544 0.098 7.01 6.47 12.97
1/18/2021 10:30:00 AM 3.12 37.616 0.098 7.02 6.44 12.97
1/18/2021 10:45:00 AM 3.15 37.67 0.098 7 6.46 12.97
1/18/2021 11:00:00 AM 3.2 37.76 0.098 7.01 6.45 12.97
1/18/2021 11:15:00 AM 3.24 37.832 0.098 7.02 7.6 12.97
1/18/2021 11:30:00 AM 3.27 37.886 0.098 7.02 6.53 12.96
1/18/2021 11:45:00 AM 3.3 37.94 0.098 7.02 6.72 12.95
1/18/2021 12:00:00 PM 3.36 38.048 0.098 7.04 6.34 12.94
1/18/2021 12:15:00 PM 3.41 38.138 0.098 7.03 6.34 12.94
1/18/2021 12:30:00 PM 3.45 38.21 0.098 7.04 6.24 12.93
1/18/2021 12:45:00 PM 3.48 38.264 0.098 7.04 6.57 12.92
1/18/2021 1:00:00 PM 3.51 38.318 0.097 7.04 6.9 12.91
1/18/2021 1:15:00 PM 3.54 38.372 0.097 7.04 6.55 12.9
1/18/2021 1:30:00 PM 3.59 38.462 0.097 7.06 6.61 12.89
1/18/2021 1:45:00 PM 3.63 38.534 0.097 7.05 6.6 12.88
1/18/2021 2:00:00 PM 3.67 38.606 0.097 7.07 6.44 12.87
1/18/2021 2:15:00 PM 3.7 38.66 0.097 7.07 6.4 12.86
1/18/2021 2:30:00 PM 3.71 38.678 0.097 7.04 6.37 12.84
1/18/2021 2:45:00 PM 3.74 38.732 0.097 7.04 6.32 12.83
1/18/2021 3:00:00 PM 3.75 38.75 0.097 7.05 6.54 12.81
1/18/2021 3:15:00 PM 3.76 38.768 0.097 7.04 6.53 12.8
1/18/2021 3:30:00 PM 3.77 38.786 0.097 7.04 6.48 12.78
1/18/2021 3:45:00 PM 3.78 38.804 0.097 7.05 6.57 12.78
1/18/2021 4:00:00 PM 3.78 38.804 0.097 7.03 6.32 12.76
1/18/2021 4:15:00 PM 3.78 38.804 0.097 7.02 6.05 12.75
1/18/2021 4:30:00 PM 3.78 38.804 0.097 7.02 6.3 12.74
1/18/2021 4:45:00 PM 3.77 38.786 0.097 7.02 6.26 12.74
1/18/2021 5:00:00 PM 3.76 38.768 0.097 7.01 6.29 12.73
1/18/2021 5:15:00 PM 3.74 38.732 0.097 7 6.36 12.72
1/18/2021 5:30:00 PM 3.72 38.696 0.097 6.99 6.25 12.71
1/18/2021 5:45:00 PM 3.71 38.678 0.097 6.99 6.31 12.71
1/18/2021 6:00:00 PM 3.69 38.642 0.097 6.99 6.46 12.71
1/18/2021 6:15:00 PM 3.67 38.606 0.097 6.98 6.42 12.71
1/18/2021 6:30:00 PM 3.66 38.588 0.097 6.98 6.43 12.7
1/18/2021 6:45:00 PM 3.64 38.552 0.097 6.98 6.64 12.7
1/18/2021 7:00:00 PM 3.62 38.516 0.097 6.97 6.5 12.7
1/18/2021 7:15:00 PM 3.6 38.48 0.097 6.98 6.52 12.71
1/18/2021 7:30:00 PM 3.58 38.444 0.097 6.97 6.39 12.71
1/18/2021 7:45:00 PM 3.56 38.408 0.097 6.97 6.45 12.72
1/18/2021 8:00:00 PM 3.54 38.372 0.097 6.97 6.43 12.72
1/18/2021 8:15:00 PM 3.53 38.354 0.097 6.97 6.5 12.73
1/18/2021 8:30:00 PM 3.51 38.318 0.097 6.97 6.23 12.73
1/18/2021 8:45:00 PM 3.49 38.282 0.097 6.96 6.47 12.73
1/18/2021 9:00:00 PM 3.47 38.246 0.097 6.96 6.51 12.74
1/18/2021 9:15:00 PM 3.45 38.21 0.097 6.96 6.35 12.74
1/18/2021 9:30:00 PM 3.43 38.174 0.097 6.96 6.41 12.75
1/18/2021 9:45:00 PM 3.41 38.138 0.097 6.96 6.49 12.75
1/18/2021 10:00:00 PM 3.39 38.102 0.097 6.96 6.4 12.76
1/18/2021 10:15:00 PM 3.37 38.066 0.097 6.95 6.46 12.77
1/18/2021 10:30:00 PM 3.35 38.03 0.097 6.96 6.43 12.78
1/18/2021 10:45:00 PM 3.34 38.012 0.097 6.96 6.46 12.78
1/18/2021 11:00:00 PM 3.31 37.958 0.097 6.96 6.34 12.79
1/18/2021 11:15:00 PM 3.29 37.922 0.097 6.95 6.42 12.8
1/18/2021 11:30:00 PM 3.27 37.886 0.097 6.96 6.39 12.81
1/18/2021 11:45:00 PM 3.26 37.868 0.097 6.96 6.48 12.82
1/19/2021 12:00:00 AM 3.24 37.832 0.097 6.96 6.47 12.82
1/19/2021 12:15:00 AM 3.22 37.796 0.097 6.96 6.56 12.83
1/19/2021 12:30:00 AM 3.2 37.76 0.097 6.96 6.48 12.84
1/19/2021 12:45:00 AM 3.19 37.742 0.097 6.95 6.46 12.84
1/19/2021 1:00:00 AM 3.17 37.706 0.097 6.95 6.4 12.85
1/19/2021 1:15:00 AM 3.15 37.67 0.097 6.95 6.39 12.86
1/19/2021 1:30:00 AM 3.13 37.634 0.097 6.96 6.36 12.87
1/19/2021 1:45:00 AM 3.12 37.616 0.097 6.96 6.35 12.88
1/19/2021 2:00:00 AM 3.1 37.58 0.097 6.96 6.34 12.88
1/19/2021 2:15:00 AM 3.08 37.544 0.097 6.95 6.35 12.89
1/19/2021 2:30:00 AM 3.07 37.526 0.097 6.96 6.43 12.9
1/19/2021 2:45:00 AM 3.05 37.49 0.097 6.96 6.28 12.91
1/19/2021 3:00:00 AM 3.03 37.454 0.097 6.96 6.39 12.91
1/19/2021 3:15:00 AM 3.02 37.436 0.097 6.96 6.27 12.92
1/19/2021 3:30:00 AM 3 37.4 0.097 6.96 6.24 12.93
1/19/2021 3:45:00 AM 2.98 37.364 0.097 6.97 6.3 12.94
1/19/2021 4:00:00 AM 2.96 37.328 0.097 6.97 6.23 12.94
1/19/2021 4:15:00 AM 2.95 37.31 0.097 6.96 6.2 12.95
1/19/2021 4:30:00 AM 2.93 37.274 0.097 6.96 6.25 12.96
1/19/2021 4:45:00 AM 2.91 37.238 0.097 6.96 6.22 12.96
1/19/2021 5:00:00 AM 2.89 37.202 0.097 6.97 6.27 12.97
1/19/2021 5:15:00 AM 2.87 37.166 0.097 6.95 6.36 12.98
1/19/2021 5:30:00 AM 2.84 37.112 0.097 6.96 6.29 12.99
1/19/2021 5:45:00 AM 2.82 37.076 0.097 6.96 6.47 13
1/19/2021 6:00:00 AM 2.8 37.04 0.097 6.97 6.55 13.01
1/19/2021 6:15:00 AM 2.79 37.022 0.097 6.96 6.4 13.01
1/19/2021 6:30:00 AM 2.77 36.986 0.097 6.97 6.22 13.02
1/19/2021 6:45:00 AM 2.76 36.968 0.097 6.96 6.31 13.03
1/19/2021 7:00:00 AM 2.74 36.932 0.097 6.96 6.39 13.04
1/19/2021 7:15:00 AM 2.73 36.914 0.097 6.96 6.33 13.04
1/19/2021 7:30:00 AM 2.73 36.914 0.097 6.97 6.37 13.05
1/19/2021 7:45:00 AM 2.72 36.896 0.097 6.96 6.24 13.06
1/19/2021 8:00:00 AM 2.72 36.896 0.097 6.97 6.29 13.06
1/19/2021 8:15:00 AM 2.72 36.896 0.097 6.97 6.21 13.07
1/19/2021 8:30:00 AM 2.72 36.896 0.097 6.97 6.21 13.08
1/19/2021 8:45:00 AM 2.72 36.896 0.097 6.98 6.25 13.09
1/19/2021 9:00:00 AM 2.73 36.914 0.097 6.98 6.16 13.11
1/19/2021 9:15:00 AM 2.74 36.932 0.097 6.99 6.19 13.13
1/19/2021 9:30:00 AM 2.76 36.968 0.097 7 6.25 13.14
1/19/2021 9:45:00 AM 2.78 37.004 0.097 7.01 6.23 13.16
1/19/2021 10:00:00 AM 2.8 37.04 0.097 7.01 6.22 13.17
1/19/2021 10:15:00 AM 2.82 37.076 0.097 7.02 6.27 13.18
1/19/2021 10:30:00 AM 2.84 37.112 0.097 7.02 6.31 13.19
1/19/2021 10:45:00 AM 2.86 37.148 0.097 7.02 6.36 13.2
1/19/2021 11:00:00 AM 2.88 37.184 0.097 7.03 6.42 13.2
1/19/2021 11:15:00 AM 2.9 37.22 0.097 7.04 6.43 13.2
1/19/2021 11:30:00 AM 2.93 37.274 0.097 7.03 6.28 13.2
1/19/2021 11:45:00 AM 2.94 37.292 0.097 7.05 6.25 13.2
1/19/2021 12:00:00 PM 2.95 37.31 0.097 7.04 9.94 13.2
1/19/2021 12:15:00 PM 2.96 37.328 0.097 7.05 6.37 13.2
1/19/2021 12:30:00 PM 2.98 37.364 0.097 7.05 6.39 13.2
1/19/2021 12:45:00 PM 3.01 37.418 0.097 7.07 6.3 13.2
1/19/2021 1:00:00 PM 3.07 37.526 0.097 7.08 6.22 13.19
1/19/2021 1:15:00 PM 3.09 37.562 0.097 7.06 6.08 13.19
1/19/2021 1:30:00 PM 3.14 37.652 0.097 7.09 6.09 13.18
1/19/2021 1:45:00 PM 3.14 37.652 0.097 7.08 6.19 13.17
1/19/2021 2:00:00 PM 3.15 37.67 0.097 7.08 6.01 13.16
1/19/2021 2:15:00 PM 3.16 37.688 0.097 7.06 6.04 13.16
1/19/2021 2:30:00 PM 3.18 37.724 0.097 7.07 6.08 13.15
1/19/2021 2:45:00 PM 3.24 37.832 0.097 7.07 6.09 13.14
1/19/2021 3:00:00 PM 3.24 37.832 0.097 7.07 6.21 13.14
1/19/2021 3:15:00 PM 3.24 37.832 0.097 7.07 6.11 13.13
1/19/2021 3:30:00 PM 3.25 37.85 0.097 7.07 6.37 13.12
1/19/2021 3:45:00 PM 3.25 37.85 0.097 7.06 6.38 13.11
1/19/2021 4:00:00 PM 3.25 37.85 0.096 7.07 6.28 13.1
1/19/2021 4:15:00 PM 3.25 37.85 0.097 7.06 6.17 13.1
1/19/2021 4:30:00 PM 3.24 37.832 0.096 7.06 6.12 13.08
1/19/2021 4:45:00 PM 3.23 37.814 0.096 7.06 6.07 13.07
1/19/2021 5:00:00 PM 3.21 37.778 0.096 7.05 6.01 13.06
1/19/2021 5:15:00 PM 3.19 37.742 0.096 7.05 6.1 13.05
1/19/2021 5:30:00 PM 3.16 37.688 0.096 7.03 5.99 13.04
1/19/2021 5:45:00 PM 3.12 37.616 0.097 7.03 5.99 13.03
1/19/2021 6:00:00 PM 3.09 37.562 0.097 7.02 5.85 13.03
1/19/2021 6:15:00 PM 3.06 37.508 0.097 7.02 6.32 13.02
1/19/2021 6:30:00 PM 3.02 37.436 0.087 7.04 6.43 13.03
1/19/2021 6:45:00 PM 2.98 37.364 0.097 7 6.6 13.03
1/19/2021 7:00:00 PM 2.94 37.292 0.097 7.01 6.85 13.03
1/19/2021 7:15:00 PM 2.9 37.22 0.097 7 6.81 13.03
1/19/2021 7:30:00 PM 2.87 37.166 0.097 7 7.34 13.04
1/19/2021 7:45:00 PM 2.83 37.094 0.097 6.99 6.65 13.04
1/19/2021 8:00:00 PM 2.8 37.04 0.097 6.99 6.55 13.05
1/19/2021 8:15:00 PM 2.76 36.968 0.097 6.99 6.75 13.05
1/19/2021 8:30:00 PM 2.73 36.914 0.097 6.99 6.66 13.06
1/19/2021 8:45:00 PM 2.69 36.842 0.097 6.99 6.8 13.07
1/19/2021 9:00:00 PM 2.66 36.788 0.097 6.99 6.8 13.07
1/19/2021 9:15:00 PM 2.63 36.734 0.097 6.98 6.64 13.08
1/19/2021 9:30:00 PM 2.6 36.68 0.097 6.98 6.61 13.09
1/19/2021 9:45:00 PM 2.57 36.626 0.097 6.98 6.81 13.09
1/19/2021 10:00:00 PM 2.54 36.572 0.097 6.98 10.83 13.11
1/19/2021 10:15:00 PM 2.52 36.536 0.097 6.97 7.35 13.11
1/19/2021 10:30:00 PM 2.5 36.5 0.097 6.98 9.08 13.12
1/19/2021 10:45:00 PM 2.48 36.464 0.097 6.98 10.54 13.13
1/19/2021 11:00:00 PM 2.46 36.428 0.097 6.98 9.68 13.13
1/19/2021 11:15:00 PM 2.44 36.392 0.097 6.98 6.51 13.14
1/19/2021 11:30:00 PM 2.42 36.356 0.097 6.97 6.18 13.15
1/19/2021 11:45:00 PM 2.41 36.338 0.097 6.99 6.05 13.15
1/20/2021 12:00:00 AM 2.39 36.302 0.097 6.98 6.03 13.16
1/20/2021 12:15:00 AM 2.37 36.266 0.097 6.98 5.96 13.17
1/20/2021 12:30:00 AM 2.36 36.248 0.097 6.98 5.99 13.17
1/20/2021 12:45:00 AM 2.35 36.23 0.097 6.98 5.97 13.18
1/20/2021 1:00:00 AM 2.34 36.212 0.097 6.98 5.93 13.18
1/20/2021 1:15:00 AM 2.33 36.194 0.097 6.98 5.92 13.18
1/20/2021 1:30:00 AM 2.32 36.176 0.097 6.98 5.96 13.18
1/20/2021 1:45:00 AM 2.31 36.158 0.097 6.98 5.94 13.19
1/20/2021 2:00:00 AM 2.29 36.122 0.097 6.98 5.94 13.19
1/20/2021 2:15:00 AM 2.28 36.104 0.097 6.98 5.92 13.19
1/20/2021 2:30:00 AM 2.27 36.086 0.097 6.98 5.93 13.2
1/20/2021 2:45:00 AM 2.25 36.05 0.097 6.98 5.9 13.2
1/20/2021 3:00:00 AM 2.25 36.05 0.097 6.98 5.94 13.2
1/20/2021 3:15:00 AM 2.24 36.032 0.097 6.98 6.01 13.2
1/20/2021 3:30:00 AM 2.23 36.014 0.097 6.99 5.89 13.2
1/20/2021 3:45:00 AM 2.23 36.014 0.097 6.99 6.03 13.2
1/20/2021 4:00:00 AM 2.22 35.996 0.097 6.98 6.04 13.2
1/20/2021 4:15:00 AM 2.22 35.996 0.097 6.99 6.14 13.2
1/20/2021 4:30:00 AM 2.23 36.014 0.097 6.98 6.05 13.2
1/20/2021 4:45:00 AM 2.23 36.014 0.097 6.99 6.12 13.2
1/20/2021 5:00:00 AM 2.23 36.014 0.097 6.99 6.04 13.2
1/20/2021 5:15:00 AM 2.23 36.014 0.097 6.99 6.12 13.2
1/20/2021 5:30:00 AM 2.23 36.014 0.097 7 6.13 13.2
1/20/2021 5:45:00 AM 2.23 36.014 0.097 7 6.11 13.19
1/20/2021 6:00:00 AM 2.23 36.014 0.097 7 6.06 13.19
1/20/2021 6:15:00 AM 2.23 36.014 0.097 7 6.13 13.19
1/20/2021 6:30:00 AM 2.23 36.014 0.097 6.99 6.07 13.2
1/20/2021 6:45:00 AM 2.22 35.996 0.097 6.99 6.08 13.19
1/20/2021 7:00:00 AM 2.21 35.978 0.097 6.99 6.1 13.2
1/20/2021 7:15:00 AM 2.21 35.978 0.097 7 6.12 13.2
1/20/2021 7:30:00 AM 2.2 35.96 0.097 7 6.04 13.2
1/20/2021 7:45:00 AM 2.19 35.942 0.097 7 6.13 13.21
1/20/2021 8:00:00 AM 2.19 35.942 0.097 7.01 6 13.22
1/20/2021 8:15:00 AM 2.2 35.96 0.097 7.01 5.97 13.23
1/20/2021 8:30:00 AM 2.16 35.888 0.097 7.01 5.97 13.23
1/20/2021 8:45:00 AM 2.13 35.834 0.097 7 6.02 13.25
1/20/2021 9:00:00 AM 2.12 35.816 0.097 7.01 5.97 13.27
1/20/2021 9:15:00 AM 2.11 35.798 0.097 7.01 5.98 13.3
1/20/2021 9:30:00 AM 2.08 35.744 0.097 7.01 5.92 13.32
1/20/2021 9:45:00 AM 2.1 35.78 0.097 7.03 5.94 13.35
1/20/2021 10:00:00 AM 2.11 35.798 0.097 7.03 5.83 13.37
1/20/2021 10:15:00 AM 2.16 35.888 0.097 7.04 5.94 13.39
1/20/2021 10:30:00 AM 2.16 35.888 0.097 7.04 5.9 13.4
1/20/2021 10:45:00 AM 2.21 35.978 0.097 7.06 6.04 13.42
1/20/2021 11:00:00 AM 2.24 36.032 0.097 7.07 5.85 13.42
1/20/2021 11:15:00 AM 2.27 36.086 0.097 7.07 5.85 13.43
1/20/2021 11:30:00 AM 2.3 36.14 0.097 7.08 5.9 13.44
1/20/2021 11:45:00 AM 2.33 36.194 0.097 7.08 5.89 13.45
1/20/2021 12:00:00 PM 2.36 36.248 0.097 7.09 5.89 13.45
1/20/2021 12:15:00 PM 2.39 36.302 0.097 7.09 5.95 13.45
1/20/2021 12:30:00 PM 2.4 36.32 0.097 7.09 5.94 13.45
1/20/2021 12:45:00 PM 2.42 36.356 0.097 7.09 5.89 13.45
1/20/2021 1:00:00 PM 2.44 36.392 0.096 7.1 5.9 13.44
1/20/2021 1:15:00 PM 2.51 36.518 0.096 7.11 5.94 13.43
1/20/2021 1:30:00 PM 2.62 36.716 0.096 7.13 5.91 13.41
1/20/2021 1:45:00 PM 2.73 36.914 0.096 7.13 5.87 13.39
1/20/2021 2:00:00 PM 2.75 36.95 0.096 7.11 5.88 13.37
1/20/2021 2:15:00 PM 2.71 36.878 0.096 7.1 5.94 13.37
1/20/2021 2:30:00 PM 2.71 36.878 0.096 7.1 5.88 13.36
1/20/2021 2:45:00 PM 2.7 36.86 0.096 7.1 5.97 13.35
1/20/2021 3:00:00 PM 2.71 36.878 0.096 7.09 5.94 13.34
1/20/2021 3:15:00 PM 2.77 36.986 0.096 7.11 5.94 13.33
1/20/2021 3:30:00 PM 2.73 36.914 0.096 7.1 5.96 13.32
1/20/2021 3:45:00 PM 2.7 36.86 0.096 7.09 6.04 13.31
1/20/2021 4:00:00 PM 2.65 36.77 0.096 7.07 5.98 13.31
1/20/2021 4:15:00 PM 2.61 36.698 0.096 7.07 6.02 13.32
1/20/2021 4:30:00 PM 2.57 36.626 0.096 7.07 6.01 13.32
1/20/2021 4:45:00 PM 2.52 36.536 0.096 7.07 5.98 13.32
1/20/2021 5:00:00 PM 2.48 36.464 0.096 7.06 5.96 13.32
1/20/2021 5:15:00 PM 2.44 36.392 0.096 7.06 6.02 13.31
1/20/2021 5:30:00 PM 2.4 36.32 0.096 7.05 6 13.31
1/20/2021 5:45:00 PM 2.35 36.23 0.096 7.04 5.99 13.31
1/20/2021 6:00:00 PM 2.31 36.158 0.096 7.05 5.99 13.31
1/20/2021 6:15:00 PM 2.27 36.086 0.096 7.03 6.04 13.31
1/20/2021 6:30:00 PM 2.23 36.014 0.096 7.02 5.96 13.3
1/20/2021 6:45:00 PM 2.19 35.942 0.096 7.02 5.97 13.31
1/20/2021 7:00:00 PM 2.15 35.87 0.096 7.02 6.04 13.3
1/20/2021 7:15:00 PM 2.11 35.798 0.096 7.01 6.04 13.3
1/20/2021 7:30:00 PM 2.08 35.744 0.096 7.01 6.02 13.3
1/20/2021 7:45:00 PM 2.04 35.672 0.096 7.01 6.07 13.31
1/20/2021 8:00:00 PM 1.98 35.564 0.096 7 6.01 13.32
1/20/2021 8:15:00 PM 1.93 35.474 0.096 7 6.01 13.33
1/20/2021 8:30:00 PM 1.89 35.402 0.096 7 6.17 13.34
1/20/2021 8:45:00 PM 1.84 35.312 0.096 6.99 6.06 13.35
1/20/2021 9:00:00 PM 1.8 35.24 0.096 6.99 6.17 13.37
1/20/2021 9:15:00 PM 1.76 35.168 0.096 6.99 6.19 13.39
1/20/2021 9:30:00 PM 1.72 35.096 0.096 6.99 6.3 13.4
1/20/2021 9:45:00 PM 1.69 35.042 0.096 6.99 6.34 13.42
1/20/2021 10:00:00 PM 1.64 34.952 0.096 6.99 6.35 13.44
1/20/2021 10:15:00 PM 1.6 34.88 0.096 6.99 6.26 13.46
1/20/2021 10:30:00 PM 1.55 34.79 0.096 6.98 6.21 13.47
1/20/2021 10:45:00 PM 1.51 34.718 0.096 6.98 6.15 13.49
1/20/2021 11:00:00 PM 1.46 34.628 0.097 6.98 6.16 13.51
1/20/2021 11:15:00 PM 1.41 34.538 0.097 6.98 6.12 13.53
1/20/2021 11:30:00 PM 1.36 34.448 0.097 6.98 6.05 13.55
1/20/2021 11:45:00 PM 1.31 34.358 0.097 6.98 6.06 13.57
1/21/2021 12:00:00 AM 1.25 34.25 0.097 6.98 5.99 13.58
1/21/2021 12:15:00 AM 1.2 34.16 0.097 6.98 5.99 13.6
1/21/2021 12:30:00 AM 1.17 34.106 0.097 6.99 5.97 13.61
1/21/2021 12:45:00 AM 1.13 34.034 0.097 6.98 6.08 13.62
1/21/2021 1:00:00 AM 1.1 33.98 0.097 6.99 5.95 13.64
1/21/2021 1:15:00 AM 1.07 33.926 0.097 6.99 6 13.64
1/21/2021 1:30:00 AM 1.04 33.872 0.097 6.99 5.99 13.66
1/21/2021 1:45:00 AM 1 33.8 0.097 6.98 5.96 13.66
1/21/2021 2:00:00 AM 0.97 33.746 0.097 6.99 5.9 13.67
1/21/2021 2:15:00 AM 0.94 33.692 0.097 6.99 5.98 13.68
1/21/2021 2:30:00 AM 0.89 33.602 0.097 6.98 6.01 13.69
1/21/2021 2:45:00 AM 0.85 33.53 0.097 6.99 5.98 13.7
1/21/2021 3:00:00 AM 0.82 33.476 0.097 6.98 5.96 13.71
1/21/2021 3:15:00 AM 0.78 33.404 0.097 6.98 6.04 13.72
1/21/2021 3:30:00 AM 0.75 33.35 0.097 6.98 5.97 13.73
1/21/2021 3:45:00 AM 0.71 33.278 0.097 6.98 5.97 13.74
1/21/2021 4:00:00 AM 0.67 33.206 0.097 6.98 5.93 13.75
1/21/2021 4:15:00 AM 0.63 33.134 0.097 6.98 5.99 13.77
1/21/2021 4:30:00 AM 0.6 33.08 0.097 6.99 5.96 13.78
1/21/2021 4:45:00 AM 0.56 33.008 0.097 6.98 5.98 13.79
1/21/2021 5:00:00 AM 0.52 32.936 0.097 6.98 6.01 13.8
1/21/2021 5:15:00 AM 0.5 32.9 0.097 7 6.02 13.82
1/21/2021 5:30:00 AM 0.48 32.864 0.097 6.99 5.98 13.82
1/21/2021 5:45:00 AM 0.47 32.846 0.097 6.99 5.97 13.83
1/21/2021 6:00:00 AM 0.45 32.81 0.097 7 5.9 13.84
1/21/2021 6:15:00 AM 0.44 32.792 0.098 6.99 5.91 13.85
1/21/2021 6:30:00 AM 0.42 32.756 0.098 6.99 5.93 13.85
1/21/2021 6:45:00 AM 0.42 32.756 0.098 6.99 5.92 13.85
1/21/2021 7:00:00 AM 0.41 32.738 0.098 6.99 5.93 13.86
1/21/2021 7:15:00 AM 0.4 32.72 0.098 7 6.48 13.86
1/21/2021 7:30:00 AM 0.39 32.702 0.098 7 5.93 13.87
1/21/2021 7:45:00 AM 0.38 32.684 0.098 7 5.87 13.88
1/21/2021 8:00:00 AM 0.37 32.666 0.098 7 5.95 13.89
1/21/2021 8:15:00 AM 0.38 32.684 0.098 7 5.88 13.9
1/21/2021 8:30:00 AM 0.38 32.684 0.098 7.01 5.85 13.91
1/21/2021 8:45:00 AM 0.39 32.702 0.098 7.02 5.84 13.92
1/21/2021 9:00:00 AM 0.4 32.72 0.098 7.02 5.86 13.94
1/21/2021 9:15:00 AM 0.41 32.738 0.098 7.03 5.87 13.95
1/21/2021 9:30:00 AM 0.42 32.756 0.098 7.03 5.87 13.96
1/21/2021 9:45:00 AM 0.43 32.774 0.098 7.04 5.88 13.97
1/21/2021 10:00:00 AM 0.44 32.792 0.098 7.05 5.91 13.98
1/21/2021 10:15:00 AM 0.46 32.828 0.098 7.05 6.02 13.99
1/21/2021 10:30:00 AM 0.5 32.9 0.098 7.06 5.91 14
1/21/2021 10:45:00 AM 0.54 32.972 0.098 7.07 5.88 14.01
1/21/2021 11:00:00 AM 0.56 33.008 0.098 7.06 5.88 14.01
1/21/2021 11:15:00 AM 0.59 33.062 0.098 7.08 5.89 14.01
1/21/2021 11:30:00 AM 0.64 33.152 0.098 7.08 5.84 14.01
1/21/2021 11:45:00 AM 0.7 33.26 0.098 7.1 5.77 14
1/21/2021 12:00:00 PM 0.78 33.404 0.098 7.1 5.78 14
1/21/2021 12:15:00 PM 0.85 33.53 0.098 7.11 5.79 13.98
1/21/2021 12:30:00 PM 0.96 33.728 0.098 7.12 5.77 13.97
1/21/2021 12:45:00 PM 1.07 33.926 0.098 7.12 5.79 13.94
1/21/2021 1:00:00 PM 1.17 34.106 0.098 7.12 5.79 13.92
1/21/2021 1:15:00 PM 1.26 34.268 0.098 7.12 5.79 13.89
1/21/2021 1:30:00 PM 1.34 34.412 0.098 7.12 5.79 13.86
1/21/2021 1:45:00 PM 1.4 34.52 0.097 7.12 5.67 13.84
1/21/2021 2:00:00 PM 1.46 34.628 0.097 7.12 5.82 13.81
1/21/2021 2:15:00 PM 1.5 34.7 0.097 7.12 5.83 13.78
1/21/2021 2:30:00 PM 1.56 34.808 0.097 7.12 5.81 13.75
1/21/2021 2:45:00 PM 1.62 34.916 0.097 7.12 6.88 13.72
1/21/2021 3:00:00 PM 1.66 34.988 0.097 7.12 6.56 13.68
1/21/2021 3:15:00 PM 1.7 35.06 0.097 7.12 7.32 13.65
1/21/2021 3:30:00 PM 1.73 35.114 0.097 7.12 6.01 13.62
1/21/2021 3:45:00 PM 1.75 35.15 0.097 7.12 6.08 13.6
1/21/2021 4:00:00 PM 1.76 35.168 0.097 7.11 6.12 13.57
1/21/2021 4:15:00 PM 1.77 35.186 0.097 7.11 9.39 13.54
1/21/2021 4:30:00 PM 1.77 35.186 0.097 7.1 8.19 13.52
1/21/2021 4:45:00 PM 1.77 35.186 0.097 7.09 8.1 13.49
1/21/2021 5:00:00 PM 1.77 35.186 0.097 7.08 5.94 13.47
1/21/2021 5:15:00 PM 1.76 35.168 0.097 7.08 5.92 13.44
1/21/2021 5:30:00 PM 1.75 35.15 0.097 7.08 6.03 13.42
1/21/2021 5:45:00 PM 1.75 35.15 0.097 7.07 6.07 13.4
1/21/2021 6:00:00 PM 1.74 35.132 0.097 7.06 5.86 13.38
1/21/2021 6:15:00 PM 1.73 35.114 0.097 7.06 5.81 13.36
1/21/2021 6:30:00 PM 1.71 35.078 0.097 7.05 5.78 13.35
1/21/2021 6:45:00 PM 1.7 35.06 0.097 7.05 5.79 13.33
1/21/2021 7:00:00 PM 1.68 35.024 0.097 7.04 5.88 13.33
1/21/2021 7:15:00 PM 1.66 34.988 0.097 7.04 5.9 13.32
1/21/2021 7:30:00 PM 1.65 34.97 0.097 7.03 5.88 13.31
1/21/2021 7:45:00 PM 1.65 34.97 0.097 7.03 5.98 13.31
1/21/2021 8:00:00 PM 1.65 34.97 0.097 7.03 5.95 13.3
1/21/2021 8:15:00 PM 1.64 34.952 0.097 7.03 6.16 13.3
1/21/2021 8:30:00 PM 1.64 34.952 0.097 7.01 5.96 13.3
1/21/2021 8:45:00 PM 1.65 34.97 0.097 7.01 6.05 13.29
1/21/2021 9:00:00 PM 1.65 34.97 0.097 7.01 6.03 13.29
1/21/2021 9:15:00 PM 1.66 34.988 0.097 7 6.04 13.28
1/21/2021 9:30:00 PM 1.66 34.988 0.097 7 6.01 13.28
1/21/2021 9:45:00 PM 1.66 34.988 0.097 7 6 13.28
1/21/2021 10:00:00 PM 1.66 34.988 0.097 7.01 5.97 13.28
1/21/2021 10:15:00 PM 1.65 34.97 0.097 7 6.05 13.28
1/21/2021 10:30:00 PM 1.65 34.97 0.097 7 5.97 13.29
1/21/2021 10:45:00 PM 1.64 34.952 0.097 7 5.94 13.29
1/21/2021 11:00:00 PM 1.64 34.952 0.097 7 6.01 13.29
1/21/2021 11:15:00 PM 1.61 34.898 0.097 6.99 5.94 13.3
1/21/2021 11:30:00 PM 1.6 34.88 0.097 6.98 5.98 13.31
1/21/2021 11:45:00 PM 1.58 34.844 0.097 7 5.92 13.31
1/22/2021 12:00:00 AM 1.57 34.826 0.097 6.99 5.95 13.31
1/22/2021 12:15:00 AM 1.56 34.808 0.097 6.98 6.01 13.32
1/22/2021 12:30:00 AM 1.56 34.808 0.097 6.98 5.94 13.32
1/22/2021 12:45:00 AM 1.56 34.808 0.097 6.99 6.02 13.33
1/22/2021 1:00:00 AM 1.55 34.79 0.097 6.99 5.94 13.33
1/22/2021 1:15:00 AM 1.55 34.79 0.097 6.99 5.96 13.33
1/22/2021 1:30:00 AM 1.55 34.79 0.097 7 6.03 13.33
1/22/2021 1:45:00 AM 1.55 34.79 0.097 7 6 13.33
1/22/2021 2:00:00 AM 1.54 34.772 0.097 6.98 5.95 13.34
1/22/2021 2:15:00 AM 1.53 34.754 0.097 6.99 5.92 13.34
1/22/2021 2:30:00 AM 1.53 34.754 0.097 6.98 5.97 13.34
1/22/2021 2:45:00 AM 1.53 34.754 0.097 6.99 6.09 13.34
1/22/2021 3:00:00 AM 1.53 34.754 0.097 6.98 6.05 13.34
1/22/2021 3:15:00 AM 1.53 34.754 0.097 6.99 5.97 13.34
1/22/2021 3:30:00 AM 1.53 34.754 0.097 6.99 5.99 13.34
1/22/2021 3:45:00 AM 1.53 34.754 0.097 6.99 5.95 13.34
1/22/2021 4:00:00 AM 1.53 34.754 0.097 6.99 5.96 13.34
1/22/2021 4:15:00 AM 1.54 34.772 0.097 6.99 5.95 13.34
1/22/2021 4:30:00 AM 1.54 34.772 0.097 6.99 5.93 13.34
1/22/2021 4:45:00 AM 1.54 34.772 0.097 6.99 6.04 13.34
1/22/2021 5:00:00 AM 1.54 34.772 0.097 6.99 6.09 13.34
1/22/2021 5:15:00 AM 1.54 34.772 0.097 6.99 5.96 13.34
1/22/2021 5:30:00 AM 1.54 34.772 0.097 7 6.01 13.34
1/22/2021 5:45:00 AM 1.55 34.79 0.097 7 5.94 13.34
1/22/2021 6:00:00 AM 1.56 34.808 0.097 6.99 5.9 13.34
1/22/2021 6:15:00 AM 1.56 34.808 0.097 7 5.94 13.33
1/22/2021 6:30:00 AM 1.57 34.826 0.097 6.98 5.95 13.33
1/22/2021 6:45:00 AM 1.57 34.826 0.097 6.99 5.91 13.33
1/22/2021 7:00:00 AM 1.58 34.844 0.097 7 5.92 13.33
1/22/2021 7:15:00 AM 1.58 34.844 0.097 7 5.93 13.33
1/22/2021 7:30:00 AM 1.59 34.862 0.097 7 5.98 13.33
1/22/2021 7:45:00 AM 1.59 34.862 0.097 7 5.96 13.34
1/22/2021 8:00:00 AM 1.6 34.88 0.097 7.01 5.97 13.34
1/22/2021 8:15:00 AM 1.61 34.898 0.097 7.01 5.97 13.35
1/22/2021 8:30:00 AM 1.63 34.934 0.097 7.03 5.94 13.38
1/22/2021 8:45:00 AM 1.65 34.97 0.097 7.02 5.94 13.39
1/22/2021 9:00:00 AM 1.67 35.006 0.097 7.04 5.92 13.41
1/22/2021 9:15:00 AM 1.69 35.042 0.097 7.03 6.03 13.43
1/22/2021 9:30:00 AM 1.72 35.096 0.097 7.05 5.97 13.44
1/22/2021 9:45:00 AM 1.76 35.168 0.097 7.06 5.93 13.45
1/22/2021 10:00:00 AM 1.8 35.24 0.097 7.07 5.86 13.46
1/22/2021 10:15:00 AM 1.84 35.312 0.097 7.07 5.88 13.47
1/22/2021 10:30:00 AM 1.89 35.402 0.097 7.08 5.86 13.48
1/22/2021 10:45:00 AM 1.96 35.528 0.097 7.1 5.91 13.48
1/22/2021 11:00:00 AM 2.03 35.654 0.097 7.1 5.91 13.48
1/22/2021 11:15:00 AM 2.14 35.852 0.097 7.11 6.04 13.48
1/22/2021 11:30:00 AM 2.19 35.942 0.097 7.11 6.04 13.46
1/22/2021 11:45:00 AM 2.19 35.942 0.097 7.1 6.09 13.46
1/22/2021 12:00:00 PM 2.25 36.05 0.097 7.11 6 13.45
1/22/2021 12:15:00 PM 2.32 36.176 0.097 7.13 5.99 13.44
1/22/2021 12:30:00 PM 2.36 36.248 0.097 7.12 5.95 13.43
1/22/2021 12:45:00 PM 2.38 36.284 0.097 7.11 5.92 13.42
1/22/2021 1:00:00 PM 2.4 36.32 0.097 7.12 5.96 13.41
1/22/2021 1:15:00 PM 2.41 36.338 0.097 7.12 5.94 13.4
1/22/2021 1:30:00 PM 2.43 36.374 0.097 7.12 5.97 13.38
1/22/2021 1:45:00 PM 2.44 36.392 0.097 7.12 5.86 13.36
1/22/2021 2:00:00 PM 2.46 36.428 0.097 7.12 5.85 13.36
1/22/2021 2:15:00 PM 2.49 36.482 0.097 7.12 5.87 13.35
1/22/2021 2:30:00 PM 2.49 36.482 0.097 7.11 5.93 13.34
1/22/2021 2:45:00 PM 2.48 36.464 0.097 7.11 5.91 13.32
1/22/2021 3:00:00 PM 2.48 36.464 0.097 7.1 5.91 13.3
1/22/2021 3:15:00 PM 2.47 36.446 0.097 7.1 5.94 13.29
1/22/2021 3:30:00 PM 2.47 36.446 0.097 7.09 5.92 13.29
1/22/2021 3:45:00 PM 2.47 36.446 0.097 7.09 5.95 13.28
1/22/2021 4:00:00 PM 2.47 36.446 0.097 7.09 5.99 13.28
1/22/2021 4:15:00 PM 2.45 36.41 0.097 7.09 5.93 13.28
1/22/2021 4:30:00 PM 2.45 36.41 0.096 7.09 5.93 13.27
1/22/2021 4:45:00 PM 2.44 36.392 0.097 7.09 6.14 13.25
1/22/2021 5:00:00 PM 2.43 36.374 0.097 7.08 6.18 13.24
1/22/2021 5:15:00 PM 2.42 36.356 0.097 7.07 6.22 13.22
1/22/2021 5:30:00 PM 2.41 36.338 0.096 7.07 6.12 13.21
1/22/2021 5:45:00 PM 2.41 36.338 0.096 7.06 6.12 13.2
1/22/2021 6:00:00 PM 2.4 36.32 0.096 7.06 6.09 13.19
1/22/2021 6:15:00 PM 2.39 36.302 0.096 7.06 6.09 13.18
1/22/2021 6:30:00 PM 2.38 36.284 0.096 7.06 6.08 13.17
1/22/2021 6:45:00 PM 2.37 36.266 0.096 7.05 6.05 13.17
1/22/2021 7:00:00 PM 2.37 36.266 0.096 7.04 6.08 13.16
1/22/2021 7:15:00 PM 2.36 36.248 0.097 7.04 6.06 13.16
1/22/2021 7:30:00 PM 2.35 36.23 0.097 7.04 6.1 13.15
1/22/2021 7:45:00 PM 2.33 36.194 0.097 7.04 6.15 13.15
1/22/2021 8:00:00 PM 2.32 36.176 0.097 7.04 6.11 13.15
1/22/2021 8:15:00 PM 2.31 36.158 0.097 7.03 6.05 13.15
1/22/2021 8:30:00 PM 2.29 36.122 0.097 7.03 6.14 13.16
1/22/2021 8:45:00 PM 2.26 36.068 0.097 7.03 6.13 13.16
1/22/2021 9:00:00 PM 2.23 36.014 0.097 7.02 6.17 13.17
1/22/2021 9:15:00 PM 2.2 35.96 0.097 7.02 6.13 13.17
1/22/2021 9:30:00 PM 2.18 35.924 0.097 7.02 6.06 13.18
1/22/2021 9:45:00 PM 2.16 35.888 0.097 7.02 6.42 13.19
1/22/2021 10:00:00 PM 2.12 35.816 0.097 7.01 6.12 13.19
1/22/2021 10:15:00 PM 2.09 35.762 0.097 7.01 6.16 13.21
1/22/2021 10:30:00 PM 2.05 35.69 0.097 7.01 6.13 13.21
1/22/2021 10:45:00 PM 2.02 35.636 0.097 7.01 6.07 13.23
1/22/2021 11:00:00 PM 1.98 35.564 0.097 7 6.14 13.24
1/22/2021 11:15:00 PM 1.94 35.492 0.097 7.01 6.12 13.25
1/22/2021 11:30:00 PM 1.89 35.402 0.097 6.99 6.09 13.26
1/22/2021 11:45:00 PM 1.86 35.348 0.097 6.99 6.19 13.28
1/23/2021 12:00:00 AM 1.82 35.276 0.097 7 6.13 13.29
1/23/2021 12:15:00 AM 1.77 35.186 0.097 6.99 6.09 13.31
1/23/2021 12:30:00 AM 1.73 35.114 0.097 6.99 6.12 13.33
1/23/2021 12:45:00 AM 1.69 35.042 0.097 6.99 6.08 13.35
1/23/2021 1:00:00 AM 1.65 34.97 0.097 7 6.05 13.36
1/23/2021 1:15:00 AM 1.61 34.898 0.097 6.98 6.1 13.38
1/23/2021 1:30:00 AM 1.58 34.844 0.097 6.99 6.12 13.4
1/23/2021 1:45:00 AM 1.53 34.754 0.097 6.99 6.1 13.42
1/23/2021 2:00:00 AM 1.5 34.7 0.097 7 6.16 13.44
1/23/2021 2:15:00 AM 1.46 34.628 0.097 7 6.2 13.45
1/23/2021 2:30:00 AM 1.42 34.556 0.097 7 6.14 13.48
1/23/2021 2:45:00 AM 1.39 34.502 0.097 7 6.11 13.49
1/23/2021 3:00:00 AM 1.35 34.43 0.097 7.01 6.16 13.5
1/23/2021 3:15:00 AM 1.31 34.358 0.097 7.02 6.12 13.52
1/23/2021 3:30:00 AM 1.27 34.286 0.097 7.01 6.12 13.53
1/23/2021 3:45:00 AM 1.23 34.214 0.098 7.01 6.07 13.55
1/23/2021 4:00:00 AM 1.2 34.16 0.098 7.01 5.98 13.56
1/23/2021 4:15:00 AM 1.16 34.088 0.098 7.02 6.03 13.58
1/23/2021 4:30:00 AM 1.12 34.016 0.098 7.01 6.14 13.6
1/23/2021 4:45:00 AM 1.07 33.926 0.098 7.01 6.05 13.61
1/23/2021 5:00:00 AM 1.03 33.854 0.098 7.01 6.02 13.63
1/23/2021 5:15:00 AM 0.99 33.782 0.098 7.01 5.99 13.64
1/23/2021 5:30:00 AM 0.95 33.71 0.098 7.01 5.99 13.66
1/23/2021 5:45:00 AM 0.91 33.638 0.098 7.02 6.05 13.67
1/23/2021 6:00:00 AM 0.87 33.566 0.098 7 5.98 13.69
1/23/2021 6:15:00 AM 0.84 33.512 0.098 7.01 6.03 13.71
1/23/2021 6:30:00 AM 0.81 33.458 0.098 7.01 6.02 13.73
1/23/2021 6:45:00 AM 0.77 33.386 0.098 7.01 5.94 13.75
1/23/2021 7:00:00 AM 0.73 33.314 0.098 7.02 5.99 13.77
1/23/2021 7:15:00 AM 0.68 33.224 0.098 7 5.98 13.79
1/23/2021 7:30:00 AM 0.64 33.152 0.098 7.02 5.96 13.81
1/23/2021 7:45:00 AM 0.6 33.08 0.098 7.01 5.95 13.83
1/23/2021 8:00:00 AM 0.57 33.026 0.098 7.02 5.93 13.87
1/23/2021 8:15:00 AM 0.55 32.99 0.098 7.03 5.91 13.9
1/23/2021 8:30:00 AM 0.54 32.972 0.098 7.03 5.87 13.92
1/23/2021 8:45:00 AM 0.52 32.936 0.098 7.03 5.93 13.96
1/23/2021 9:00:00 AM 0.51 32.918 0.098 7.04 5.92 13.99
1/23/2021 9:15:00 AM 0.5 32.9 0.098 7.05 5.93 14.02
1/23/2021 9:30:00 AM 0.51 32.918 0.098 7.06 5.95 14.05
1/23/2021 9:45:00 AM 0.51 32.918 0.098 7.06 5.95 14.08
1/23/2021 10:00:00 AM 0.51 32.918 0.098 7.07 5.95 14.1
1/23/2021 10:15:00 AM 0.52 32.936 0.098 7.08 5.94 14.12
1/23/2021 10:30:00 AM 0.54 32.972 0.098 7.08 5.9 14.15
1/23/2021 10:45:00 AM 0.55 32.99 0.098 7.09 5.95 14.17
1/23/2021 11:00:00 AM 0.57 33.026 0.098 7.1 5.92 14.18
1/23/2021 11:15:00 AM 0.59 33.062 0.098 7.1 5.91 14.2
1/23/2021 11:30:00 AM 0.63 33.134 0.098 7.12 6.54 14.21
1/23/2021 11:45:00 AM 0.66 33.188 0.098 7.12 5.92 14.22
1/23/2021 12:00:00 PM 0.69 33.242 0.098 7.12 5.9 14.22
1/23/2021 12:15:00 PM 0.71 33.278 0.098 7.12 5.89 14.23
1/23/2021 12:30:00 PM 0.72 33.296 0.098 7.12 5.92 14.24
1/23/2021 12:45:00 PM 0.77 33.386 0.098 7.13 5.9 14.24
1/23/2021 1:00:00 PM 0.85 33.53 0.098 7.15 5.87 14.22
1/23/2021 1:15:00 PM 0.89 33.602 0.098 7.14 5.87 14.22
1/23/2021 1:30:00 PM 0.91 33.638 0.098 7.14 5.88 14.21
1/23/2021 1:45:00 PM 0.92 33.656 0.098 7.14 5.89 14.2
1/23/2021 2:00:00 PM 0.92 33.656 0.098 7.13 5.85 14.21
1/23/2021 2:15:00 PM 0.92 33.656 0.098 7.13 5.86 14.19
1/23/2021 2:30:00 PM 0.92 33.656 0.098 7.13 5.88 14.19
1/23/2021 2:45:00 PM 0.96 33.728 0.098 7.13 5.86 14.18
1/23/2021 3:00:00 PM 0.98 33.764 0.098 7.13 5.91 14.17
1/23/2021 3:15:00 PM 0.95 33.71 0.098 7.12 5.87 14.16
1/23/2021 3:30:00 PM 0.98 33.764 0.098 7.13 5.9 14.16
1/23/2021 3:45:00 PM 0.96 33.728 0.098 7.12 5.89 14.15
1/23/2021 4:00:00 PM 0.9 33.62 0.098 7.11 5.87 14.14
1/23/2021 4:15:00 PM 0.87 33.566 0.098 7.1 5.9 14.13
1/23/2021 4:30:00 PM 0.83 33.494 0.098 7.1 5.86 14.11
1/23/2021 4:45:00 PM 0.8 33.44 0.098 7.09 5.86 14.1
1/23/2021 5:00:00 PM 0.78 33.404 0.098 7.09 5.86 14.08
1/23/2021 5:15:00 PM 0.75 33.35 0.098 7.09 5.87 14.06
1/23/2021 5:30:00 PM 0.72 33.296 0.098 7.08 5.9 14.04
1/23/2021 5:45:00 PM 0.7 33.26 0.098 7.07 5.88 14.03
1/23/2021 6:00:00 PM 0.67 33.206 0.098 7.05 5.88 14.02
1/23/2021 6:15:00 PM 0.64 33.152 0.098 7.05 5.85 14.02
1/23/2021 6:30:00 PM 0.61 33.098 0.098 7.06 5.89 14.01
1/23/2021 6:45:00 PM 0.57 33.026 0.098 7.04 5.93 14.01
1/23/2021 7:00:00 PM 0.53 32.954 0.098 7.04 5.89 14.01
1/23/2021 7:15:00 PM 0.5 32.9 0.098 7.04 5.92 14.01
1/23/2021 7:30:00 PM 0.47 32.846 0.098 7.04 5.87 14.02
1/23/2021 7:45:00 PM 0.43 32.774 0.098 7.03 5.94 14.02
1/23/2021 8:00:00 PM 0.4 32.72 0.098 7.02 5.87 14.03
1/23/2021 8:15:00 PM 0.36 32.648 0.098 7.02 5.89 14.04
1/23/2021 8:30:00 PM 0.33 32.594 0.098 7.03 5.89 14.05
1/23/2021 8:45:00 PM 0.3 32.54 0.098 7.02 5.85 14.06
1/23/2021 9:00:00 PM 0.27 32.486 0.098 7.02 5.78 14.07
1/23/2021 9:15:00 PM 0.24 32.432 0.098 7.01 5.91 14.09
1/23/2021 9:30:00 PM 0.21 32.378 0.098 7.01 5.88 14.1
1/23/2021 9:45:00 PM 0.18 32.324 0.098 7.01 5.86 14.11
1/23/2021 10:00:00 PM 0.15 32.27 0.098 7.04 5.84 14.12
1/23/2021 10:15:00 PM 0.12 32.216 0.098 7.02 5.9 14.13
1/23/2021 10:30:00 PM 0.11 32.198 0.098 7.01 5.9 14.14
1/23/2021 10:45:00 PM 0.08 32.144 0.098 7.01 5.9 14.15
1/23/2021 11:00:00 PM 0.05 32.09 0.098 7.02 5.82 14.16
1/23/2021 11:15:00 PM 0.02 32.036 0.098 7.02 5.87 14.17
1/23/2021 11:30:00 PM -0.01 31.982 0.098 7 5.86 14.19
1/23/2021 11:45:00 PM -0.05 31.91 0.099 7.01 5.89 14.2
1/24/2021 12:00:00 AM -0.07 31.874 0.099 7.01 5.88 14.22
1/24/2021 12:15:00 AM -0.06 31.892 0.099 7.02 5.78 14.24
1/24/2021 12:30:00 AM -0.05 31.91 0.099 7.02 5.79 14.25
1/24/2021 12:45:00 AM -0.05 31.91 0.099 7.02 5.77 14.26
1/24/2021 1:00:00 AM -0.05 31.91 0.099 7.03 5.78 14.27
1/24/2021 1:15:00 AM -0.05 31.91 0.099 7.03 5.72 14.28
1/24/2021 1:30:00 AM -0.05 31.91 0.1 7.04 5.71 14.28
1/24/2021 1:45:00 AM -0.05 31.91 0.1 7.03 5.74 14.28
1/24/2021 2:00:00 AM -0.05 31.91 0.1 7.03 5.76 14.29
1/24/2021 2:15:00 AM -0.05 31.91 0.1 7.04 5.73 14.29
1/24/2021 2:30:00 AM -0.05 31.91 0.1 7.03 5.69 14.29
1/24/2021 2:45:00 AM -0.05 31.91 0.1 7.03 5.78 14.29
1/24/2021 3:00:00 AM -0.05 31.91 0.101 7.03 5.71 14.29
1/24/2021 3:15:00 AM -0.05 31.91 0.101 7.03 5.77 14.28
1/24/2021 3:30:00 AM -0.05 31.91 0.101 7.03 5.73 14.28
1/24/2021 3:45:00 AM -0.04 31.928 0.101 7.03 5.74 14.27
1/24/2021 4:00:00 AM -0.04 31.928 0.101 7.03 5.66 14.28
1/24/2021 4:15:00 AM -0.04 31.928 0.101 7.04 5.72 14.28
1/24/2021 4:30:00 AM -0.04 31.928 0.101 7.04 5.71 14.28
1/24/2021 4:45:00 AM -0.04 31.928 0.101 7.03 5.79 14.28
1/24/2021 5:00:00 AM -0.05 31.91 0.102 7.04 5.68 14.28
1/24/2021 5:15:00 AM -0.04 31.928 0.102 7.03 5.76 14.27
1/24/2021 5:30:00 AM -0.05 31.91 0.102 7.03 5.66 14.28
1/24/2021 5:45:00 AM -0.05 31.91 0.102 7.03 5.67 14.27
1/24/2021 6:00:00 AM -0.04 31.928 0.102 7.04 5.67 14.28
1/24/2021 6:15:00 AM -0.04 31.928 0.102 7.03 5.77 14.27
1/24/2021 6:30:00 AM -0.04 31.928 0.102 7.04 5.66 14.28
1/24/2021 6:45:00 AM -0.04 31.928 0.102 7.04 5.62 14.28
1/24/2021 7:00:00 AM -0.04 31.928 0.102 7.03 5.59 14.28
1/24/2021 7:15:00 AM -0.04 31.928 0.103 7.04 5.61 14.28
1/24/2021 7:30:00 AM -0.04 31.928 0.103 7.04 5.65 14.28
1/24/2021 7:45:00 AM -0.04 31.928 0.103 7.04 5.65 14.29
1/24/2021 8:00:00 AM -0.03 31.946 0.103 7.05 5.73 14.29
1/24/2021 8:15:00 AM -0.04 31.928 0.103 7.04 5.63 14.31
1/24/2021 8:30:00 AM -0.03 31.946 0.103 7.04 5.6 14.33
1/24/2021 8:45:00 AM -0.03 31.946 0.103 7.04 5.61 14.34
1/24/2021 9:00:00 AM -0.03 31.946 0.103 7.05 5.69 14.35
1/24/2021 9:15:00 AM -0.02 31.964 0.103 7.05 5.81 14.39
1/24/2021 9:30:00 AM -0.02 31.964 0.104 7.06 5.76 14.39
1/24/2021 9:45:00 AM -0.01 31.982 0.104 7.06 6.15 14.39
1/24/2021 10:00:00 AM 0 32 0.104 7.07 5.91 14.4
1/24/2021 10:15:00 AM 0.01 32.018 0.104 7.07 5.74 14.41
1/24/2021 10:30:00 AM 0.02 32.036 0.104 7.08 5.77 14.41
1/24/2021 10:45:00 AM 0.03 32.054 0.104 7.08 5.88 14.41
1/24/2021 11:00:00 AM 0.03 32.054 0.104 7.08 5.73 14.41
1/24/2021 11:15:00 AM 0.06 32.108 0.104 7.09 5.8 14.41
1/24/2021 11:30:00 AM 0.08 32.144 0.104 7.1 5.84 14.4
1/24/2021 11:45:00 AM 0.07 32.126 0.104 7.08 5.78 14.41
1/24/2021 12:00:00 PM 0.09 32.162 0.104 7.1 6 14.41
1/24/2021 12:15:00 PM 0.13 32.234 0.104 7.11 5.93 14.41
1/24/2021 12:30:00 PM 0.12 32.216 0.103 7.11 5.92 14.4
1/24/2021 12:45:00 PM 0.12 32.216 0.103 7.11 6.01 14.4
1/24/2021 1:00:00 PM 0.12 32.216 0.103 7.11 6.2 14.4
1/24/2021 1:15:00 PM 0.13 32.234 0.103 7.11 6.51 14.41
1/24/2021 1:30:00 PM 0.11 32.198 0.103 7.09 6.24 14.42
1/24/2021 1:45:00 PM 0.1 32.18 0.103 7.1 6.29 14.42
1/24/2021 2:00:00 PM 0.11 32.198 0.103 7.1 6.28 14.43
1/24/2021 2:15:00 PM 0.12 32.216 0.103 7.1 6.4 14.43
1/24/2021 2:30:00 PM 0.16 32.288 0.102 7.12 6.38 14.43
1/24/2021 2:45:00 PM 0.16 32.288 0.102 7.13 6.36 14.43
1/24/2021 3:00:00 PM 0.14 32.252 0.102 7.12 6.3 14.43
1/24/2021 3:15:00 PM 0.14 32.252 0.102 7.12 6.38 14.43
1/24/2021 3:30:00 PM 0.15 32.27 0.102 7.13 6.32 14.43
1/24/2021 3:45:00 PM 0.14 32.252 0.102 7.13 6.33 14.42
1/24/2021 4:00:00 PM 0.13 32.234 0.102 7.12 6.37 14.42
1/24/2021 4:15:00 PM 0.12 32.216 0.101 7.12 6.33 14.41
1/24/2021 4:30:00 PM 0.11 32.198 0.101 7.12 6.19 14.41
1/24/2021 4:45:00 PM 0.1 32.18 0.101 7.13 6.07 14.4
1/24/2021 5:00:00 PM 0.08 32.144 0.101 7.12 6.13 14.38
1/24/2021 5:15:00 PM 0.06 32.108 0.101 7.11 6.1 14.37
1/24/2021 5:30:00 PM 0.04 32.072 0.101 7.1 6.06 14.35
1/24/2021 5:45:00 PM 0.03 32.054 0.101 7.1 6.17 14.34
1/24/2021 6:00:00 PM 0.02 32.036 0.1 7.09 6.04 14.33
1/24/2021 6:15:00 PM 0.01 32.018 0.1 7.09 6.05 14.32
1/24/2021 6:30:00 PM 0 32 0.1 7.08 6.07 14.31
1/24/2021 6:45:00 PM -0.01 31.982 0.1 7.07 6 14.3
1/24/2021 7:00:00 PM -0.02 31.964 0.1 7.06 6.03 14.29
1/24/2021 7:15:00 PM -0.02 31.964 0.1 7.07 5.98 14.28
1/24/2021 7:30:00 PM -0.03 31.946 0.1 7.07 5.98 14.27
1/24/2021 7:45:00 PM -0.03 31.946 0.1 7.07 5.99 14.26
1/24/2021 8:00:00 PM -0.03 31.946 0.1 7.07 6.01 14.25
1/24/2021 8:15:00 PM -0.03 31.946 0.1 7.06 6.12 14.24
1/24/2021 8:30:00 PM -0.03 31.946 0.1 7.06 6.15 14.24
1/24/2021 8:45:00 PM -0.04 31.928 0.1 7.05 6.04 14.23
1/24/2021 9:00:00 PM -0.04 31.928 0.1 7.06 5.94 14.23
1/24/2021 9:15:00 PM -0.04 31.928 0.1 7.06 5.93 14.23
1/24/2021 9:30:00 PM -0.04 31.928 0.1 7.05 5.96 14.22
1/24/2021 9:45:00 PM -0.04 31.928 0.1 7.06 5.91 14.22
1/24/2021 10:00:00 PM -0.03 31.946 0.1 7.06 5.93 14.21
1/24/2021 10:15:00 PM -0.03 31.946 0.1 7.06 6.03 14.21
1/24/2021 10:30:00 PM -0.04 31.928 0.1 7.05 5.92 14.21
1/24/2021 10:45:00 PM -0.04 31.928 0.1 7.05 5.91 14.21
1/24/2021 11:00:00 PM -0.04 31.928 0.1 7.05 5.97 14.21
1/24/2021 11:15:00 PM -0.04 31.928 0.1 7.05 5.92 14.2
1/24/2021 11:30:00 PM -0.04 31.928 0.1 7.04 5.99 14.2
1/24/2021 11:45:00 PM -0.05 31.91 0.1 7.04 6.09 14.2
1/25/2021 12:00:00 AM -0.05 31.91 0.1 7.05 6 14.2
1/25/2021 12:15:00 AM -0.05 31.91 0.101 7.04 5.98 14.2
1/25/2021 12:30:00 AM -0.06 31.892 0.101 7.05 5.9 14.2
1/25/2021 12:45:00 AM -0.06 31.892 0.101 7.04 5.98 14.2
1/25/2021 1:00:00 AM -0.06 31.892 0.101 7.04 5.93 14.2
1/25/2021 1:15:00 AM -0.06 31.892 0.101 7.04 5.93 14.2
1/25/2021 1:30:00 AM -0.06 31.892 0.101 7.04 5.93 14.2
1/25/2021 1:45:00 AM -0.06 31.892 0.101 7.04 5.88 14.2
1/25/2021 2:00:00 AM -0.06 31.892 0.101 7.04 5.86 14.2
1/25/2021 2:15:00 AM -0.06 31.892 0.101 7.05 5.79 14.2
1/25/2021 2:30:00 AM -0.06 31.892 0.101 7.04 5.8 14.2
1/25/2021 2:45:00 AM -0.06 31.892 0.101 7.04 5.83 14.2
1/25/2021 3:00:00 AM -0.06 31.892 0.101 7.05 5.92 14.21
1/25/2021 3:15:00 AM -0.06 31.892 0.101 7.04 5.93 14.21
1/25/2021 3:30:00 AM -0.06 31.892 0.101 7.04 6.08 14.21
1/25/2021 3:45:00 AM -0.06 31.892 0.101 7.04 6.03 14.21
1/25/2021 4:00:00 AM -0.06 31.892 0.101 7.05 6.17 14.22
1/25/2021 4:15:00 AM -0.06 31.892 0.101 7.04 6.12 14.22
1/25/2021 4:30:00 AM -0.06 31.892 0.101 7.03 6.31 14.23
1/25/2021 4:45:00 AM -0.05 31.91 0.101 7.04 6.07 14.22
1/25/2021 5:00:00 AM -0.05 31.91 0.101 7.03 5.83 14.23
1/25/2021 5:15:00 AM -0.05 31.91 0.101 7.03 5.78 14.23
1/25/2021 5:30:00 AM -0.05 31.91 0.101 7.03 5.84 14.23
1/25/2021 5:45:00 AM -0.05 31.91 0.101 7.04 5.89 14.23
1/25/2021 6:00:00 AM -0.06 31.892 0.101 7.03 5.84 14.24
1/25/2021 6:15:00 AM -0.05 31.91 0.101 7.03 5.82 14.24
1/25/2021 6:30:00 AM -0.05 31.91 0.101 7.03 5.86 14.24
1/25/2021 6:45:00 AM -0.05 31.91 0.102 7.03 5.83 14.24
1/25/2021 7:00:00 AM -0.05 31.91 0.102 7.04 5.87 14.24
1/25/2021 7:15:00 AM -0.05 31.91 0.102 7.04 5.89 14.23
1/25/2021 7:30:00 AM -0.05 31.91 0.102 7.04 5.83 14.24
1/25/2021 7:45:00 AM -0.05 31.91 0.102 7.04 5.85 14.24
1/25/2021 8:00:00 AM -0.05 31.91 0.102 7.05 5.87 14.26
1/25/2021 8:15:00 AM -0.04 31.928 0.102 7.04 5.86 14.27
1/25/2021 8:30:00 AM -0.04 31.928 0.102 7.05 5.9 14.29
1/25/2021 8:45:00 AM -0.04 31.928 0.102 7.06 5.91 14.31
1/25/2021 9:00:00 AM -0.03 31.946 0.102 7.07 5.88 14.32
1/25/2021 9:15:00 AM -0.03 31.946 0.102 7.05 5.85 14.33
1/25/2021 9:30:00 AM -0.02 31.964 0.102 7.07 5.96 14.34
1/25/2021 9:45:00 AM -0.01 31.982 0.102 7.07 5.92 14.35
1/25/2021 10:00:00 AM 0 32 0.102 7.08 7.17 14.36
1/25/2021 10:15:00 AM 0.01 32.018 0.102 7.07 7.18 14.37
1/25/2021 10:30:00 AM 0.02 32.036 0.102 7.08 7.14 14.37
1/25/2021 10:45:00 AM 0.04 32.072 0.102 7.09 6.9 14.37
1/25/2021 11:00:00 AM 0.06 32.108 0.102 7.1 6.79 14.37
1/25/2021 11:15:00 AM 0.09 32.162 0.102 7.1 6.9 14.38
1/25/2021 11:30:00 AM 0.2 32.36 0.101 7.13 7.01 14.38
1/25/2021 11:45:00 AM 0.27 32.486 0.101 7.13 6.9 14.38
1/25/2021 12:00:00 PM 0.35 32.63 0.101 7.14 6.9 14.37
1/25/2021 12:15:00 PM 0.42 32.756 0.101 7.15 6.83 14.36
1/25/2021 12:30:00 PM 0.47 32.846 0.101 7.14 6.88 14.34
1/25/2021 12:45:00 PM 0.53 32.954 0.101 7.15 6.77 14.33
1/25/2021 1:00:00 PM 0.57 33.026 0.101 7.15 6.74 14.31
1/25/2021 1:15:00 PM 0.62 33.116 0.101 7.16 6.78 14.3
1/25/2021 1:30:00 PM 0.67 33.206 0.101 7.16 6.86 14.28
1/25/2021 1:45:00 PM 0.68 33.224 0.101 7.15 6.93 14.27
1/25/2021 2:00:00 PM 0.71 33.278 0.101 7.16 6.69 14.26
1/25/2021 2:15:00 PM 0.71 33.278 0.101 7.15 6.75 14.25
1/25/2021 2:30:00 PM 0.7 33.26 0.1 7.15 6.69 14.25
1/25/2021 2:45:00 PM 0.71 33.278 0.1 7.15 6.73 14.25
1/25/2021 3:00:00 PM 0.71 33.278 0.1 7.15 6.7 14.24
1/25/2021 3:15:00 PM 0.68 33.224 0.1 7.14 6.74 14.23
1/25/2021 3:30:00 PM 0.67 33.206 0.1 7.14 6.75 14.23
1/25/2021 3:45:00 PM 0.67 33.206 0.1 7.14 6.73 14.21
1/25/2021 4:00:00 PM 0.67 33.206 0.1 7.15 6.69 14.2
1/25/2021 4:15:00 PM 0.66 33.188 0.1 7.14 6.66 14.18
1/25/2021 4:30:00 PM 0.66 33.188 0.1 7.14 6.78 14.16
1/25/2021 4:45:00 PM 0.65 33.17 0.1 7.14 6.86 14.13
1/25/2021 5:00:00 PM 0.64 33.152 0.1 7.13 6.73 14.1
1/25/2021 5:15:00 PM 0.63 33.134 0.1 7.13 6.91 14.07
1/25/2021 5:30:00 PM 0.62 33.116 0.1 7.11 6.89 14.05
1/25/2021 5:45:00 PM 0.61 33.098 0.1 7.1 6.8 14.02
1/25/2021 6:00:00 PM 0.6 33.08 0.1 7.11 6.73 14.01
1/25/2021 6:15:00 PM 0.59 33.062 0.099 7.11 6.73 13.99
1/25/2021 6:30:00 PM 0.58 33.044 0.099 7.1 6.69 13.98
1/25/2021 6:45:00 PM 0.58 33.044 0.099 7.08 6.76 13.97
1/25/2021 7:00:00 PM 0.57 33.026 0.099 7.1 6.85 13.96
1/25/2021 7:15:00 PM 0.57 33.026 0.099 7.09 6.7 13.94
1/25/2021 7:30:00 PM 0.57 33.026 0.099 7.08 6.79 13.93
1/25/2021 7:45:00 PM 0.57 33.026 0.099 7.08 6.79 13.92
1/25/2021 8:00:00 PM 0.57 33.026 0.099 7.07 6.82 13.91
1/25/2021 8:15:00 PM 0.57 33.026 0.099 7.08 6.79 13.9
1/25/2021 8:30:00 PM 0.57 33.026 0.099 7.07 7.02 13.9
1/25/2021 8:45:00 PM 0.57 33.026 0.099 7.07 6.92 13.89
1/25/2021 9:00:00 PM 0.57 33.026 0.099 7.07 6.89 13.89
1/25/2021 9:15:00 PM 0.57 33.026 0.099 7.07 6.76 13.88
1/25/2021 9:30:00 PM 0.58 33.044 0.099 7.07 6.62 13.88
1/25/2021 9:45:00 PM 0.57 33.026 0.099 7.06 6.75 13.88
1/25/2021 10:00:00 PM 0.57 33.026 0.099 7.05 6.99 13.88
1/25/2021 10:15:00 PM 0.57 33.026 0.099 7.06 6.71 13.88
1/25/2021 10:30:00 PM 0.58 33.044 0.099 7.06 6.72 13.88
1/25/2021 10:45:00 PM 0.58 33.044 0.099 7.05 6.85 13.88
1/25/2021 11:00:00 PM 0.57 33.026 0.099 7.05 6.68 13.88
1/25/2021 11:15:00 PM 0.57 33.026 0.099 7.05 6.76 13.88
1/25/2021 11:30:00 PM 0.56 33.008 0.099 7.05 6.72 13.88
1/25/2021 11:45:00 PM 0.55 32.99 0.099 7.05 6.87 13.89
1/26/2021 12:00:00 AM 0.55 32.99 0.099 7.05 6.8 13.89
1/26/2021 12:15:00 AM 0.54 32.972 0.099 7.05 6.77 13.89
1/26/2021 12:30:00 AM 0.54 32.972 0.099 7.06 6.69 13.89
1/26/2021 12:45:00 AM 0.53 32.954 0.099 7.06 6.66 13.89
1/26/2021 1:00:00 AM 0.53 32.954 0.099 7.05 6.73 13.89
1/26/2021 1:15:00 AM 0.52 32.936 0.1 7.05 6.83 13.89
1/26/2021 1:30:00 AM 0.52 32.936 0.1 7.05 6.79 13.89
1/26/2021 1:45:00 AM 0.52 32.936 0.1 7.04 6.75 13.89
1/26/2021 2:00:00 AM 0.51 32.918 0.1 7.06 6.81 13.9
1/26/2021 2:15:00 AM 0.51 32.918 0.1 7.04 6.78 13.9
1/26/2021 2:30:00 AM 0.5 32.9 0.1 7.05 6.77 13.9
1/26/2021 2:45:00 AM 0.5 32.9 0.1 7.05 6.69 13.9
1/26/2021 3:00:00 AM 0.5 32.9 0.1 7.05 6.64 13.9
1/26/2021 3:15:00 AM 0.5 32.9 0.1 7.04 6.78 13.9
1/26/2021 3:30:00 AM 0.5 32.9 0.1 7.04 6.75 13.9
1/26/2021 3:45:00 AM 0.5 32.9 0.1 7.04 6.65 13.9
1/26/2021 4:00:00 AM 0.5 32.9 0.1 7.05 6.66 13.89
1/26/2021 4:15:00 AM 0.5 32.9 0.1 7.05 6.64 13.89
1/26/2021 4:30:00 AM 0.5 32.9 0.1 7.05 6.58 13.89
1/26/2021 4:45:00 AM 0.5 32.9 0.1 7.05 6.67 13.88
1/26/2021 5:00:00 AM 0.5 32.9 0.1 7.05 6.8 13.88
1/26/2021 5:15:00 AM 0.51 32.918 0.1 7.05 6.71 13.88
1/26/2021 5:30:00 AM 0.5 32.9 0.1 7.04 6.8 13.87
1/26/2021 5:45:00 AM 0.5 32.9 0.1 7.06 6.68 13.87
1/26/2021 6:00:00 AM 0.51 32.918 0.1 7.05 6.78 13.87
1/26/2021 6:15:00 AM 0.51 32.918 0.1 7.05 6.7 13.87
1/26/2021 6:30:00 AM 0.51 32.918 0.1 7.05 6.8 13.87
1/26/2021 6:45:00 AM 0.51 32.918 0.1 7.05 6.72 13.86
1/26/2021 7:00:00 AM 0.51 32.918 0.1 7.05 6.87 13.86
1/26/2021 7:15:00 AM 0.51 32.918 0.1 7.04 6.76 13.86
1/26/2021 7:30:00 AM 0.51 32.918 0.1 7.05 6.93 13.86
1/26/2021 7:45:00 AM 0.51 32.918 0.1 7.05 6.78 13.87
1/26/2021 8:00:00 AM 0.5 32.9 0.1 7.05 6.77 13.87
1/26/2021 8:15:00 AM 0.5 32.9 0.1 7.05 6.69 13.88
1/26/2021 8:30:00 AM 0.5 32.9 0.1 7.06 6.7 13.89
1/26/2021 8:45:00 AM 0.5 32.9 0.1 7.06 6.71 13.89
1/26/2021 9:00:00 AM 0.39 32.702 0.1 7.03 6.82 13.91
1/26/2021 9:15:00 AM 0.27 32.486 0.1 7.03 6.68 13.92
1/26/2021 9:30:00 AM 0.14 32.252 0.099 7.02 6.81 13.94
1/26/2021 9:45:00 AM 0.07 32.126 0.099 7.03 6.76 13.98
1/26/2021 10:00:00 AM 0.07 32.126 0.099 7.04 6.83 14
1/26/2021 10:15:00 AM 0.02 32.036 0.099 7.03 7.05 14.02
1/26/2021 10:30:00 AM 0.01 32.018 0.099 7.05 7.18 14.06
1/26/2021 10:45:00 AM 0 32 0.099 7.06 6.88 14.09
1/26/2021 11:00:00 AM 0 32 0.099 7.07 6.78 14.12
1/26/2021 11:15:00 AM 0 32 0.099 7.06 6.69 14.14
1/26/2021 11:30:00 AM 0.01 32.018 0.099 7.08 6.72 14.16
1/26/2021 11:45:00 AM 0.03 32.054 0.099 7.09 6.7 14.17
1/26/2021 12:00:00 PM 0.06 32.108 0.099 7.1 6.63 14.18
1/26/2021 12:15:00 PM 0.08 32.144 0.099 7.1 6.69 14.19
1/26/2021 12:30:00 PM 0.1 32.18 0.099 7.11 6.63 14.2
1/26/2021 12:45:00 PM 0.11 32.198 0.099 7.1 6.61 14.2
1/26/2021 1:00:00 PM 0.13 32.234 0.099 7.11 6.57 14.2
1/26/2021 1:15:00 PM 0.14 32.252 0.099 7.12 6.55 14.2
1/26/2021 1:30:00 PM 0.15 32.27 0.099 7.11 6.57 14.21
1/26/2021 1:45:00 PM 0.17 32.306 0.099 7.11 6.47 14.21
1/26/2021 2:00:00 PM 0.1 32.18 0.099 7.1 6.64 14.21
1/26/2021 2:15:00 PM 0.08 32.144 0.099 7.1 6.62 14.21
1/26/2021 2:30:00 PM 0.06 32.108 0.099 7.12 6.6 14.21
1/26/2021 2:45:00 PM 0.04 32.072 0.099 7.1 6.64 14.2
1/26/2021 3:00:00 PM 0.04 32.072 0.099 7.11 6.68 14.21
1/26/2021 3:15:00 PM 0.04 32.072 0.099 7.11 6.64 14.22
1/26/2021 3:30:00 PM 0.04 32.072 0.099 7.11 6.68 14.23
1/26/2021 3:45:00 PM 0.06 32.108 0.099 7.12 6.65 14.23
1/26/2021 4:00:00 PM 0.07 32.126 0.099 7.12 6.66 14.22
1/26/2021 4:15:00 PM 0.09 32.162 0.099 7.12 6.64 14.2
1/26/2021 4:30:00 PM 0.11 32.198 0.099 7.12 6.36 14.18
1/26/2021 4:45:00 PM 0.13 32.234 0.099 7.12 6.58 14.17
1/26/2021 5:00:00 PM 0.16 32.288 0.099 7.11 6.42 14.15
1/26/2021 5:15:00 PM 0.18 32.324 0.099 7.11 6.41 14.13
1/26/2021 5:30:00 PM 0.19 32.342 0.099 7.11 6.46 14.11
1/26/2021 5:45:00 PM 0.2 32.36 0.099 7.1 6.39 14.1
1/26/2021 6:00:00 PM 0.19 32.342 0.099 7.1 6.49 14.08
1/26/2021 6:15:00 PM 0.17 32.306 0.099 7.09 6.48 14.08
1/26/2021 6:30:00 PM 0.17 32.306 0.099 7.08 6.58 14.07
1/26/2021 6:45:00 PM 0.17 32.306 0.098 7.09 6.49 14.07
1/26/2021 7:00:00 PM 0.18 32.324 0.098 7.09 6.45 14.05
1/26/2021 7:15:00 PM 0.13 32.234 0.098 7.08 6.47 14.05
1/26/2021 7:30:00 PM 0.13 32.234 0.098 7.07 6.47 14.04
1/26/2021 7:45:00 PM 0.16 32.288 0.098 7.07 6.51 14.03
1/26/2021 8:00:00 PM 0.17 32.306 0.098 7.08 6.51 14.02
1/26/2021 8:15:00 PM 0.18 32.324 0.098 7.07 6.59 14.01
1/26/2021 8:30:00 PM 0.19 32.342 0.098 7.06 6.66 14
1/26/2021 8:45:00 PM 0.19 32.342 0.098 7.07 6.51 14
1/26/2021 9:00:00 PM 0.2 32.36 0.098 7.06 6.5 13.99
1/26/2021 9:15:00 PM 0.22 32.396 0.098 7.07 6.57 13.98
1/26/2021 9:30:00 PM 0.24 32.432 0.098 7.06 6.47 13.98
1/26/2021 9:45:00 PM 0.25 32.45 0.098 7.07 6.54 13.97
1/26/2021 10:00:00 PM 0.26 32.468 0.098 7.06 6.49 13.96
1/26/2021 10:15:00 PM 0.26 32.468 0.098 7.07 6.41 13.96
1/26/2021 10:30:00 PM 0.27 32.486 0.098 7.07 6.54 13.95
1/26/2021 10:45:00 PM 0.28 32.504 0.098 7.07 6.49 13.95
1/26/2021 11:00:00 PM 0.29 32.522 0.098 7.07 6.49 13.95
1/26/2021 11:15:00 PM 0.3 32.54 0.098 7.06 6.46 13.94
1/26/2021 11:30:00 PM 0.3 32.54 0.099 7.06 6.55 13.94
1/26/2021 11:45:00 PM 0.31 32.558 0.099 7.06 6.43 13.93
1/27/2021 12:00:00 AM 0.32 32.576 0.099 7.06 6.56 13.93
1/27/2021 12:15:00 AM 0.33 32.594 0.099 7.06 6.65 13.92
1/27/2021 12:30:00 AM 0.34 32.612 0.099 7.06 6.67 13.92
1/27/2021 12:45:00 AM 0.35 32.63 0.099 7.05 6.79 13.91
1/27/2021 1:00:00 AM 0.37 32.666 0.099 7.06 6.76 13.91
1/27/2021 1:15:00 AM 0.38 32.684 0.099 7.06 6.73 13.9
1/27/2021 1:30:00 AM 0.39 32.702 0.1 7.06 6.72 13.89
1/27/2021 1:45:00 AM 0.4 32.72 0.1 7.05 6.73 13.89
1/27/2021 2:00:00 AM 0.41 32.738 0.1 7.05 6.66 13.89
1/27/2021 2:15:00 AM 0.42 32.756 0.1 7.06 6.68 13.88
1/27/2021 2:30:00 AM 0.43 32.774 0.1 7.05 6.64 13.88
1/27/2021 2:45:00 AM 0.44 32.792 0.1 7.06 6.68 13.88
1/27/2021 3:00:00 AM 0.4 32.72 0.1 7.04 6.72 13.87
1/27/2021 3:15:00 AM 0.41 32.738 0.099 7.04 6.73 13.87
1/27/2021 3:30:00 AM 0.43 32.774 0.099 7.05 6.54 13.88
1/27/2021 3:45:00 AM 0.44 32.792 0.099 7.05 6.55 13.87
1/27/2021 4:00:00 AM 0.45 32.81 0.099 7.05 6.54 13.87
1/27/2021 4:15:00 AM 0.45 32.81 0.099 7.05 6.58 13.87
1/27/2021 4:30:00 AM 0.46 32.828 0.099 7.05 6.57 13.88
1/27/2021 4:45:00 AM 0.47 32.846 0.099 7.05 6.53 13.87
1/27/2021 5:00:00 AM 0.48 32.864 0.099 7.05 6.54 13.87
1/27/2021 5:15:00 AM 0.49 32.882 0.099 7.05 6.52 13.87
1/27/2021 5:30:00 AM 0.5 32.9 0.099 7.05 6.71 13.87
1/27/2021 5:45:00 AM 0.5 32.9 0.099 7.05 6.62 13.87
1/27/2021 6:00:00 AM 0.51 32.918 0.099 7.05 6.59 13.87
1/27/2021 6:15:00 AM 0.52 32.936 0.1 7.05 6.55 13.87
1/27/2021 6:30:00 AM 0.52 32.936 0.1 7.05 6.54 13.86
1/27/2021 6:45:00 AM 0.53 32.954 0.1 7.06 6.46 13.86
1/27/2021 7:00:00 AM 0.53 32.954 0.1 7.06 6.49 13.87
1/27/2021 7:15:00 AM 0.53 32.954 0.1 7.05 6.57 13.87
1/27/2021 7:30:00 AM 0.53 32.954 0.1 7.06 6.54 13.87
1/27/2021 7:45:00 AM 0.54 32.972 0.1 7.06 6.52 13.88
1/27/2021 8:00:00 AM 0.54 32.972 0.1 7.06 6.51 13.89
1/27/2021 8:15:00 AM 0.55 32.99 0.1 7.07 6.55 13.92
1/27/2021 8:30:00 AM 0.56 33.008 0.1 7.07 6.62 13.94
1/27/2021 8:45:00 AM 0.58 33.044 0.1 7.08 6.54 13.96
1/27/2021 9:00:00 AM 0.61 33.098 0.1 7.09 6.56 13.99
1/27/2021 9:15:00 AM 0.64 33.152 0.1 7.1 6.56 14.01
1/27/2021 9:30:00 AM 0.66 33.188 0.1 7.11 6.56 14.03
1/27/2021 9:45:00 AM 0.69 33.242 0.1 7.11 6.56 14.05
1/27/2021 10:00:00 AM 0.72 33.296 0.1 7.12 6.51 14.06
1/27/2021 10:15:00 AM 0.74 33.332 0.1 7.13 6.49 14.08
1/27/2021 10:30:00 AM 0.78 33.404 0.1 7.14 6.51 14.09
1/27/2021 10:45:00 AM 0.83 33.494 0.1 7.15 6.53 14.1
1/27/2021 11:00:00 AM 0.88 33.584 0.1 7.15 6.54 14.11
1/27/2021 11:15:00 AM 0.92 33.656 0.1 7.16 6.53 14.11
1/27/2021 11:30:00 AM 0.98 33.764 0.1 7.16 6.52 14.12
1/27/2021 11:45:00 AM 1.04 33.872 0.1 7.17 6.51 14.12
1/27/2021 12:00:00 PM 1.09 33.962 0.1 7.17 6.49 14.12
1/27/2021 12:15:00 PM 1.12 34.016 0.1 7.17 6.53 14.12
1/27/2021 12:30:00 PM 1.14 34.052 0.1 7.17 6.45 14.12
1/27/2021 12:45:00 PM 1.17 34.106 0.1 7.18 6.46 14.11
1/27/2021 1:00:00 PM 1.21 34.178 0.1 7.19 6.4 14.11
1/27/2021 1:15:00 PM 1.26 34.268 0.1 7.19 6.83 14.1
1/27/2021 1:30:00 PM 1.29 34.322 0.1 7.19 6.75 14.09
1/27/2021 1:45:00 PM 1.3 34.34 0.1 7.19 6.82 14.08
1/27/2021 2:00:00 PM 1.32 34.376 0.1 7.18 6.81 14.07
1/27/2021 2:15:00 PM 1.34 34.412 0.1 7.19 6.41 14.06
1/27/2021 2:30:00 PM 1.34 34.412 0.1 7.19 6.43 14.05
1/27/2021 2:45:00 PM 1.35 34.43 0.1 7.19 6.76 14.04
1/27/2021 3:00:00 PM 1.35 34.43 0.1 7.19 6.75 14.03
1/27/2021 3:15:00 PM 1.36 34.448 0.1 7.19 6.76 14.02
1/27/2021 3:30:00 PM 1.38 34.484 0.1 7.2 6.88 14.02
1/27/2021 3:45:00 PM 1.37 34.466 0.1 7.19 6.82 14.01
1/27/2021 4:00:00 PM 1.36 34.448 0.1 7.18 6.85 13.99
1/27/2021 4:15:00 PM 1.36 34.448 0.1 7.17 6.89 13.97
1/27/2021 4:30:00 PM 1.35 34.43 0.1 7.18 6.88 13.95
1/27/2021 4:45:00 PM 1.33 34.394 0.1 7.17 6.84 13.93
1/27/2021 5:00:00 PM 1.31 34.358 0.1 7.16 6.9 13.91
1/27/2021 5:15:00 PM 1.3 34.34 0.1 7.16 6.98 13.89
1/27/2021 5:30:00 PM 1.28 34.304 0.1 7.15 6.91 13.86
1/27/2021 5:45:00 PM 1.27 34.286 0.1 7.14 6.98 13.85
1/27/2021 6:00:00 PM 1.25 34.25 0.1 7.13 6.9 13.83
1/27/2021 6:15:00 PM 1.23 34.214 0.1 7.12 6.98 13.82
1/27/2021 6:30:00 PM 1.21 34.178 0.1 7.12 6.98 13.81
1/27/2021 6:45:00 PM 1.19 34.142 0.1 7.11 7.12 13.8
1/27/2021 7:00:00 PM 1.17 34.106 0.1 7.12 7.03 13.79
1/27/2021 7:15:00 PM 1.15 34.07 0.1 7.1 6.96 13.79
1/27/2021 7:30:00 PM 1.13 34.034 0.101 7.1 6.96 13.78
1/27/2021 7:45:00 PM 1.11 33.998 0.101 7.09 7.05 13.78
1/27/2021 8:00:00 PM 1.08 33.944 0.101 7.09 6.97 13.77
1/27/2021 8:15:00 PM 1.05 33.89 0.101 7.09 7 13.77
1/27/2021 8:30:00 PM 1.01 33.818 0.101 7.08 6.94 13.77
1/27/2021 8:45:00 PM 0.97 33.746 0.101 7.08 6.97 13.77
1/27/2021 9:00:00 PM 0.95 33.71 0.101 7.08 7.07 13.77
1/27/2021 9:15:00 PM 0.92 33.656 0.101 7.08 6.97 13.78
1/27/2021 9:30:00 PM 0.87 33.566 0.101 7.06 7.01 13.78
1/27/2021 9:45:00 PM 0.83 33.494 0.101 7.06 7.03 13.78
1/27/2021 10:00:00 PM 0.8 33.44 0.101 7.07 7.03 13.79
1/27/2021 10:15:00 PM 0.75 33.35 0.101 7.06 6.98 13.8
1/27/2021 10:30:00 PM 0.73 33.314 0.101 7.05 6.96 13.81
1/27/2021 10:45:00 PM 0.69 33.242 0.101 7.07 6.93 13.81
1/27/2021 11:00:00 PM 0.66 33.188 0.101 7.05 6.93 13.83
1/27/2021 11:15:00 PM 0.62 33.116 0.101 7.06 6.95 13.84
1/27/2021 11:30:00 PM 0.58 33.044 0.102 7.07 6.81 13.85
1/27/2021 11:45:00 PM 0.55 32.99 0.102 7.06 6.88 13.86
1/28/2021 12:00:00 AM 0.52 32.936 0.102 7.05 6.9 13.87
1/28/2021 12:15:00 AM 0.5 32.9 0.101 7.07 6.92 13.88
1/28/2021 12:30:00 AM 0.47 32.846 0.102 7.06 6.92 13.9
1/28/2021 12:45:00 AM 0.43 32.774 0.102 7.06 6.9 13.91
1/28/2021 1:00:00 AM 0.4 32.72 0.102 7.05 6.85 13.92
1/28/2021 1:15:00 AM 0.36 32.648 0.102 7.06 6.85 13.93
1/28/2021 1:30:00 AM 0.35 32.63 0.102 7.06 6.92 13.95
1/28/2021 1:45:00 AM 0.33 32.594 0.102 7.06 6.94 13.95
1/28/2021 2:00:00 AM 0.31 32.558 0.102 7.07 6.95 13.96
1/28/2021 2:15:00 AM 0.27 32.486 0.102 7.07 6.98 13.98
1/28/2021 2:30:00 AM 0.25 32.45 0.102 7.06 6.91 13.99
1/28/2021 2:45:00 AM 0.22 32.396 0.102 7.06 6.96 14
1/28/2021 3:00:00 AM 0.18 32.324 0.102 7.06 6.99 14.02
1/28/2021 3:15:00 AM 0.14 32.252 0.102 7.05 6.96 14.04
1/28/2021 3:30:00 AM 0.1 32.18 0.102 7.06 6.93 14.05
1/28/2021 3:45:00 AM 0.06 32.108 0.102 7.06 6.91 14.07
1/28/2021 4:00:00 AM 0.02 32.036 0.102 7.06 6.92 14.09
1/28/2021 4:15:00 AM 0 32 0.102 7.05 6.91 14.1
1/28/2021 4:30:00 AM -0.03 31.946 0.102 7.05 6.85 14.11
1/28/2021 4:45:00 AM -0.06 31.892 0.102 7.06 6.91 14.13
1/28/2021 5:00:00 AM -0.07 31.874 0.102 7.06 6.89 14.15
1/28/2021 5:15:00 AM -0.06 31.892 0.102 7.05 6.83 14.16
1/28/2021 5:30:00 AM -0.06 31.892 0.102 7.06 6.91 14.17
1/28/2021 5:45:00 AM -0.05 31.91 0.102 7.07 6.92 14.18
1/28/2021 6:00:00 AM -0.06 31.892 0.102 7.07 6.93 14.19
1/28/2021 6:15:00 AM -0.06 31.892 0.102 7.07 6.88 14.2
1/28/2021 6:30:00 AM -0.05 31.91 0.103 7.07 6.89 14.2
1/28/2021 6:45:00 AM -0.05 31.91 0.103 7.08 6.75 14.21
1/28/2021 7:00:00 AM -0.05 31.91 0.103 7.07 6.74 14.22
1/28/2021 7:15:00 AM -0.05 31.91 0.103 7.07 6.67 14.22
1/28/2021 7:30:00 AM -0.05 31.91 0.103 7.08 6.8 14.23
1/28/2021 7:45:00 AM -0.05 31.91 0.104 7.08 6.84 14.25
1/28/2021 8:00:00 AM -0.05 31.91 0.104 7.08 6.81 14.27
1/28/2021 8:15:00 AM -0.05 31.91 0.104 7.08 6.8 14.29
1/28/2021 8:30:00 AM -0.05 31.91 0.104 7.1 6.83 14.32
1/28/2021 8:45:00 AM -0.04 31.928 0.104 7.1 6.79 14.35
1/28/2021 9:00:00 AM -0.04 31.928 0.104 7.1 6.89 14.37
1/28/2021 9:15:00 AM -0.03 31.946 0.104 7.1 6.89 14.39
1/28/2021 9:30:00 AM -0.02 31.964 0.105 7.11 6.53 14.41
1/28/2021 9:45:00 AM -0.02 31.964 0.105 7.12 6.9 14.42
1/28/2021 10:00:00 AM 0 32 0.105 7.12 6.93 14.43
1/28/2021 10:15:00 AM 0.01 32.018 0.105 7.12 6.97 14.44
1/28/2021 10:30:00 AM 0.04 32.072 0.105 7.13 6.93 14.45
1/28/2021 10:45:00 AM 0.1 32.18 0.105 7.14 6.94 14.45
1/28/2021 11:00:00 AM 0.17 32.306 0.105 7.16 6.89 14.47
1/28/2021 11:15:00 AM 0.14 32.252 0.106 7.14 6.85 14.47
1/28/2021 11:30:00 AM 0.18 32.324 0.106 7.16 6.86 14.47
1/28/2021 11:45:00 AM 0.21 32.378 0.106 7.17 6.81 14.47
1/28/2021 12:00:00 PM 0.26 32.468 0.106 7.18 6.93 14.46
1/28/2021 12:15:00 PM 0.35 32.63 0.106 7.19 6.9 14.45
1/28/2021 12:30:00 PM 0.45 32.81 0.106 7.2 6.98 14.43
1/28/2021 12:45:00 PM 0.5 32.9 0.106 7.19 6.96 14.42
1/28/2021 1:00:00 PM 0.57 33.026 0.105 7.2 6.96 14.41
1/28/2021 1:15:00 PM 0.6 33.08 0.105 7.2 6.9 14.4
1/28/2021 1:30:00 PM 0.63 33.134 0.105 7.2 7 14.39
1/28/2021 1:45:00 PM 0.63 33.134 0.105 7.19 7.03 14.39
1/28/2021 2:00:00 PM 0.63 33.134 0.105 7.18 6.54 14.38
1/28/2021 2:15:00 PM 0.64 33.152 0.105 7.19 6.78 14.38
1/28/2021 2:30:00 PM 0.61 33.098 0.105 7.19 6.74 14.38
1/28/2021 2:45:00 PM 0.57 33.026 0.105 7.18 6.67 14.38
1/28/2021 3:00:00 PM 0.53 32.954 0.105 7.18 6.77 14.38
1/28/2021 3:15:00 PM 0.5 32.9 0.105 7.18 6.83 14.38
1/28/2021 3:30:00 PM 0.44 32.792 0.105 7.18 6.55 14.39
1/28/2021 3:45:00 PM 0.36 32.648 0.105 7.17 6.74 14.4
1/28/2021 4:00:00 PM 0.3 32.54 0.105 7.16 6.8 14.41
1/28/2021 4:15:00 PM 0.23 32.414 0.105 7.16 6.79 14.41
1/28/2021 4:30:00 PM 0.16 32.288 0.105 7.16 6.73 14.42
1/28/2021 4:45:00 PM 0.09 32.162 0.105 7.16 6.87 14.42
1/28/2021 5:00:00 PM 0.02 32.036 0.105 7.14 6.81 14.42
1/28/2021 5:15:00 PM -0.02 31.964 0.105 7.14 6.82 14.41
1/28/2021 5:30:00 PM -0.07 31.874 0.105 7.14 6.8 14.4
1/28/2021 5:45:00 PM -0.07 31.874 0.105 7.15 6.74 14.39
1/28/2021 6:00:00 PM -0.06 31.892 0.105 7.15 6.49 14.37
1/28/2021 6:15:00 PM -0.06 31.892 0.106 7.13 7.62 14.35
1/28/2021 6:30:00 PM -0.05 31.91 0.105 7.14 7.1 14.36
1/28/2021 6:45:00 PM -0.05 31.91 0.105 7.13 6.77 14.35
1/28/2021 7:00:00 PM -0.05 31.91 0.105 7.13 7.68 14.35
1/28/2021 7:15:00 PM -0.05 31.91 0.104 7.12 6.86 14.34
1/28/2021 7:30:00 PM -0.05 31.91 0.104 7.12 6.71 14.34
1/28/2021 7:45:00 PM -0.05 31.91 0.104 7.11 6.73 14.34
1/28/2021 8:00:00 PM -0.05 31.91 0.104 7.11 6.66 14.33
1/28/2021 8:15:00 PM -0.05 31.91 0.104 7.11 6.98 14.32
1/28/2021 8:30:00 PM -0.05 31.91 0.104 7.11 6.84 14.31
1/28/2021 8:45:00 PM -0.05 31.91 0.104 7.11 6.81 14.32
1/28/2021 9:00:00 PM -0.05 31.91 0.104 7.11 6.77 14.31
1/28/2021 9:15:00 PM -0.05 31.91 0.104 7.1 6.8 14.29
1/28/2021 9:30:00 PM -0.05 31.91 0.104 7.1 6.87 14.28
1/28/2021 9:45:00 PM -0.05 31.91 0.104 7.09 6.95 14.25
1/28/2021 10:00:00 PM -0.05 31.91 0.104 7.1 6.72 14.24
1/28/2021 10:15:00 PM -0.04 31.928 0.105 7.09 6.68 14.23
1/28/2021 10:30:00 PM -0.05 31.91 0.105 7.08 6.67 14.22
1/28/2021 10:45:00 PM -0.04 31.928 0.105 7.08 6.72 14.21
1/28/2021 11:00:00 PM -0.04 31.928 0.105 7.08 6.63 14.21
1/28/2021 11:15:00 PM -0.04 31.928 0.105 7.08 6.6 14.21
1/28/2021 11:30:00 PM -0.04 31.928 0.105 7.08 6.61 14.19
1/28/2021 11:45:00 PM -0.04 31.928 0.106 7.08 6.56 14.18
1/29/2021 12:00:00 AM -0.04 31.928 0.106 7.08 6.89 14.17
1/29/2021 12:15:00 AM -0.04 31.928 0.106 7.08 6.7 14.21
1/29/2021 12:30:00 AM -0.04 31.928 0.106 7.07 6.66 14.18
1/29/2021 12:45:00 AM -0.04 31.928 0.107 7.07 6.57 14.17
1/29/2021 1:00:00 AM -0.04 31.928 0.107 7.07 7.59 14.16
1/29/2021 1:15:00 AM -0.03 31.946 0.107 7.07 6.68 14.14
1/29/2021 1:30:00 AM -0.04 31.928 0.107 7.07 6.69 14.15
1/29/2021 1:45:00 AM -0.03 31.946 0.108 7.06 6.64 14.11
1/29/2021 2:00:00 AM -0.02 31.964 0.108 7.06 6.69 14.07
1/29/2021 2:15:00 AM -0.03 31.946 0.108 7.05 6.7 14.09
1/29/2021 2:30:00 AM -0.03 31.946 0.108 7.05 6.65 14.16
1/29/2021 2:45:00 AM -0.04 31.928 0.108 7.06 6.74 14.18
1/29/2021 3:00:00 AM -0.04 31.928 0.108 7.05 6.78 14.18
1/29/2021 3:15:00 AM -0.04 31.928 0.109 7.04 6.71 14.17
1/29/2021 3:30:00 AM -0.04 31.928 0.109 7.05 6.66 14.17
1/29/2021 3:45:00 AM -0.04 31.928 0.109 7.05 6.66 14.18
1/29/2021 4:00:00 AM -0.04 31.928 0.109 7.03 6.8 14.18
1/29/2021 4:15:00 AM -0.04 31.928 0.109 7.03 6.66 14.16
1/29/2021 4:30:00 AM -0.04 31.928 0.11 7.06 7.08 14.17
1/29/2021 4:45:00 AM -0.04 31.928 0.11 7.06 6.89 14.2
1/29/2021 5:00:00 AM -0.04 31.928 0.11 7.07 6.89 14.2
1/29/2021 5:15:00 AM -0.04 31.928 0.11 7.06 6.9 14.18
1/29/2021 5:30:00 AM -0.04 31.928 0.11 7.06 6.99 14.17
1/29/2021 5:45:00 AM -0.04 31.928 0.11 7.06 6.98 14.18
1/29/2021 6:00:00 AM -0.04 31.928 0.11 7.06 7 14.18
1/29/2021 6:15:00 AM -0.04 31.928 0.111 7.06 6.88 14.17
1/29/2021 6:30:00 AM -0.04 31.928 0.111 7.06 6.9 14.18
1/29/2021 6:45:00 AM -0.04 31.928 0.111 7.06 6.84 14.18
1/29/2021 7:00:00 AM -0.04 31.928 0.111 7.06 6.78 14.19
1/29/2021 7:15:00 AM -0.04 31.928 0.111 7.06 6.8 14.19
1/29/2021 7:30:00 AM -0.04 31.928 0.112 7.06 6.72 14.19
1/29/2021 7:45:00 AM -0.04 31.928 0.112 7.07 6.8 14.21
1/29/2021 8:00:00 AM -0.04 31.928 0.112 7.07 6.76 14.24
1/29/2021 8:15:00 AM -0.03 31.946 0.112 7.07 6.91 14.26
1/29/2021 8:30:00 AM -0.03 31.946 0.112 7.08 6.93 14.29
1/29/2021 8:45:00 AM -0.02 31.964 0.112 7.08 7.18 14.31
1/29/2021 9:00:00 AM 0 32 0.112 7.08 8.31 14.33
1/29/2021 9:15:00 AM 0.01 32.018 0.113 7.09 7.21 14.35
1/29/2021 9:30:00 AM 0.01 32.018 0.113 7.09 7.07 14.37
1/29/2021 9:45:00 AM 0.03 32.054 0.113 7.1 7.4 14.38
1/29/2021 10:00:00 AM 0.05 32.09 0.113 7.1 7.22 14.39
1/29/2021 10:15:00 AM 0.04 32.072 0.113 7.1 7.44 14.39
1/29/2021 10:30:00 AM 0.03 32.054 0.113 7.1 8.39 14.41
1/29/2021 10:45:00 AM 0.03 32.054 0.114 7.11 10.19 14.41
1/29/2021 11:00:00 AM 0.04 32.072 0.114 7.12 9.71 14.42
1/29/2021 11:15:00 AM 0.05 32.09 0.114 7.12 9.46 14.43
1/29/2021 11:30:00 AM 0.02 32.036 0.115 7.12 9.31 14.43
1/29/2021 11:45:00 AM 0.03 32.054 0.115 7.13 9.23 14.45
1/29/2021 12:00:00 PM 0.02 32.036 0.115 7.12 10.56 14.46
1/29/2021 12:15:00 PM 0.01 32.018 0.115 7.14 7.97 14.46
1/29/2021 12:30:00 PM 0 32 0.115 7.14 8.06 14.47
1/29/2021 12:45:00 PM 0 32 0.115 7.14 8.2 14.47
1/29/2021 1:00:00 PM 0.01 32.018 0.114 7.15 9.76 14.49
1/29/2021 1:15:00 PM 0.01 32.018 0.114 7.16 7.53 14.5
1/29/2021 1:30:00 PM 0.01 32.018 0.114 7.17 7.41 14.51
1/29/2021 1:45:00 PM 0.02 32.036 0.114 7.17 7.4 14.52
1/29/2021 2:00:00 PM 0.02 32.036 0.114 7.17 8.04 14.53
1/29/2021 2:15:00 PM 0.02 32.036 0.114 7.17 8.38 14.53
1/29/2021 2:30:00 PM 0.01 32.018 0.114 7.17 7.52 14.54
1/29/2021 2:45:00 PM 0.01 32.018 0.114 7.18 7.54 14.55
1/29/2021 3:00:00 PM 0 32 0.114 7.18 7.64 14.55
1/29/2021 3:15:00 PM -0.01 31.982 0.114 7.19 7.61 14.56
1/29/2021 3:30:00 PM -0.01 31.982 0.114 7.19 7.3 14.57
1/29/2021 3:45:00 PM -0.02 31.964 0.114 7.19 7.32 14.57
1/29/2021 4:00:00 PM -0.03 31.946 0.113 7.19 7.75 14.57
1/29/2021 4:15:00 PM -0.03 31.946 0.113 7.19 7.71 14.56
1/29/2021 4:30:00 PM -0.03 31.946 0.113 7.19 7.53 14.56
1/29/2021 4:45:00 PM -0.04 31.928 0.113 7.2 7.55 14.56
1/29/2021 5:00:00 PM -0.04 31.928 0.113 7.18 7.53 14.54
1/29/2021 5:15:00 PM -0.05 31.91 0.113 7.18 7.51 14.51
1/29/2021 5:30:00 PM -0.05 31.91 0.113 7.18 7.59 14.5
1/29/2021 5:45:00 PM -0.05 31.91 0.112 7.17 7.69 14.47
1/29/2021 6:00:00 PM -0.05 31.91 0.112 7.17 7.75 14.46
1/29/2021 6:15:00 PM -0.05 31.91 0.112 7.17 7.59 14.45
1/29/2021 6:30:00 PM -0.05 31.91 0.112 7.17 7.6 14.43
1/29/2021 6:45:00 PM -0.05 31.91 0.112 7.16 7.52 14.42
1/29/2021 7:00:00 PM -0.05 31.91 0.111 7.16 7.55 14.4
1/29/2021 7:15:00 PM -0.05 31.91 0.111 7.15 7.48 14.39
1/29/2021 7:30:00 PM -0.05 31.91 0.111 7.15 7.45 14.38
1/29/2021 7:45:00 PM -0.05 31.91 0.111 7.14 7.41 14.36
1/29/2021 8:00:00 PM -0.05 31.91 0.111 7.14 7.35 14.35
1/29/2021 8:15:00 PM -0.05 31.91 0.111 7.13 8.14 14.34
1/29/2021 8:30:00 PM -0.05 31.91 0.111 7.13 7.82 14.33
1/29/2021 8:45:00 PM -0.05 31.91 0.111 7.13 7.49 14.32
1/29/2021 9:00:00 PM -0.05 31.91 0.111 7.12 7.48 14.3
1/29/2021 9:15:00 PM -0.05 31.91 0.111 7.12 7.64 14.29
1/29/2021 9:30:00 PM -0.05 31.91 0.11 7.12 7.58 14.29
1/29/2021 9:45:00 PM -0.05 31.91 0.11 7.12 7.55 14.28
1/29/2021 10:00:00 PM -0.05 31.91 0.11 7.11 7.51 14.27
1/29/2021 10:15:00 PM -0.05 31.91 0.11 7.11 7.45 14.26
1/29/2021 10:30:00 PM -0.05 31.91 0.11 7.11 7.48 14.26
1/29/2021 10:45:00 PM -0.05 31.91 0.11 7.1 7.57 14.25
1/29/2021 11:00:00 PM -0.05 31.91 0.11 7.1 7.57 14.24
1/29/2021 11:15:00 PM -0.05 31.91 0.11 7.1 7.49 14.24
1/29/2021 11:30:00 PM -0.05 31.91 0.11 7.09 7.52 14.23
1/29/2021 11:45:00 PM -0.05 31.91 0.11 7.09 7.51 14.23
1/30/2021 12:00:00 AM -0.05 31.91 0.11 7.1 7.59 14.23
1/30/2021 12:15:00 AM -0.05 31.91 0.111 7.09 7.51 14.23
1/30/2021 12:30:00 AM -0.05 31.91 0.111 7.09 7.46 14.22
1/30/2021 12:45:00 AM -0.05 31.91 0.111 7.09 7.36 14.22
1/30/2021 1:00:00 AM -0.05 31.91 0.111 7.09 7.54 14.22
1/30/2021 1:15:00 AM -0.05 31.91 0.111 7.09 7.79 14.21
1/30/2021 1:30:00 AM -0.05 31.91 0.111 7.09 7.65 14.21
1/30/2021 1:45:00 AM -0.05 31.91 0.111 7.1 7.67 14.2
1/30/2021 2:00:00 AM -0.05 31.91 0.111 7.09 7.4 14.2
1/30/2021 2:15:00 AM -0.05 31.91 0.111 7.08 7.49 14.2
1/30/2021 2:30:00 AM -0.05 31.91 0.111 7.08 7.48 14.2
1/30/2021 2:45:00 AM -0.05 31.91 0.111 7.08 7.85 14.2
1/30/2021 3:00:00 AM -0.06 31.892 0.111 7.07 7.6 14.19
1/30/2021 3:15:00 AM -0.06 31.892 0.112 7.08 7.39 14.2
1/30/2021 3:30:00 AM -0.06 31.892 0.112 7.08 7.49 14.2
1/30/2021 3:45:00 AM -0.06 31.892 0.112 7.08 7.5 14.2
1/30/2021 4:00:00 AM -0.06 31.892 0.112 7.07 7.53 14.2
1/30/2021 4:15:00 AM -0.06 31.892 0.112 7.07 7.55 14.19
1/30/2021 4:30:00 AM -0.06 31.892 0.112 7.08 7.58 14.2
1/30/2021 4:45:00 AM -0.06 31.892 0.112 7.07 7.43 14.2
1/30/2021 5:00:00 AM -0.06 31.892 0.112 7.07 7.39 14.2
1/30/2021 5:15:00 AM -0.06 31.892 0.112 7.07 7.34 14.2
1/30/2021 5:30:00 AM -0.06 31.892 0.112 7.07 7.34 14.2
1/30/2021 5:45:00 AM -0.06 31.892 0.113 7.07 7.22 14.2
1/30/2021 6:00:00 AM -0.06 31.892 0.113 7.07 7.31 14.2
1/30/2021 6:15:00 AM -0.07 31.874 0.113 7.07 7.29 14.21
1/30/2021 6:30:00 AM -0.06 31.892 0.113 7.07 7.27 14.21
1/30/2021 6:45:00 AM -0.06 31.892 0.113 7.07 7.3 14.21
1/30/2021 7:00:00 AM -0.06 31.892 0.113 7.07 7.06 14.22
1/30/2021 7:15:00 AM -0.06 31.892 0.113 7.07 6.85 14.22
1/30/2021 7:30:00 AM -0.06 31.892 0.113 7.07 6.72 14.23
1/30/2021 7:45:00 AM -0.06 31.892 0.113 7.07 6.75 14.25
1/30/2021 8:00:00 AM -0.06 31.892 0.113 7.07 6.77 14.28
1/30/2021 8:15:00 AM -0.05 31.91 0.113 7.08 6.75 14.31
1/30/2021 8:30:00 AM -0.04 31.928 0.114 7.09 6.96 14.34
1/30/2021 8:45:00 AM -0.02 31.964 0.114 7.09 6.88 14.37
1/30/2021 9:00:00 AM -0.01 31.982 0.114 7.1 6.96 14.39
1/30/2021 9:15:00 AM 0.01 32.018 0.113 7.1 6.95 14.41
1/30/2021 9:30:00 AM 0.03 32.054 0.113 7.11 6.98 14.43
1/30/2021 9:45:00 AM 0.05 32.09 0.113 7.11 6.95 14.44
1/30/2021 10:00:00 AM 0.07 32.126 0.113 7.12 7.23 14.46
1/30/2021 10:15:00 AM 0.1 32.18 0.113 7.13 7.19 14.47
1/30/2021 10:30:00 AM 0.13 32.234 0.113 7.14 7 14.47
1/30/2021 10:45:00 AM 0.15 32.27 0.113 7.14 7.04 14.48
1/30/2021 11:00:00 AM 0.18 32.324 0.113 7.14 7.04 14.48
1/30/2021 11:15:00 AM 0.2 32.36 0.113 7.15 7.09 14.49
1/30/2021 11:30:00 AM 0.21 32.378 0.113 7.15 7.11 14.5
1/30/2021 11:45:00 AM 0.23 32.414 0.113 7.15 7.1 14.5
1/30/2021 12:00:00 PM 0.23 32.414 0.113 7.16 7.16 14.49
1/30/2021 12:15:00 PM 0.25 32.45 0.112 7.16 7.19 14.48
1/30/2021 12:30:00 PM 0.26 32.468 0.112 7.16 7.14 14.48
1/30/2021 12:45:00 PM 0.27 32.486 0.112 7.17 7.34 14.47
1/30/2021 1:00:00 PM 0.28 32.504 0.111 7.17 7.14 14.46
1/30/2021 1:15:00 PM 0.27 32.486 0.111 7.17 7.32 14.47
1/30/2021 1:30:00 PM 0.26 32.468 0.111 7.17 7.22 14.47
1/30/2021 1:45:00 PM 0.25 32.45 0.111 7.17 7.23 14.47
1/30/2021 2:00:00 PM 0.23 32.414 0.111 7.17 7.15 14.47
1/30/2021 2:15:00 PM 0.22 32.396 0.111 7.17 7.19 14.47
1/30/2021 2:30:00 PM 0.2 32.36 0.111 7.18 7.2 14.49
1/30/2021 2:45:00 PM 0.17 32.306 0.11 7.18 7.28 14.49
1/30/2021 3:00:00 PM 0.14 32.252 0.111 7.18 7.19 14.49
1/30/2021 3:15:00 PM 0.13 32.234 0.111 7.17 7.19 14.5
1/30/2021 3:30:00 PM 0.11 32.198 0.111 7.18 7.14 14.5
1/30/2021 3:45:00 PM 0.08 32.144 0.11 7.19 7.17 14.51
1/30/2021 4:00:00 PM 0.05 32.09 0.11 7.19 7.04 14.51
1/30/2021 4:15:00 PM 0.03 32.054 0.11 7.18 7.27 14.52
1/30/2021 4:30:00 PM 0 32 0.11 7.18 7.22 14.52
1/30/2021 4:45:00 PM -0.01 31.982 0.11 7.17 7.17 14.51
1/30/2021 5:00:00 PM -0.02 31.964 0.11 7.18 7.22 14.5
1/30/2021 5:15:00 PM -0.03 31.946 0.109 7.18 7.27 14.48
1/30/2021 5:30:00 PM -0.04 31.928 0.109 7.17 7.38 14.46
1/30/2021 5:45:00 PM -0.05 31.91 0.109 7.17 7.18 14.45
1/30/2021 6:00:00 PM -0.06 31.892 0.109 7.16 7.13 14.43
1/30/2021 6:15:00 PM -0.06 31.892 0.109 7.16 7.31 14.42
1/30/2021 6:30:00 PM -0.07 31.874 0.109 7.15 7.11 14.41
1/30/2021 6:45:00 PM -0.07 31.874 0.109 7.15 7.18 14.4
1/30/2021 7:00:00 PM -0.07 31.874 0.109 7.15 7.21 14.4
1/30/2021 7:15:00 PM -0.07 31.874 0.109 7.15 7.15 14.39
1/30/2021 7:30:00 PM -0.07 31.874 0.109 7.14 7.15 14.38
1/30/2021 7:45:00 PM -0.07 31.874 0.109 7.14 7.17 14.37
1/30/2021 8:00:00 PM -0.07 31.874 0.108 7.13 7.18 14.36
1/30/2021 8:15:00 PM -0.07 31.874 0.109 7.13 7.11 14.35
1/30/2021 8:30:00 PM -0.07 31.874 0.108 7.13 7.14 14.35
1/30/2021 8:45:00 PM -0.07 31.874 0.108 7.13 7.19 14.35
1/30/2021 9:00:00 PM -0.07 31.874 0.108 7.13 7.22 14.34
1/30/2021 9:15:00 PM -0.07 31.874 0.108 7.12 7.14 14.33
1/30/2021 9:30:00 PM -0.07 31.874 0.109 7.12 7.21 14.33
1/30/2021 9:45:00 PM -0.07 31.874 0.109 7.11 7.1 14.32
1/30/2021 10:00:00 PM -0.06 31.892 0.109 7.11 7.13 14.32
1/30/2021 10:15:00 PM -0.07 31.874 0.109 7.12 7.06 14.32
1/30/2021 10:30:00 PM -0.07 31.874 0.109 7.11 7.12 14.31
1/30/2021 10:45:00 PM -0.06 31.892 0.109 7.12 7.01 14.31
1/30/2021 11:00:00 PM -0.06 31.892 0.109 7.11 7.32 14.31
1/30/2021 11:15:00 PM -0.06 31.892 0.109 7.11 7.47 14.3
1/30/2021 11:30:00 PM -0.06 31.892 0.109 7.1 7.26 14.3
1/30/2021 11:45:00 PM -0.06 31.892 0.109 7.1 7.84 14.29
1/31/2021 12:00:00 AM -0.05 31.91 0.109 7.1 7.4 14.28
1/31/2021 12:15:00 AM -0.05 31.91 0.109 7.1 7.35 14.27
1/31/2021 12:30:00 AM -0.05 31.91 0.109 7.09 7.64 14.25
1/31/2021 12:45:00 AM -0.05 31.91 0.109 7.09 8.15 14.26
1/31/2021 1:00:00 AM -0.05 31.91 0.109 7.09 7.09 14.26
1/31/2021 1:15:00 AM -0.05 31.91 0.109 7.08 7.2 14.26
1/31/2021 1:30:00 AM -0.05 31.91 0.11 7.09 7.16 14.25
1/31/2021 1:45:00 AM -0.05 31.91 0.11 7.09 7.03 14.25
1/31/2021 2:00:00 AM -0.05 31.91 0.11 7.09 7.11 14.24
1/31/2021 2:15:00 AM -0.05 31.91 0.11 7.09 7.12 14.23
1/31/2021 2:30:00 AM -0.05 31.91 0.11 7.09 7.18 14.23
1/31/2021 2:45:00 AM -0.05 31.91 0.11 7.08 7.03 14.23
1/31/2021 3:00:00 AM -0.05 31.91 0.11 7.08 7.19 14.22
1/31/2021 3:15:00 AM -0.05 31.91 0.11 7.08 7.14 14.21
1/31/2021 3:30:00 AM -0.05 31.91 0.11 7.08 6.99 14.2
1/31/2021 3:45:00 AM -0.05 31.91 0.111 7.07 7.01 14.21
1/31/2021 4:00:00 AM -0.05 31.91 0.111 7.08 7.02 14.19
1/31/2021 4:15:00 AM -0.05 31.91 0.111 7.07 7 14.19
1/31/2021 4:30:00 AM -0.05 31.91 0.111 7.08 7.04 14.2
1/31/2021 4:45:00 AM -0.05 31.91 0.111 7.06 7.05 14.18
1/31/2021 5:00:00 AM -0.05 31.91 0.111 7.08 7.05 14.18
1/31/2021 5:15:00 AM -0.05 31.91 0.111 7.08 7.01 14.18
1/31/2021 5:30:00 AM -0.05 31.91 0.112 7.07 7.09 14.17
1/31/2021 5:45:00 AM -0.05 31.91 0.112 7.07 7.1 14.17
1/31/2021 6:00:00 AM -0.05 31.91 0.112 7.08 7.09 14.17
1/31/2021 6:15:00 AM -0.05 31.91 0.112 7.06 7.01 14.16
1/31/2021 6:30:00 AM -0.05 31.91 0.112 7.07 7.05 14.16
1/31/2021 6:45:00 AM -0.05 31.91 0.112 7.06 7.07 14.15
1/31/2021 7:00:00 AM -0.05 31.91 0.112 7.07 7.01 14.15
1/31/2021 7:15:00 AM -0.05 31.91 0.112 7.07 7.03 14.15
1/31/2021 7:30:00 AM -0.05 31.91 0.112 7.08 6.89 14.15
1/31/2021 7:45:00 AM -0.04 31.928 0.112 7.08 6.94 14.15
1/31/2021 8:00:00 AM -0.04 31.928 0.112 7.08 6.99 14.16
1/31/2021 8:15:00 AM -0.04 31.928 0.112 7.08 6.94 14.19
1/31/2021 8:30:00 AM -0.04 31.928 0.112 7.08 6.86 14.24
1/31/2021 8:45:00 AM -0.04 31.928 0.112 7.09 6.93 14.26
1/31/2021 9:00:00 AM -0.04 31.928 0.113 7.1 6.99 14.28
1/31/2021 9:15:00 AM -0.03 31.946 0.113 7.1 6.89 14.3
1/31/2021 9:30:00 AM -0.03 31.946 0.113 7.11 6.95 14.32
1/31/2021 9:45:00 AM -0.03 31.946 0.113 7.11 6.95 14.34
1/31/2021 10:00:00 AM -0.02 31.964 0.113 7.12 6.94 14.36
1/31/2021 10:15:00 AM -0.02 31.964 0.113 7.13 6.97 14.38
1/31/2021 10:30:00 AM -0.02 31.964 0.113 7.13 6.89 14.4
1/31/2021 10:45:00 AM -0.02 31.964 0.113 7.13 6.93 14.42
1/31/2021 11:00:00 AM -0.01 31.982 0.113 7.14 6.97 14.43
1/31/2021 11:15:00 AM -0.01 31.982 0.113 7.15 6.89 14.45
1/31/2021 11:30:00 AM 0 32 0.112 7.15 7.26 14.47
1/31/2021 11:45:00 AM 0 32 0.112 7.16 7.03 14.49
1/31/2021 12:00:00 PM 0 32 0.112 7.16 7.15 14.5
1/31/2021 12:15:00 PM 0.01 32.018 0.112 7.16 7.25 14.51
1/31/2021 12:30:00 PM 0.01 32.018 0.112 7.16 7.11 14.52
1/31/2021 12:45:00 PM 0.02 32.036 0.112 7.18 7.14 14.53
1/31/2021 1:00:00 PM 0.03 32.054 0.112 7.17 7.1 14.55
1/31/2021 1:15:00 PM 0.03 32.054 0.112 7.18 7.18 14.55
1/31/2021 1:30:00 PM 0.02 32.036 0.111 7.18 7.16 14.56
1/31/2021 1:45:00 PM 0.01 32.018 0.111 7.18 7.14 14.56
1/31/2021 2:00:00 PM 0 32 0.111 7.18 7.2 14.56
1/31/2021 2:15:00 PM 0.01 32.018 0.111 7.19 7.11 14.56
1/31/2021 2:30:00 PM 0 32 0.111 7.2 7.24 14.56
1/31/2021 2:45:00 PM 0 32 0.111 7.2 7.16 14.56
1/31/2021 3:00:00 PM 0 32 0.11 7.2 7.28 14.56
1/31/2021 3:15:00 PM -0.01 31.982 0.11 7.21 7.23 14.56
1/31/2021 3:30:00 PM -0.02 31.964 0.11 7.2 7.31 14.54
1/31/2021 3:45:00 PM -0.03 31.946 0.11 7.2 7.31 14.53
1/31/2021 4:00:00 PM -0.04 31.928 0.11 7.2 7.31 14.52
1/31/2021 4:15:00 PM -0.04 31.928 0.11 7.2 7.29 14.5
1/31/2021 4:30:00 PM -0.05 31.91 0.11 7.2 7.28 14.49
1/31/2021 4:45:00 PM -0.05 31.91 0.11 7.2 7.28 14.47
1/31/2021 5:00:00 PM -0.05 31.91 0.11 7.19 7.28 14.45
1/31/2021 5:15:00 PM -0.05 31.91 0.11 7.19 7.29 14.43
1/31/2021 5:30:00 PM -0.05 31.91 0.11 7.18 7.27 14.41
1/31/2021 5:45:00 PM -0.05 31.91 0.11 7.17 7.22 14.39
1/31/2021 6:00:00 PM -0.05 31.91 0.11 7.18 7.26 14.37
1/31/2021 6:15:00 PM -0.05 31.91 0.109 7.16 7.22 14.35
1/31/2021 6:30:00 PM -0.05 31.91 0.109 7.16 7.2 14.33
1/31/2021 6:45:00 PM -0.05 31.91 0.109 7.16 7.23 14.32
1/31/2021 7:00:00 PM -0.05 31.91 0.109 7.16 7.29 14.3
1/31/2021 7:15:00 PM -0.05 31.91 0.109 7.15 7.23 14.29
1/31/2021 7:30:00 PM -0.05 31.91 0.109 7.15 7.22 14.27
1/31/2021 7:45:00 PM -0.05 31.91 0.109 7.14 7.4 14.25
1/31/2021 8:00:00 PM -0.05 31.91 0.109 7.14 7.25 14.24
1/31/2021 8:15:00 PM -0.05 31.91 0.109 7.14 7.38 14.23
1/31/2021 8:30:00 PM -0.05 31.91 0.109 7.13 7.19 14.22
1/31/2021 8:45:00 PM -0.05 31.91 0.109 7.13 7.29 14.21
1/31/2021 9:00:00 PM -0.05 31.91 0.109 7.13 7.42 14.19
1/31/2021 9:15:00 PM -0.05 31.91 0.109 7.12 7.26 14.18
1/31/2021 9:30:00 PM -0.05 31.91 0.109 7.13 7.13 14.17
1/31/2021 9:45:00 PM -0.04 31.928 0.109 7.13 7.05 14.16
1/31/2021 10:00:00 PM -0.05 31.91 0.109 7.12 7.15 14.15
1/31/2021 10:15:00 PM -0.05 31.91 0.108 7.11 7.09 14.14
1/31/2021 10:30:00 PM -0.05 31.91 0.108 7.1 7.11 14.13
1/31/2021 10:45:00 PM -0.05 31.91 0.108 7.11 7.15 14.13
1/31/2021 11:00:00 PM -0.04 31.928 0.108 7.11 7.12 14.12
1/31/2021 11:15:00 PM -0.04 31.928 0.108 7.1 7.17 14.11
1/31/2021 11:30:00 PM -0.05 31.91 0.108 7.11 7.13 14.1
1/31/2021 11:45:00 PM -0.05 31.91 0.108 7.1 7.15 14.1
2/1/2021 12:00:00 AM -0.05 31.91 0.108 7.1 7.91 14.09
2/1/2021 12:15:00 AM -0.05 31.91 0.108 7.1 7.3 14.09
2/1/2021 12:30:00 AM -0.04 31.928 0.108 7.1 7.16 14.08
2/1/2021 12:45:00 AM -0.04 31.928 0.108 7.1 7.07 14.08
2/1/2021 1:00:00 AM -0.04 31.928 0.108 7.09 7.05 14.07
2/1/2021 1:15:00 AM -0.04 31.928 0.108 7.09 7.07 14.06
2/1/2021 1:30:00 AM -0.05 31.91 0.108 7.1 7.1 14.06
2/1/2021 1:45:00 AM -0.05 31.91 0.108 7.09 7.14 14.06
2/1/2021 2:00:00 AM -0.05 31.91 0.108 7.09 7.15 14.05
2/1/2021 2:15:00 AM -0.05 31.91 0.108 7.09 7.15 14.05
2/1/2021 2:30:00 AM -0.05 31.91 0.108 7.1 7.27 14.05
2/1/2021 2:45:00 AM -0.05 31.91 0.108 7.09 7.18 14.04
2/1/2021 3:00:00 AM -0.05 31.91 0.108 7.08 7.18 14.04
2/1/2021 3:15:00 AM -0.05 31.91 0.108 7.09 7.08 14.04
2/1/2021 3:30:00 AM -0.05 31.91 0.108 7.09 7.68 14.04
2/1/2021 3:45:00 AM -0.05 31.91 0.109 7.09 7.02 14.04
2/1/2021 4:00:00 AM -0.05 31.91 0.109 7.09 7.07 14.03
2/1/2021 4:15:00 AM -0.05 31.91 0.108 7.09 6.98 14.03
2/1/2021 4:30:00 AM -0.05 31.91 0.109 7.09 6.94 14.03
2/1/2021 4:45:00 AM -0.05 31.91 0.109 7.08 6.96 14.02
2/1/2021 5:00:00 AM -0.05 31.91 0.109 7.09 6.93 14.02
2/1/2021 5:15:00 AM -0.05 31.91 0.109 7.09 6.99 14.02
2/1/2021 5:30:00 AM -0.05 31.91 0.108 7.09 6.98 14.01
2/1/2021 5:45:00 AM -0.05 31.91 0.108 7.08 6.97 14.01
2/1/2021 6:00:00 AM -0.05 31.91 0.108 7.08 7.01 14.01
2/1/2021 6:15:00 AM -0.05 31.91 0.108 7.08 7 14
2/1/2021 6:30:00 AM -0.05 31.91 0.108 7.08 7.12 14
2/1/2021 6:45:00 AM -0.05 31.91 0.108 7.08 7.08 14
2/1/2021 7:00:00 AM -0.05 31.91 0.108 7.09 7 14
2/1/2021 7:15:00 AM -0.05 31.91 0.108 7.08 6.89 14
2/1/2021 7:30:00 AM -0.05 31.91 0.108 7.08 6.95 13.99
2/1/2021 7:45:00 AM -0.05 31.91 0.108 7.08 7.04 13.99
2/1/2021 8:00:00 AM -0.05 31.91 0.108 7.08 7.13 14
2/1/2021 8:15:00 AM -0.05 31.91 0.108 7.08 7.3 14.01
2/1/2021 8:30:00 AM -0.05 31.91 0.108 7.08 7.05 14.01
2/1/2021 8:45:00 AM -0.05 31.91 0.108 7.09 7.01 14.02
2/1/2021 9:00:00 AM -0.05 31.91 0.108 7.09 7.06 14.03
2/1/2021 9:15:00 AM -0.05 31.91 0.108 7.09 6.96 14.03
2/1/2021 9:30:00 AM -0.05 31.91 0.108 7.09 7.05 14.03
2/1/2021 9:45:00 AM -0.05 31.91 0.108 7.08 7.02 14.04
2/1/2021 10:00:00 AM -0.05 31.91 0.108 7.09 7.05 14.05
2/1/2021 10:15:00 AM -0.04 31.928 0.108 7.09 7.15 14.07
2/1/2021 10:30:00 AM -0.04 31.928 0.108 7.09 7.12 14.08
2/1/2021 10:45:00 AM -0.04 31.928 0.108 7.1 7.15 14.09
2/1/2021 11:00:00 AM -0.04 31.928 0.108 7.09 7.21 14.11
2/1/2021 11:15:00 AM -0.03 31.946 0.108 7.1 7.24 14.12
2/1/2021 11:30:00 AM -0.03 31.946 0.108 7.1 7.18 14.13
2/1/2021 11:45:00 AM -0.02 31.964 0.107 7.11 7.23 14.13
2/1/2021 12:00:00 PM -0.03 31.946 0.107 7.1 7.24 14.14
2/1/2021 12:15:00 PM -0.03 31.946 0.107 7.11 7.24 14.15
2/1/2021 12:30:00 PM -0.03 31.946 0.107 7.11 7.27 14.15
2/1/2021 12:45:00 PM -0.03 31.946 0.107 7.11 7.21 14.16
2/1/2021 1:00:00 PM -0.04 31.928 0.107 7.11 7.26 14.16
2/1/2021 1:15:00 PM -0.04 31.928 0.107 7.11 7.26 14.17
2/1/2021 1:30:00 PM -0.03 31.946 0.107 7.11 7.19 14.17
2/1/2021 1:45:00 PM -0.04 31.928 0.107 7.12 7.22 14.18
2/1/2021 2:00:00 PM -0.04 31.928 0.107 7.12 7.25 14.18
2/1/2021 2:15:00 PM -0.04 31.928 0.107 7.12 7.11 14.19
2/1/2021 2:30:00 PM -0.03 31.946 0.107 7.13 7.09 14.19
2/1/2021 2:45:00 PM -0.04 31.928 0.107 7.12 7.21 14.2
2/1/2021 3:00:00 PM -0.04 31.928 0.107 7.12 7.25 14.19
2/1/2021 3:15:00 PM -0.04 31.928 0.107 7.13 7.22 14.2
2/1/2021 3:30:00 PM -0.04 31.928 0.107 7.13 7.21 14.2
2/1/2021 3:45:00 PM -0.03 31.946 0.107 7.13 7.21 14.2
2/1/2021 4:00:00 PM -0.03 31.946 0.107 7.14 7.28 14.2
2/1/2021 4:15:00 PM -0.04 31.928 0.107 7.13 7.35 14.19
2/1/2021 4:30:00 PM -0.04 31.928 0.107 7.14 7.33 14.18
2/1/2021 4:45:00 PM -0.04 31.928 0.107 7.13 7.28 14.17
2/1/2021 5:00:00 PM -0.04 31.928 0.107 7.12 7.32 14.16
2/1/2021 5:15:00 PM -0.04 31.928 0.107 7.13 7.28 14.15
2/1/2021 5:30:00 PM -0.04 31.928 0.107 7.12 7.27 14.13
2/1/2021 5:45:00 PM -0.04 31.928 0.107 7.12 7.27 14.11
2/1/2021 6:00:00 PM -0.05 31.91 0.107 7.11 7.31 14.1
2/1/2021 6:15:00 PM -0.05 31.91 0.106 7.11 7.25 14.09
2/1/2021 6:30:00 PM -0.05 31.91 0.106 7.11 7.29 14.08
2/1/2021 6:45:00 PM -0.05 31.91 0.106 7.1 7.28 14.06
2/1/2021 7:00:00 PM -0.04 31.928 0.106 7.11 7.33 14.05
2/1/2021 7:15:00 PM -0.05 31.91 0.106 7.1 7.33 14.04
2/1/2021 7:30:00 PM -0.04 31.928 0.106 7.1 7.35 14.03
2/1/2021 7:45:00 PM -0.05 31.91 0.106 7.1 7.33 14.02
2/1/2021 8:00:00 PM -0.04 31.928 0.106 7.09 7.31 14.01
2/1/2021 8:15:00 PM -0.04 31.928 0.106 7.09 7.29 14
2/1/2021 8:30:00 PM -0.04 31.928 0.106 7.08 7.35 13.99
2/1/2021 8:45:00 PM -0.04 31.928 0.106 7.08 7.28 13.98
2/1/2021 9:00:00 PM -0.04 31.928 0.106 7.08 7.24 13.97
2/1/2021 9:15:00 PM -0.04 31.928 0.106 7.08 7.27 13.96
2/1/2021 9:30:00 PM -0.04 31.928 0.106 7.08 7.24 13.95
2/1/2021 9:45:00 PM -0.04 31.928 0.106 7.08 7.26 13.94
2/1/2021 10:00:00 PM -0.04 31.928 0.106 7.07 7.35 13.94
2/1/2021 10:15:00 PM -0.04 31.928 0.106 7.07 7.27 13.93
2/1/2021 10:30:00 PM -0.04 31.928 0.106 7.07 7.59 13.92
2/1/2021 10:45:00 PM -0.04 31.928 0.106 7.07 7.72 13.92
2/1/2021 11:00:00 PM -0.04 31.928 0.106 7.06 7.64 13.91
2/1/2021 11:15:00 PM -0.04 31.928 0.106 7.06 7.82 13.9
2/1/2021 11:30:00 PM -0.04 31.928 0.105 7.07 7.65 13.9
2/1/2021 11:45:00 PM -0.04 31.928 0.105 7.06 7.96 13.89
2/2/2021 12:00:00 AM -0.04 31.928 0.105 7.06 7.99 13.89
2/2/2021 12:15:00 AM -0.04 31.928 0.105 7.06 7.18 13.88
2/2/2021 12:30:00 AM -0.04 31.928 0.105 7.06 7.02 13.87
2/2/2021 12:45:00 AM -0.04 31.928 0.105 7.05 7.65 13.86
2/2/2021 1:00:00 AM -0.04 31.928 0.105 7.06 8.1 13.86
2/2/2021 1:15:00 AM -0.04 31.928 0.105 7.05 8.11 13.86
2/2/2021 1:30:00 AM -0.04 31.928 0.105 7.05 7.17 13.85
2/2/2021 1:45:00 AM -0.04 31.928 0.105 7.05 7.12 13.85
2/2/2021 2:00:00 AM -0.04 31.928 0.105 7.05 6.98 13.84
2/2/2021 2:15:00 AM -0.04 31.928 0.105 7.05 7.74 13.84
2/2/2021 2:30:00 AM -0.04 31.928 0.105 7.05 7.77 13.83
2/2/2021 2:45:00 AM -0.04 31.928 0.105 7.05 7.36 13.83
2/2/2021 3:00:00 AM -0.04 31.928 0.105 7.05 7.68 13.83
2/2/2021 3:15:00 AM -0.04 31.928 0.105 7.05 7.45 13.83
2/2/2021 3:30:00 AM -0.04 31.928 0.105 7.04 7.3 13.82
2/2/2021 3:45:00 AM -0.04 31.928 0.105 7.05 7.27 13.82
2/2/2021 4:00:00 AM -0.04 31.928 0.105 7.04 7.32 13.82
2/2/2021 4:15:00 AM -0.04 31.928 0.105 7.05 7.27 13.82
2/2/2021 4:30:00 AM -0.04 31.928 0.105 7.04 7.29 13.82
2/2/2021 4:45:00 AM -0.04 31.928 0.105 7.04 7.34 13.81
2/2/2021 5:00:00 AM -0.04 31.928 0.105 7.04 7.37 13.81
2/2/2021 5:15:00 AM -0.04 31.928 0.105 7.04 7.28 13.81
2/2/2021 5:30:00 AM -0.04 31.928 0.105 7.04 7.2 13.81
2/2/2021 5:45:00 AM -0.04 31.928 0.105 7.04 7.25 13.8
2/2/2021 6:00:00 AM -0.04 31.928 0.105 7.04 7.24 13.8
2/2/2021 6:15:00 AM -0.04 31.928 0.105 7.03 7.19 13.8
2/2/2021 6:30:00 AM -0.04 31.928 0.105 7.04 7.2 13.79
2/2/2021 6:45:00 AM -0.04 31.928 0.105 7.04 7.14 13.79
2/2/2021 7:00:00 AM -0.04 31.928 0.105 7.03 7.21 13.79
2/2/2021 7:15:00 AM -0.04 31.928 0.105 7.03 7.18 13.79
2/2/2021 7:30:00 AM -0.04 31.928 0.105 7.03 7.25 13.79
2/2/2021 7:45:00 AM -0.04 31.928 0.105 7.03 7.17 13.79
2/2/2021 8:00:00 AM -0.03 31.946 0.105 7.03 7.14 13.8
2/2/2021 8:15:00 AM -0.03 31.946 0.105 7.04 7.13 13.82
2/2/2021 8:30:00 AM -0.03 31.946 0.105 7.04 7.18 13.84
2/2/2021 8:45:00 AM -0.02 31.964 0.104 7.05 7.18 13.86
2/2/2021 9:00:00 AM -0.02 31.964 0.104 7.05 7.17 13.88
2/2/2021 9:15:00 AM -0.02 31.964 0.104 7.05 7.15 13.9
2/2/2021 9:30:00 AM -0.01 31.982 0.104 7.06 7.19 13.92
2/2/2021 9:45:00 AM -0.01 31.982 0.104 7.07 7.23 13.93
2/2/2021 10:00:00 AM -0.01 31.982 0.104 7.07 7.15 13.95
2/2/2021 10:15:00 AM 0 32 0.104 7.08 7.19 13.97
2/2/2021 10:30:00 AM -0.01 31.982 0.104 7.08 7.18 13.99
2/2/2021 10:45:00 AM 0 32 0.104 7.08 7.18 14.01
2/2/2021 11:00:00 AM 0 32 0.104 7.09 7.17 14.03
2/2/2021 11:15:00 AM 0 32 0.104 7.1 7.21 14.05
2/2/2021 11:30:00 AM 0.01 32.018 0.104 7.1 7.17 14.06
2/2/2021 11:45:00 AM 0.01 32.018 0.104 7.11 7.17 14.08
2/2/2021 12:00:00 PM 0 32 0.104 7.11 7.28 14.09
2/2/2021 12:15:00 PM 0 32 0.104 7.11 7.3 14.1
2/2/2021 12:30:00 PM 0 32 0.104 7.12 7.33 14.12
2/2/2021 12:45:00 PM 0.01 32.018 0.104 7.12 7.26 14.13
2/2/2021 1:00:00 PM 0.01 32.018 0.104 7.12 7.23 14.14
2/2/2021 1:15:00 PM 0 32 0.103 7.12 7.32 14.15
2/2/2021 1:30:00 PM 0 32 0.103 7.12 7.3 14.16
2/2/2021 1:45:00 PM -0.01 31.982 0.103 7.13 7.35 14.16
2/2/2021 2:00:00 PM -0.01 31.982 0.103 7.13 7.31 14.17
2/2/2021 2:15:00 PM -0.01 31.982 0.103 7.14 7.32 14.17
2/2/2021 2:30:00 PM -0.01 31.982 0.103 7.14 7.41 14.18
2/2/2021 2:45:00 PM -0.01 31.982 0.103 7.14 7.22 14.18
2/2/2021 3:00:00 PM -0.01 31.982 0.103 7.15 7.24 14.18
2/2/2021 3:15:00 PM -0.02 31.964 0.103 7.15 7.23 14.19
2/2/2021 3:30:00 PM -0.02 31.964 0.103 7.16 7.23 14.18
2/2/2021 3:45:00 PM -0.02 31.964 0.103 7.16 7.26 14.18
2/2/2021 4:00:00 PM -0.03 31.946 0.103 7.16 7.29 14.18
2/2/2021 4:15:00 PM -0.03 31.946 0.103 7.16 7.25 14.17
2/2/2021 4:30:00 PM -0.03 31.946 0.103 7.15 7.22 14.16
2/2/2021 4:45:00 PM -0.04 31.928 0.103 7.15 7.25 14.14
2/2/2021 5:00:00 PM -0.04 31.928 0.103 7.15 7.18 14.13
2/2/2021 5:15:00 PM -0.04 31.928 0.103 7.14 7.22 14.11
2/2/2021 5:30:00 PM -0.04 31.928 0.103 7.14 7.2 14.09
2/2/2021 5:45:00 PM -0.04 31.928 0.103 7.14 7.23 14.07
2/2/2021 6:00:00 PM -0.04 31.928 0.103 7.13 7.35 14.05
2/2/2021 6:15:00 PM -0.04 31.928 0.103 7.13 7.27 14.04
2/2/2021 6:30:00 PM -0.04 31.928 0.103 7.12 7.32 14.02
2/2/2021 6:45:00 PM -0.04 31.928 0.103 7.12 7.23 14.01
2/2/2021 7:00:00 PM -0.04 31.928 0.103 7.11 7.21 13.99
2/2/2021 7:15:00 PM -0.04 31.928 0.103 7.12 7.22 13.98
2/2/2021 7:30:00 PM -0.04 31.928 0.103 7.11 7.25 13.97
2/2/2021 7:45:00 PM -0.04 31.928 0.103 7.11 7.26 13.95
2/2/2021 8:00:00 PM -0.04 31.928 0.103 7.1 7.22 13.94
2/2/2021 8:15:00 PM -0.04 31.928 0.103 7.1 7.28 13.93
2/2/2021 8:30:00 PM -0.04 31.928 0.103 7.1 7.16 13.93
2/2/2021 8:45:00 PM -0.04 31.928 0.103 7.1 7.16 13.91
2/2/2021 9:00:00 PM -0.04 31.928 0.103 7.09 7.23 13.9
2/2/2021 9:15:00 PM -0.04 31.928 0.103 7.09 7.17 13.9
2/2/2021 9:30:00 PM -0.04 31.928 0.103 7.09 7.19 13.89
2/2/2021 9:45:00 PM -0.04 31.928 0.103 7.08 7.21 13.88
2/2/2021 10:00:00 PM -0.04 31.928 0.103 7.09 7.21 13.87
2/2/2021 10:15:00 PM -0.04 31.928 0.103 7.08 7.19 13.87
2/2/2021 10:30:00 PM -0.04 31.928 0.103 7.08 7.21 13.86
2/2/2021 10:45:00 PM -0.04 31.928 0.103 7.08 7.23 13.85
2/2/2021 11:00:00 PM -0.04 31.928 0.103 7.08 7.22 13.85
2/2/2021 11:15:00 PM -0.04 31.928 0.103 7.08 7.2 13.84
2/2/2021 11:30:00 PM -0.04 31.928 0.103 7.07 7.21 13.84
2/2/2021 11:45:00 PM -0.04 31.928 0.103 7.07 7.22 13.83
2/3/2021 12:00:00 AM -0.04 31.928 0.103 7.07 7.17 13.83
2/3/2021 12:15:00 AM -0.04 31.928 0.103 7.07 7.18 13.82
2/3/2021 12:30:00 AM -0.04 31.928 0.103 7.07 7.18 13.82
2/3/2021 12:45:00 AM -0.04 31.928 0.103 7.07 7.26 13.82
2/3/2021 1:00:00 AM -0.04 31.928 0.103 7.06 7.2 13.81
2/3/2021 1:15:00 AM -0.04 31.928 0.103 7.06 7.22 13.81
2/3/2021 1:30:00 AM -0.04 31.928 0.104 7.06 7.19 13.81
2/3/2021 1:45:00 AM -0.04 31.928 0.104 7.06 7.39 13.81
2/3/2021 2:00:00 AM -0.04 31.928 0.104 7.06 7.21 13.8
2/3/2021 2:15:00 AM -0.04 31.928 0.104 7.07 7.31 13.8
2/3/2021 2:30:00 AM -0.04 31.928 0.104 7.07 7.19 13.8
2/3/2021 2:45:00 AM -0.04 31.928 0.104 7.06 7.33 13.8
2/3/2021 3:00:00 AM -0.04 31.928 0.104 7.06 7.21 13.8
2/3/2021 3:15:00 AM -0.04 31.928 0.104 7.06 7.21 13.79
2/3/2021 3:30:00 AM -0.04 31.928 0.104 7.06 7.19 13.79
2/3/2021 3:45:00 AM -0.04 31.928 0.104 7.06 7.22 13.79
2/3/2021 4:00:00 AM -0.04 31.928 0.104 7.06 7.17 13.79
2/3/2021 4:15:00 AM -0.04 31.928 0.104 7.05 7.22 13.79
2/3/2021 4:30:00 AM -0.04 31.928 0.104 7.05 7.19 13.79
2/3/2021 4:45:00 AM -0.04 31.928 0.104 7.06 7.22 13.79
2/3/2021 5:00:00 AM -0.04 31.928 0.104 7.06 7.26 13.79
2/3/2021 5:15:00 AM -0.04 31.928 0.104 7.06 7.21 13.79
2/3/2021 5:30:00 AM -0.04 31.928 0.104 7.06 7.15 13.79
2/3/2021 5:45:00 AM -0.04 31.928 0.104 7.06 7.23 13.79
2/3/2021 6:00:00 AM -0.04 31.928 0.104 7.06 7.25 13.79
2/3/2021 6:15:00 AM -0.04 31.928 0.104 7.06 7.19 13.79
2/3/2021 6:30:00 AM -0.04 31.928 0.104 7.06 7.24 13.79
2/3/2021 6:45:00 AM -0.04 31.928 0.104 7.05 7.25 13.79
2/3/2021 7:00:00 AM -0.04 31.928 0.104 7.06 7.16 13.79
2/3/2021 7:15:00 AM -0.04 31.928 0.104 7.06 7.13 13.79
2/3/2021 7:30:00 AM -0.04 31.928 0.104 7.06 7.18 13.8
2/3/2021 7:45:00 AM -0.04 31.928 0.104 7.06 7.2 13.8
2/3/2021 8:00:00 AM -0.03 31.946 0.104 7.06 7.17 13.81
2/3/2021 8:15:00 AM -0.03 31.946 0.104 7.06 7.32 13.83
2/3/2021 8:30:00 AM -0.03 31.946 0.104 7.07 7.12 13.84
2/3/2021 8:45:00 AM -0.03 31.946 0.104 7.07 7.15 13.85
2/3/2021 9:00:00 AM -0.03 31.946 0.104 7.07 7.2 13.87
2/3/2021 9:15:00 AM -0.03 31.946 0.104 7.08 7.23 13.89
2/3/2021 9:30:00 AM -0.02 31.964 0.104 7.08 7.14 13.92
2/3/2021 9:45:00 AM -0.02 31.964 0.104 7.09 7.16 13.94
2/3/2021 10:00:00 AM -0.01 31.982 0.104 7.09 7.16 13.97
2/3/2021 10:15:00 AM 0 32 0.104 7.1 7.31 13.99
2/3/2021 10:30:00 AM 0 32 0.104 7.11 7.23 14.01
2/3/2021 10:45:00 AM 0.02 32.036 0.104 7.11 7.22 14.04
2/3/2021 11:00:00 AM 0.02 32.036 0.104 7.12 7.12 14.06
2/3/2021 11:15:00 AM 0.04 32.072 0.104 7.12 7.2 14.09
2/3/2021 11:30:00 AM 0.03 32.054 0.104 7.12 7.23 14.1
2/3/2021 11:45:00 AM 0.03 32.054 0.104 7.14 7.15 14.11
2/3/2021 12:00:00 PM 0.02 32.036 0.104 7.14 7.2 14.13
2/3/2021 12:15:00 PM 0.04 32.072 0.103 7.15 7.21 14.15
2/3/2021 12:30:00 PM 0.05 32.09 0.103 7.15 7.16 14.16
2/3/2021 12:45:00 PM 0.03 32.054 0.103 7.15 7.15 14.17
2/3/2021 1:00:00 PM 0.03 32.054 0.103 7.16 7.22 14.18
2/3/2021 1:15:00 PM 0.03 32.054 0.103 7.16 7.2 14.2
2/3/2021 1:30:00 PM 0.03 32.054 0.103 7.16 7.18 14.21
2/3/2021 1:45:00 PM 0.04 32.072 0.103 7.17 7.13 14.22
2/3/2021 2:00:00 PM 0.05 32.09 0.103 7.17 7.19 14.23
2/3/2021 2:15:00 PM 0.05 32.09 0.103 7.18 7.22 14.23
2/3/2021 2:30:00 PM 0.05 32.09 0.103 7.18 7.22 14.24
2/3/2021 2:45:00 PM 0.03 32.054 0.103 7.18 7.22 14.24
2/3/2021 3:00:00 PM 0.03 32.054 0.103 7.19 7.17 14.24
2/3/2021 3:15:00 PM 0.03 32.054 0.103 7.19 7.24 14.25
2/3/2021 3:30:00 PM 0.03 32.054 0.103 7.19 7.31 14.25
2/3/2021 3:45:00 PM 0.02 32.036 0.103 7.19 7.22 14.25
2/3/2021 4:00:00 PM 0.01 32.018 0.103 7.19 7.21 14.25
2/3/2021 4:15:00 PM 0 32 0.102 7.19 7.19 14.24
2/3/2021 4:30:00 PM -0.01 31.982 0.102 7.19 7.25 14.23
2/3/2021 4:45:00 PM -0.02 31.964 0.102 7.18 7.21 14.22
2/3/2021 5:00:00 PM -0.03 31.946 0.102 7.19 7.24 14.2
2/3/2021 5:15:00 PM -0.03 31.946 0.102 7.18 7.2 14.19
2/3/2021 5:30:00 PM -0.04 31.928 0.102 7.18 7.18 14.16
2/3/2021 5:45:00 PM -0.04 31.928 0.102 7.17 7.23 14.14
2/3/2021 6:00:00 PM -0.04 31.928 0.102 7.16 7.24 14.13
2/3/2021 6:15:00 PM -0.04 31.928 0.102 7.16 7.22 14.11
2/3/2021 6:30:00 PM -0.04 31.928 0.102 7.15 7.18 14.09
2/3/2021 6:45:00 PM -0.04 31.928 0.103 7.15 7.22 14.08
2/3/2021 7:00:00 PM -0.03 31.946 0.103 7.14 7.22 14.07
2/3/2021 7:15:00 PM -0.03 31.946 0.103 7.14 7.16 14.05
2/3/2021 7:30:00 PM -0.03 31.946 0.103 7.14 7.17 14.04
2/3/2021 7:45:00 PM -0.03 31.946 0.103 7.14 7.2 14.03
2/3/2021 8:00:00 PM -0.04 31.928 0.103 7.13 7.14 14.02
2/3/2021 8:15:00 PM -0.04 31.928 0.103 7.12 7.23 14.01
2/3/2021 8:30:00 PM -0.04 31.928 0.103 7.12 7.23 14
2/3/2021 8:45:00 PM -0.04 31.928 0.103 7.11 7.27 13.99
2/3/2021 9:00:00 PM -0.04 31.928 0.103 7.11 7.15 13.99
2/3/2021 9:15:00 PM -0.05 31.91 0.103 7.11 7.2 13.98
2/3/2021 9:30:00 PM -0.05 31.91 0.103 7.11 7.26 13.98
2/3/2021 9:45:00 PM -0.05 31.91 0.103 7.11 7.2 13.97
2/3/2021 10:00:00 PM -0.05 31.91 0.103 7.11 7.18 13.97
2/3/2021 10:15:00 PM -0.05 31.91 0.103 7.1 7.25 13.97
2/3/2021 10:30:00 PM -0.06 31.892 0.103 7.1 7.19 13.97
2/3/2021 10:45:00 PM -0.06 31.892 0.103 7.1 7.17 13.96
2/3/2021 11:00:00 PM -0.06 31.892 0.103 7.1 7.21 13.96
2/3/2021 11:15:00 PM -0.06 31.892 0.103 7.1 7.21 13.97
2/3/2021 11:30:00 PM -0.06 31.892 0.103 7.09 7.18 13.97
2/3/2021 11:45:00 PM -0.06 31.892 0.103 7.09 7.18 13.97
2/4/2021 12:00:00 AM -0.06 31.892 0.103 7.09 7.2 13.97
2/4/2021 12:15:00 AM -0.06 31.892 0.103 7.09 7.43 13.97
2/4/2021 12:30:00 AM -0.06 31.892 0.103 7.09 7.22 13.97
2/4/2021 12:45:00 AM -0.06 31.892 0.103 7.09 7.22 13.97
2/4/2021 1:00:00 AM -0.06 31.892 0.104 7.08 7.18 13.97
2/4/2021 1:15:00 AM -0.06 31.892 0.104 7.08 7.33 13.97
2/4/2021 1:30:00 AM -0.06 31.892 0.104 7.08 7.24 13.97
2/4/2021 1:45:00 AM -0.06 31.892 0.104 7.08 7.34 13.97
2/4/2021 2:00:00 AM -0.06 31.892 0.104 7.07 7.28 13.97
2/4/2021 2:15:00 AM -0.06 31.892 0.104 7.08 7.29 13.97
2/4/2021 2:30:00 AM -0.06 31.892 0.104 7.08 7.29 13.97
2/4/2021 2:45:00 AM -0.06 31.892 0.104 7.08 7.22 13.97
2/4/2021 3:00:00 AM -0.06 31.892 0.104 7.07 7.22 13.97
2/4/2021 3:15:00 AM -0.06 31.892 0.104 7.07 7.23 13.97
2/4/2021 3:30:00 AM -0.06 31.892 0.104 7.08 7.3 13.98
2/4/2021 3:45:00 AM -0.06 31.892 0.104 7.07 7.27 13.97
2/4/2021 4:00:00 AM -0.06 31.892 0.105 7.07 7.27 13.98
2/4/2021 4:15:00 AM -0.06 31.892 0.105 7.07 7.24 13.97
2/4/2021 4:30:00 AM -0.06 31.892 0.105 7.08 7.28 13.97
2/4/2021 4:45:00 AM -0.05 31.91 0.105 7.07 7.24 13.97
2/4/2021 5:00:00 AM -0.05 31.91 0.105 7.07 7.24 13.97
2/4/2021 5:15:00 AM -0.05 31.91 0.105 7.07 7.26 13.97
2/4/2021 5:30:00 AM -0.05 31.91 0.105 7.07 7.25 13.97
2/4/2021 5:45:00 AM -0.06 31.892 0.105 7.07 7.27 13.97
2/4/2021 6:00:00 AM -0.06 31.892 0.105 7.06 7.21 13.97
2/4/2021 6:15:00 AM -0.06 31.892 0.105 7.06 7.21 13.97
2/4/2021 6:30:00 AM -0.06 31.892 0.106 7.07 7.16 13.97
2/4/2021 6:45:00 AM -0.06 31.892 0.106 7.06 7.17 13.97
2/4/2021 7:00:00 AM -0.06 31.892 0.106 7.06 7.2 13.98
2/4/2021 7:15:00 AM -0.06 31.892 0.106 7.07 7.18 13.98
2/4/2021 7:30:00 AM -0.06 31.892 0.106 7.06 7.21 13.98
2/4/2021 7:45:00 AM -0.06 31.892 0.106 7.06 7.19 14
2/4/2021 8:00:00 AM -0.05 31.91 0.106 7.07 7.18 14.02
2/4/2021 8:15:00 AM -0.05 31.91 0.106 7.08 7.23 14.04
2/4/2021 8:30:00 AM -0.04 31.928 0.107 7.08 7.19 14.07
2/4/2021 8:45:00 AM -0.03 31.946 0.107 7.08 7.19 14.1
2/4/2021 9:00:00 AM -0.02 31.964 0.107 7.09 7.23 14.14
2/4/2021 9:15:00 AM -0.01 31.982 0.107 7.09 7.22 14.16
2/4/2021 9:30:00 AM 0 32 0.107 7.1 7.21 14.18
2/4/2021 9:45:00 AM 0.02 32.036 0.107 7.1 7.2 14.19
2/4/2021 10:00:00 AM 0.03 32.054 0.107 7.1 7.23 14.21
2/4/2021 10:15:00 AM 0.04 32.072 0.107 7.11 7.23 14.23
2/4/2021 10:30:00 AM 0.06 32.108 0.107 7.12 7.17 14.24
2/4/2021 10:45:00 AM 0.08 32.144 0.107 7.13 7.2 14.25
2/4/2021 11:00:00 AM 0.1 32.18 0.107 7.14 7.21 14.26
2/4/2021 11:15:00 AM 0.11 32.198 0.107 7.14 7.15 14.27
2/4/2021 11:30:00 AM 0.13 32.234 0.107 7.15 7.13 14.28
2/4/2021 11:45:00 AM 0.14 32.252 0.107 7.15 7.15 14.29
2/4/2021 12:00:00 PM 0.15 32.27 0.107 7.15 7.16 14.3
2/4/2021 12:15:00 PM 0.17 32.306 0.107 7.17 7.14 14.31
2/4/2021 12:30:00 PM 0.19 32.342 0.106 7.17 7.21 14.3
2/4/2021 12:45:00 PM 0.2 32.36 0.106 7.18 7.29 14.3
2/4/2021 1:00:00 PM 0.18 32.324 0.106 7.17 7.27 14.32
2/4/2021 1:15:00 PM 0.17 32.306 0.105 7.17 7.35 14.33
2/4/2021 1:30:00 PM 0.17 32.306 0.105 7.18 7.35 14.32
2/4/2021 1:45:00 PM 0.17 32.306 0.105 7.18 7.48 14.32
2/4/2021 2:00:00 PM 0.18 32.324 0.105 7.18 7.4 14.32
2/4/2021 2:15:00 PM 0.17 32.306 0.105 7.19 7.44 14.33
2/4/2021 2:30:00 PM 0.17 32.306 0.105 7.19 7.63 14.33
2/4/2021 2:45:00 PM 0.14 32.252 0.105 7.19 7.33 14.34
2/4/2021 3:00:00 PM 0.11 32.198 0.105 7.19 7.41 14.34
2/4/2021 3:15:00 PM 0.11 32.198 0.105 7.19 7.4 14.34
2/4/2021 3:30:00 PM 0.1 32.18 0.105 7.2 7.38 14.34
2/4/2021 3:45:00 PM 0.07 32.126 0.105 7.19 7.42 14.34
2/4/2021 4:00:00 PM 0.05 32.09 0.105 7.19 7.36 14.34
2/4/2021 4:15:00 PM 0.03 32.054 0.105 7.2 7.33 14.34
2/4/2021 4:30:00 PM 0.01 32.018 0.105 7.19 7.27 14.34
2/4/2021 4:45:00 PM 0 32 0.105 7.18 7.28 14.32
2/4/2021 5:00:00 PM -0.01 31.982 0.105 7.18 7.29 14.3
2/4/2021 5:15:00 PM -0.02 31.964 0.104 7.18 7.4 14.29
2/4/2021 5:30:00 PM -0.03 31.946 0.104 7.18 7.25 14.26
2/4/2021 5:45:00 PM -0.04 31.928 0.104 7.17 7.25 14.24
2/4/2021 6:00:00 PM -0.04 31.928 0.104 7.17 7.29 14.22
2/4/2021 6:15:00 PM -0.04 31.928 0.104 7.16 7.12 14.2
2/4/2021 6:30:00 PM -0.05 31.91 0.104 7.16 7.16 14.19
2/4/2021 6:45:00 PM -0.05 31.91 0.104 7.15 7.1 14.18
2/4/2021 7:00:00 PM -0.05 31.91 0.104 7.15 7 14.16
2/4/2021 7:15:00 PM -0.05 31.91 0.104 7.14 7.08 14.15
2/4/2021 7:30:00 PM -0.05 31.91 0.104 7.14 7.03 14.14
2/4/2021 7:45:00 PM -0.05 31.91 0.104 7.13 7.03 14.13
2/4/2021 8:00:00 PM -0.05 31.91 0.104 7.13 7.24 14.12
2/4/2021 8:15:00 PM -0.05 31.91 0.104 7.13 7.23 14.1
2/4/2021 8:30:00 PM -0.05 31.91 0.104 7.12 7.26 14.09
2/4/2021 8:45:00 PM -0.05 31.91 0.104 7.12 7.28 14.08
2/4/2021 9:00:00 PM -0.05 31.91 0.104 7.12 7.06 14.08
2/4/2021 9:15:00 PM -0.05 31.91 0.104 7.12 6.96 14.07
2/4/2021 9:30:00 PM -0.05 31.91 0.104 7.11 7 14.06
2/4/2021 9:45:00 PM -0.05 31.91 0.104 7.1 7.09 14.05
2/4/2021 10:00:00 PM -0.05 31.91 0.104 7.11 7 14.05
2/4/2021 10:15:00 PM -0.05 31.91 0.104 7.1 6.99 14.03
2/4/2021 10:30:00 PM -0.05 31.91 0.105 7.1 6.98 14.03
2/4/2021 10:45:00 PM -0.05 31.91 0.105 7.1 6.98 14.03
2/4/2021 11:00:00 PM -0.04 31.928 0.105 7.09 7.06 14.02
2/4/2021 11:15:00 PM -0.04 31.928 0.105 7.1 6.95 14.01
2/4/2021 11:30:00 PM -0.04 31.928 0.105 7.1 7.1 14.01
2/4/2021 11:45:00 PM -0.04 31.928 0.105 7.09 7 14
2/5/2021 12:00:00 AM -0.04 31.928 0.105 7.09 7.11 13.99
2/5/2021 12:15:00 AM -0.04 31.928 0.106 7.09 6.97 13.98
2/5/2021 12:30:00 AM -0.04 31.928 0.106 7.09 6.92 13.98
2/5/2021 12:45:00 AM -0.04 31.928 0.106 7.09 7.05 13.97
2/5/2021 1:00:00 AM -0.03 31.946 0.106 7.09 7.05 13.97
2/5/2021 1:15:00 AM -0.03 31.946 0.106 7.09 7 13.96
2/5/2021 1:30:00 AM -0.03 31.946 0.107 7.09 7.06 13.96
2/5/2021 1:45:00 AM -0.03 31.946 0.107 7.09 7.09 13.94
2/5/2021 2:00:00 AM -0.03 31.946 0.107 7.09 7.7 13.94
2/5/2021 2:15:00 AM -0.03 31.946 0.107 7.08 7.24 13.93
2/5/2021 2:30:00 AM -0.03 31.946 0.107 7.08 7.02 13.92
2/5/2021 2:45:00 AM -0.03 31.946 0.107 7.09 7.07 13.92
2/5/2021 3:00:00 AM -0.03 31.946 0.107 7.09 7.04 13.92
2/5/2021 3:15:00 AM -0.03 31.946 0.108 7.09 7.08 13.91
2/5/2021 3:30:00 AM -0.03 31.946 0.108 7.08 7.2 13.91
2/5/2021 3:45:00 AM -0.03 31.946 0.108 7.07 7.28 13.91
2/5/2021 4:00:00 AM -0.02 31.964 0.108 7.08 7.34 13.9
2/5/2021 4:15:00 AM -0.02 31.964 0.108 7.08 7.27 13.89
2/5/2021 4:30:00 AM -0.02 31.964 0.108 7.08 7.3 13.89
2/5/2021 4:45:00 AM -0.02 31.964 0.108 7.08 7.21 13.88
2/5/2021 5:00:00 AM -0.02 31.964 0.108 7.08 7.27 13.88
2/5/2021 5:15:00 AM -0.03 31.946 0.108 7.08 7.27 13.87
2/5/2021 5:30:00 AM -0.03 31.946 0.108 7.08 7.82 13.87
2/5/2021 5:45:00 AM -0.04 31.928 0.108 7.08 7.78 13.86
2/5/2021 6:00:00 AM -0.05 31.91 0.108 7.08 7.78 13.86
2/5/2021 6:15:00 AM -0.04 31.928 0.108 7.08 7.78 13.86
2/5/2021 6:30:00 AM -0.03 31.946 0.108 7.09 7.67 13.85
2/5/2021 6:45:00 AM -0.03 31.946 0.108 7.08 7.68 13.85
2/5/2021 7:00:00 AM -0.03 31.946 0.108 7.08 7.6 13.85
2/5/2021 7:15:00 AM -0.02 31.964 0.108 7.08 7.55 13.85
2/5/2021 7:30:00 AM -0.02 31.964 0.108 7.08 7.64 13.85
2/5/2021 7:45:00 AM -0.02 31.964 0.108 7.09 7.59 13.85
2/5/2021 8:00:00 AM -0.02 31.964 0.108 7.09 7.63 13.85
2/5/2021 8:15:00 AM -0.01 31.982 0.108 7.09 7.55 13.87
2/5/2021 8:30:00 AM 0 32 0.108 7.09 7.61 13.9
2/5/2021 8:45:00 AM 0.01 32.018 0.108 7.1 7.54 13.93
2/5/2021 9:00:00 AM 0.02 32.036 0.108 7.11 7.61 13.95
2/5/2021 9:15:00 AM 0.03 32.054 0.108 7.12 7.59 13.98
2/5/2021 9:30:00 AM 0.04 32.072 0.108 7.12 7.6 14
2/5/2021 9:45:00 AM 0.06 32.108 0.108 7.14 7.58 14.03
2/5/2021 10:00:00 AM 0.13 32.234 0.107 7.15 7.67 14.05
2/5/2021 10:15:00 AM 0.17 32.306 0.107 7.15 7.61 14.08
2/5/2021 10:30:00 AM 0.2 32.36 0.107